<?xml version="1.0" encoding="UTF-8" standalone="no" ?>
<gpx xmlns="http://www.topografix.com/GPX/1/1" xmlns:xsi="http://www.w3.org/2001/XMLSchema-instance" xsi:schemaLocation="http://www.topografix.com/GPX/1/1 http://www.topografix.com/GPX/1/1/gpx.xsd" version="1.1" creator="VisuGPX - https://www.visugpx.com">
  <metadata>
    <name>VTT XC/AM Grabels</name>
    <desc><![CDATA[Reprise des sorties de la pause déjeuner avec le retour des beaux jours. Réalisable en 1 heure de roulage; on essaie ici de travailler le cardio avec des raidillons (le premier est dur, je n'ai pas réussi avec le 30 x 42) et un peu de technique dans les descentes. ça permet de se maintenir et de progresser un peu pour les sorties du week end !]]></desc>
  </metadata>
  <trk>
    <name><![CDATA[VTT XC/AM Grabels_1]]></name>
    <trkseg>
      <trkpt lat="43.63756" lon="3.82857">
        <ele>120.7</ele>
        <time>2017-03-09T11:22:48Z</time>
      </trkpt>
      <trkpt lat="43.63756" lon="3.82857">
        <ele>120.7</ele>
        <time>2017-03-09T11:22:57Z</time>
      </trkpt>
      <trkpt lat="43.63757" lon="3.82848">
        <ele>113.1</ele>
        <time>2017-03-09T11:24:37Z</time>
      </trkpt>
      <trkpt lat="43.6377" lon="3.82847">
        <ele>118.4</ele>
        <time>2017-03-09T11:25:25Z</time>
      </trkpt>
      <trkpt lat="43.63769" lon="3.82835">
        <ele>118.9</ele>
        <time>2017-03-09T11:25:28Z</time>
      </trkpt>
      <trkpt lat="43.63773" lon="3.82822">
        <ele>119.2</ele>
        <time>2017-03-09T11:25:31Z</time>
      </trkpt>
      <trkpt lat="43.63783" lon="3.82818">
        <ele>119.6</ele>
        <time>2017-03-09T11:25:34Z</time>
      </trkpt>
      <trkpt lat="43.6379" lon="3.82811">
        <ele>119.9</ele>
        <time>2017-03-09T11:25:37Z</time>
      </trkpt>
      <trkpt lat="43.63797" lon="3.82804">
        <ele>119.9</ele>
        <time>2017-03-09T11:25:40Z</time>
      </trkpt>
      <trkpt lat="43.63804" lon="3.82801">
        <ele>119.9</ele>
        <time>2017-03-09T11:25:42Z</time>
      </trkpt>
      <trkpt lat="43.63811" lon="3.82796">
        <ele>119.6</ele>
        <time>2017-03-09T11:25:44Z</time>
      </trkpt>
      <trkpt lat="43.63821" lon="3.8279">
        <ele>119.9</ele>
        <time>2017-03-09T11:25:47Z</time>
      </trkpt>
      <trkpt lat="43.6383" lon="3.8279">
        <ele>120.4</ele>
        <time>2017-03-09T11:25:50Z</time>
      </trkpt>
      <trkpt lat="43.63839" lon="3.8279">
        <ele>122.5</ele>
        <time>2017-03-09T11:25:52Z</time>
      </trkpt>
      <trkpt lat="43.63846" lon="3.82785">
        <ele>124.5</ele>
        <time>2017-03-09T11:25:54Z</time>
      </trkpt>
      <trkpt lat="43.63854" lon="3.82781">
        <ele>124.8</ele>
        <time>2017-03-09T11:25:57Z</time>
      </trkpt>
      <trkpt lat="43.63862" lon="3.82775">
        <ele>125.5</ele>
        <time>2017-03-09T11:26:00Z</time>
      </trkpt>
      <trkpt lat="43.63869" lon="3.82771">
        <ele>125.8</ele>
        <time>2017-03-09T11:26:02Z</time>
      </trkpt>
      <trkpt lat="43.63877" lon="3.82776">
        <ele>128.3</ele>
        <time>2017-03-09T11:26:04Z</time>
      </trkpt>
      <trkpt lat="43.63884" lon="3.82788">
        <ele>128.7</ele>
        <time>2017-03-09T11:26:06Z</time>
      </trkpt>
      <trkpt lat="43.6389" lon="3.82798">
        <ele>128.8</ele>
        <time>2017-03-09T11:26:08Z</time>
      </trkpt>
      <trkpt lat="43.63896" lon="3.82807">
        <ele>128.9</ele>
        <time>2017-03-09T11:26:11Z</time>
      </trkpt>
      <trkpt lat="43.63904" lon="3.82808">
        <ele>128.9</ele>
        <time>2017-03-09T11:26:14Z</time>
      </trkpt>
      <trkpt lat="43.63912" lon="3.82809">
        <ele>128.9</ele>
        <time>2017-03-09T11:26:17Z</time>
      </trkpt>
      <trkpt lat="43.6392" lon="3.82818">
        <ele>129</ele>
        <time>2017-03-09T11:26:20Z</time>
      </trkpt>
      <trkpt lat="43.63925" lon="3.82832">
        <ele>129.4</ele>
        <time>2017-03-09T11:26:23Z</time>
      </trkpt>
      <trkpt lat="43.63923" lon="3.82826">
        <ele>129.6</ele>
        <time>2017-03-09T11:26:30Z</time>
      </trkpt>
      <trkpt lat="43.6392" lon="3.82823">
        <ele>127.9</ele>
        <time>2017-03-09T11:26:44Z</time>
      </trkpt>
      <trkpt lat="43.63924" lon="3.82823">
        <ele>126.6</ele>
        <time>2017-03-09T11:26:51Z</time>
      </trkpt>
      <trkpt lat="43.63931" lon="3.82818">
        <ele>126.3</ele>
        <time>2017-03-09T11:26:55Z</time>
      </trkpt>
      <trkpt lat="43.63939" lon="3.82814">
        <ele>126.3</ele>
        <time>2017-03-09T11:26:58Z</time>
      </trkpt>
      <trkpt lat="43.63946" lon="3.8281">
        <ele>126</ele>
        <time>2017-03-09T11:27:02Z</time>
      </trkpt>
      <trkpt lat="43.63953" lon="3.82806">
        <ele>125.8</ele>
        <time>2017-03-09T11:27:05Z</time>
      </trkpt>
      <trkpt lat="43.63963" lon="3.82797">
        <ele>125.7</ele>
        <time>2017-03-09T11:27:09Z</time>
      </trkpt>
      <trkpt lat="43.6397" lon="3.82793">
        <ele>125.8</ele>
        <time>2017-03-09T11:27:11Z</time>
      </trkpt>
      <trkpt lat="43.63982" lon="3.82788">
        <ele>126.1</ele>
        <time>2017-03-09T11:27:14Z</time>
      </trkpt>
      <trkpt lat="43.63993" lon="3.82786">
        <ele>126.2</ele>
        <time>2017-03-09T11:27:16Z</time>
      </trkpt>
      <trkpt lat="43.64001" lon="3.82785">
        <ele>126.4</ele>
        <time>2017-03-09T11:27:18Z</time>
      </trkpt>
      <trkpt lat="43.64008" lon="3.82778">
        <ele>126.6</ele>
        <time>2017-03-09T11:27:21Z</time>
      </trkpt>
      <trkpt lat="43.64014" lon="3.82771">
        <ele>126.7</ele>
        <time>2017-03-09T11:27:24Z</time>
      </trkpt>
      <trkpt lat="43.64022" lon="3.82765">
        <ele>126.8</ele>
        <time>2017-03-09T11:27:27Z</time>
      </trkpt>
      <trkpt lat="43.64029" lon="3.82762">
        <ele>126.8</ele>
        <time>2017-03-09T11:27:29Z</time>
      </trkpt>
      <trkpt lat="43.64036" lon="3.82756">
        <ele>127</ele>
        <time>2017-03-09T11:27:31Z</time>
      </trkpt>
      <trkpt lat="43.64044" lon="3.82747">
        <ele>127.5</ele>
        <time>2017-03-09T11:27:34Z</time>
      </trkpt>
      <trkpt lat="43.64052" lon="3.82741">
        <ele>128</ele>
        <time>2017-03-09T11:27:37Z</time>
      </trkpt>
      <trkpt lat="43.6406" lon="3.82733">
        <ele>128.4</ele>
        <time>2017-03-09T11:27:40Z</time>
      </trkpt>
      <trkpt lat="43.64069" lon="3.82725">
        <ele>128.8</ele>
        <time>2017-03-09T11:27:43Z</time>
      </trkpt>
      <trkpt lat="43.64077" lon="3.82718">
        <ele>129.1</ele>
        <time>2017-03-09T11:27:46Z</time>
      </trkpt>
      <trkpt lat="43.64084" lon="3.82713">
        <ele>129.3</ele>
        <time>2017-03-09T11:27:48Z</time>
      </trkpt>
      <trkpt lat="43.64093" lon="3.82707">
        <ele>129.6</ele>
        <time>2017-03-09T11:27:51Z</time>
      </trkpt>
      <trkpt lat="43.641" lon="3.82699">
        <ele>129.9</ele>
        <time>2017-03-09T11:27:55Z</time>
      </trkpt>
      <trkpt lat="43.64109" lon="3.8269">
        <ele>130.3</ele>
        <time>2017-03-09T11:27:58Z</time>
      </trkpt>
      <trkpt lat="43.64115" lon="3.82683">
        <ele>130.9</ele>
        <time>2017-03-09T11:28:01Z</time>
      </trkpt>
      <trkpt lat="43.64122" lon="3.82674">
        <ele>131.6</ele>
        <time>2017-03-09T11:28:04Z</time>
      </trkpt>
      <trkpt lat="43.64127" lon="3.82667">
        <ele>132.1</ele>
        <time>2017-03-09T11:28:06Z</time>
      </trkpt>
      <trkpt lat="43.64135" lon="3.82657">
        <ele>132.8</ele>
        <time>2017-03-09T11:28:09Z</time>
      </trkpt>
      <trkpt lat="43.64144" lon="3.82648">
        <ele>133.7</ele>
        <time>2017-03-09T11:28:12Z</time>
      </trkpt>
      <trkpt lat="43.6415" lon="3.8264">
        <ele>134.4</ele>
        <time>2017-03-09T11:28:15Z</time>
      </trkpt>
      <trkpt lat="43.64157" lon="3.8263">
        <ele>135</ele>
        <time>2017-03-09T11:28:18Z</time>
      </trkpt>
      <trkpt lat="43.64164" lon="3.82623">
        <ele>135.3</ele>
        <time>2017-03-09T11:28:21Z</time>
      </trkpt>
      <trkpt lat="43.64171" lon="3.82613">
        <ele>135.6</ele>
        <time>2017-03-09T11:28:24Z</time>
      </trkpt>
      <trkpt lat="43.64179" lon="3.82604">
        <ele>135.8</ele>
        <time>2017-03-09T11:28:27Z</time>
      </trkpt>
      <trkpt lat="43.64184" lon="3.82596">
        <ele>135.8</ele>
        <time>2017-03-09T11:28:29Z</time>
      </trkpt>
      <trkpt lat="43.6419" lon="3.82585">
        <ele>135.8</ele>
        <time>2017-03-09T11:28:32Z</time>
      </trkpt>
      <trkpt lat="43.64198" lon="3.82576">
        <ele>135.8</ele>
        <time>2017-03-09T11:28:35Z</time>
      </trkpt>
      <trkpt lat="43.64204" lon="3.82569">
        <ele>135.9</ele>
        <time>2017-03-09T11:28:37Z</time>
      </trkpt>
      <trkpt lat="43.64209" lon="3.82558">
        <ele>136.3</ele>
        <time>2017-03-09T11:28:41Z</time>
      </trkpt>
      <trkpt lat="43.64216" lon="3.82547">
        <ele>136.6</ele>
        <time>2017-03-09T11:28:44Z</time>
      </trkpt>
      <trkpt lat="43.6422" lon="3.82538">
        <ele>136.6</ele>
        <time>2017-03-09T11:28:46Z</time>
      </trkpt>
      <trkpt lat="43.64224" lon="3.82529">
        <ele>136.6</ele>
        <time>2017-03-09T11:28:48Z</time>
      </trkpt>
      <trkpt lat="43.6423" lon="3.82516">
        <ele>136.7</ele>
        <time>2017-03-09T11:28:51Z</time>
      </trkpt>
      <trkpt lat="43.64237" lon="3.82505">
        <ele>136.7</ele>
        <time>2017-03-09T11:28:54Z</time>
      </trkpt>
      <trkpt lat="43.64242" lon="3.82493">
        <ele>137</ele>
        <time>2017-03-09T11:28:57Z</time>
      </trkpt>
      <trkpt lat="43.64245" lon="3.82483">
        <ele>137</ele>
        <time>2017-03-09T11:28:59Z</time>
      </trkpt>
      <trkpt lat="43.6425" lon="3.82474">
        <ele>137.1</ele>
        <time>2017-03-09T11:29:01Z</time>
      </trkpt>
      <trkpt lat="43.64254" lon="3.82463">
        <ele>137.4</ele>
        <time>2017-03-09T11:29:04Z</time>
      </trkpt>
      <trkpt lat="43.64259" lon="3.82455">
        <ele>137.5</ele>
        <time>2017-03-09T11:29:06Z</time>
      </trkpt>
      <trkpt lat="43.64263" lon="3.82443">
        <ele>137.7</ele>
        <time>2017-03-09T11:29:09Z</time>
      </trkpt>
      <trkpt lat="43.64268" lon="3.82432">
        <ele>137.8</ele>
        <time>2017-03-09T11:29:12Z</time>
      </trkpt>
      <trkpt lat="43.64273" lon="3.8242">
        <ele>137.6</ele>
        <time>2017-03-09T11:29:14Z</time>
      </trkpt>
      <trkpt lat="43.64277" lon="3.82412">
        <ele>137.4</ele>
        <time>2017-03-09T11:29:16Z</time>
      </trkpt>
      <trkpt lat="43.64282" lon="3.82404">
        <ele>136.6</ele>
        <time>2017-03-09T11:29:18Z</time>
      </trkpt>
      <trkpt lat="43.64288" lon="3.82395">
        <ele>134</ele>
        <time>2017-03-09T11:29:20Z</time>
      </trkpt>
      <trkpt lat="43.64295" lon="3.82389">
        <ele>133.9</ele>
        <time>2017-03-09T11:29:22Z</time>
      </trkpt>
      <trkpt lat="43.643" lon="3.82379">
        <ele>133.9</ele>
        <time>2017-03-09T11:29:26Z</time>
      </trkpt>
      <trkpt lat="43.64303" lon="3.82369">
        <ele>134</ele>
        <time>2017-03-09T11:29:29Z</time>
      </trkpt>
      <trkpt lat="43.64305" lon="3.82358">
        <ele>134.1</ele>
        <time>2017-03-09T11:29:32Z</time>
      </trkpt>
      <trkpt lat="43.64309" lon="3.82349">
        <ele>134.3</ele>
        <time>2017-03-09T11:29:34Z</time>
      </trkpt>
      <trkpt lat="43.64313" lon="3.82339">
        <ele>134.5</ele>
        <time>2017-03-09T11:29:36Z</time>
      </trkpt>
      <trkpt lat="43.64317" lon="3.82331">
        <ele>134.7</ele>
        <time>2017-03-09T11:29:38Z</time>
      </trkpt>
      <trkpt lat="43.64321" lon="3.82323">
        <ele>135</ele>
        <time>2017-03-09T11:29:40Z</time>
      </trkpt>
      <trkpt lat="43.64326" lon="3.82312">
        <ele>135.3</ele>
        <time>2017-03-09T11:29:43Z</time>
      </trkpt>
      <trkpt lat="43.64333" lon="3.82298">
        <ele>135.4</ele>
        <time>2017-03-09T11:29:46Z</time>
      </trkpt>
      <trkpt lat="43.64337" lon="3.82289">
        <ele>135.6</ele>
        <time>2017-03-09T11:29:48Z</time>
      </trkpt>
      <trkpt lat="43.64341" lon="3.82279">
        <ele>135.6</ele>
        <time>2017-03-09T11:29:50Z</time>
      </trkpt>
      <trkpt lat="43.64346" lon="3.82269">
        <ele>135.6</ele>
        <time>2017-03-09T11:29:53Z</time>
      </trkpt>
      <trkpt lat="43.64355" lon="3.82263">
        <ele>136</ele>
        <time>2017-03-09T11:29:57Z</time>
      </trkpt>
      <trkpt lat="43.64362" lon="3.82257">
        <ele>136.7</ele>
        <time>2017-03-09T11:30:01Z</time>
      </trkpt>
      <trkpt lat="43.64364" lon="3.82244">
        <ele>137.3</ele>
        <time>2017-03-09T11:30:07Z</time>
      </trkpt>
      <trkpt lat="43.64361" lon="3.82234">
        <ele>137.5</ele>
        <time>2017-03-09T11:30:11Z</time>
      </trkpt>
      <trkpt lat="43.64356" lon="3.82224">
        <ele>137.9</ele>
        <time>2017-03-09T11:30:15Z</time>
      </trkpt>
      <trkpt lat="43.64349" lon="3.82217">
        <ele>138.3</ele>
        <time>2017-03-09T11:30:19Z</time>
      </trkpt>
      <trkpt lat="43.64343" lon="3.8221">
        <ele>138.9</ele>
        <time>2017-03-09T11:30:22Z</time>
      </trkpt>
      <trkpt lat="43.64342" lon="3.822">
        <ele>139.6</ele>
        <time>2017-03-09T11:30:26Z</time>
      </trkpt>
      <trkpt lat="43.64338" lon="3.8219">
        <ele>140.1</ele>
        <time>2017-03-09T11:30:29Z</time>
      </trkpt>
      <trkpt lat="43.64335" lon="3.82181">
        <ele>141.3</ele>
        <time>2017-03-09T11:30:33Z</time>
      </trkpt>
      <trkpt lat="43.64332" lon="3.82169">
        <ele>142.1</ele>
        <time>2017-03-09T11:30:36Z</time>
      </trkpt>
      <trkpt lat="43.6433" lon="3.82158">
        <ele>142.3</ele>
        <time>2017-03-09T11:30:38Z</time>
      </trkpt>
      <trkpt lat="43.64332" lon="3.82148">
        <ele>142.6</ele>
        <time>2017-03-09T11:30:40Z</time>
      </trkpt>
      <trkpt lat="43.64331" lon="3.82137">
        <ele>142.9</ele>
        <time>2017-03-09T11:30:42Z</time>
      </trkpt>
      <trkpt lat="43.64332" lon="3.82125">
        <ele>143.4</ele>
        <time>2017-03-09T11:30:45Z</time>
      </trkpt>
      <trkpt lat="43.6433" lon="3.82113">
        <ele>143.8</ele>
        <time>2017-03-09T11:30:48Z</time>
      </trkpt>
      <trkpt lat="43.6433" lon="3.82103">
        <ele>144.3</ele>
        <time>2017-03-09T11:30:51Z</time>
      </trkpt>
      <trkpt lat="43.64332" lon="3.82093">
        <ele>144.9</ele>
        <time>2017-03-09T11:30:54Z</time>
      </trkpt>
      <trkpt lat="43.64336" lon="3.82081">
        <ele>145.5</ele>
        <time>2017-03-09T11:30:57Z</time>
      </trkpt>
      <trkpt lat="43.64343" lon="3.82072">
        <ele>145.9</ele>
        <time>2017-03-09T11:31:00Z</time>
      </trkpt>
      <trkpt lat="43.64349" lon="3.82062">
        <ele>146.2</ele>
        <time>2017-03-09T11:31:03Z</time>
      </trkpt>
      <trkpt lat="43.64354" lon="3.82051">
        <ele>146.3</ele>
        <time>2017-03-09T11:31:07Z</time>
      </trkpt>
      <trkpt lat="43.64358" lon="3.8204">
        <ele>146.5</ele>
        <time>2017-03-09T11:31:10Z</time>
      </trkpt>
      <trkpt lat="43.64362" lon="3.82029">
        <ele>146.7</ele>
        <time>2017-03-09T11:31:13Z</time>
      </trkpt>
      <trkpt lat="43.64367" lon="3.8202">
        <ele>147</ele>
        <time>2017-03-09T11:31:15Z</time>
      </trkpt>
      <trkpt lat="43.64373" lon="3.8201">
        <ele>147.4</ele>
        <time>2017-03-09T11:31:17Z</time>
      </trkpt>
      <trkpt lat="43.64377" lon="3.81999">
        <ele>147.9</ele>
        <time>2017-03-09T11:31:20Z</time>
      </trkpt>
      <trkpt lat="43.64381" lon="3.81988">
        <ele>148.5</ele>
        <time>2017-03-09T11:31:24Z</time>
      </trkpt>
      <trkpt lat="43.64384" lon="3.81977">
        <ele>148.9</ele>
        <time>2017-03-09T11:31:28Z</time>
      </trkpt>
      <trkpt lat="43.64391" lon="3.81966">
        <ele>149.2</ele>
        <time>2017-03-09T11:31:30Z</time>
      </trkpt>
      <trkpt lat="43.64395" lon="3.81957">
        <ele>149.4</ele>
        <time>2017-03-09T11:31:32Z</time>
      </trkpt>
      <trkpt lat="43.64396" lon="3.81946">
        <ele>149.6</ele>
        <time>2017-03-09T11:31:36Z</time>
      </trkpt>
      <trkpt lat="43.64398" lon="3.81936">
        <ele>149.4</ele>
        <time>2017-03-09T11:31:41Z</time>
      </trkpt>
      <trkpt lat="43.64402" lon="3.81926">
        <ele>149.1</ele>
        <time>2017-03-09T11:31:45Z</time>
      </trkpt>
      <trkpt lat="43.64401" lon="3.81914">
        <ele>148.7</ele>
        <time>2017-03-09T11:31:52Z</time>
      </trkpt>
      <trkpt lat="43.64402" lon="3.81898">
        <ele>148.5</ele>
        <time>2017-03-09T11:31:55Z</time>
      </trkpt>
      <trkpt lat="43.64403" lon="3.81884">
        <ele>148.2</ele>
        <time>2017-03-09T11:31:58Z</time>
      </trkpt>
      <trkpt lat="43.64404" lon="3.81872">
        <ele>148.3</ele>
        <time>2017-03-09T11:32:02Z</time>
      </trkpt>
      <trkpt lat="43.64404" lon="3.8186">
        <ele>148.5</ele>
        <time>2017-03-09T11:32:05Z</time>
      </trkpt>
      <trkpt lat="43.64405" lon="3.81848">
        <ele>148.8</ele>
        <time>2017-03-09T11:32:08Z</time>
      </trkpt>
      <trkpt lat="43.64404" lon="3.81834">
        <ele>149.1</ele>
        <time>2017-03-09T11:32:11Z</time>
      </trkpt>
      <trkpt lat="43.64408" lon="3.81825">
        <ele>149.5</ele>
        <time>2017-03-09T11:32:13Z</time>
      </trkpt>
      <trkpt lat="43.64412" lon="3.81816">
        <ele>149.9</ele>
        <time>2017-03-09T11:32:15Z</time>
      </trkpt>
      <trkpt lat="43.64418" lon="3.81807">
        <ele>150.3</ele>
        <time>2017-03-09T11:32:17Z</time>
      </trkpt>
      <trkpt lat="43.64415" lon="3.81796">
        <ele>151.3</ele>
        <time>2017-03-09T11:32:21Z</time>
      </trkpt>
      <trkpt lat="43.64412" lon="3.81787">
        <ele>151.9</ele>
        <time>2017-03-09T11:32:24Z</time>
      </trkpt>
      <trkpt lat="43.64406" lon="3.81779">
        <ele>152.5</ele>
        <time>2017-03-09T11:32:27Z</time>
      </trkpt>
      <trkpt lat="43.64402" lon="3.8177">
        <ele>153</ele>
        <time>2017-03-09T11:32:30Z</time>
      </trkpt>
      <trkpt lat="43.64397" lon="3.81761">
        <ele>153.6</ele>
        <time>2017-03-09T11:32:33Z</time>
      </trkpt>
      <trkpt lat="43.64392" lon="3.81749">
        <ele>154.1</ele>
        <time>2017-03-09T11:32:36Z</time>
      </trkpt>
      <trkpt lat="43.64384" lon="3.81739">
        <ele>154.5</ele>
        <time>2017-03-09T11:32:39Z</time>
      </trkpt>
      <trkpt lat="43.64378" lon="3.8173">
        <ele>154.9</ele>
        <time>2017-03-09T11:32:42Z</time>
      </trkpt>
      <trkpt lat="43.64375" lon="3.81719">
        <ele>155</ele>
        <time>2017-03-09T11:32:45Z</time>
      </trkpt>
      <trkpt lat="43.64378" lon="3.81709">
        <ele>155.4</ele>
        <time>2017-03-09T11:32:51Z</time>
      </trkpt>
      <trkpt lat="43.64379" lon="3.81698">
        <ele>155.3</ele>
        <time>2017-03-09T11:32:56Z</time>
      </trkpt>
      <trkpt lat="43.6438" lon="3.8169">
        <ele>155</ele>
        <time>2017-03-09T11:33:03Z</time>
      </trkpt>
      <trkpt lat="43.64383" lon="3.8168">
        <ele>154.9</ele>
        <time>2017-03-09T11:33:08Z</time>
      </trkpt>
      <trkpt lat="43.64382" lon="3.81686">
        <ele>156.6</ele>
        <time>2017-03-09T11:33:22Z</time>
      </trkpt>
      <trkpt lat="43.64385" lon="3.81705">
        <ele>159.3</ele>
        <time>2017-03-09T11:33:35Z</time>
      </trkpt>
      <trkpt lat="43.64382" lon="3.81715">
        <ele>160.1</ele>
        <time>2017-03-09T11:33:39Z</time>
      </trkpt>
      <trkpt lat="43.64375" lon="3.8171">
        <ele>161.1</ele>
        <time>2017-03-09T11:33:43Z</time>
      </trkpt>
      <trkpt lat="43.6437" lon="3.817">
        <ele>161.5</ele>
        <time>2017-03-09T11:33:46Z</time>
      </trkpt>
      <trkpt lat="43.64364" lon="3.81685">
        <ele>162.1</ele>
        <time>2017-03-09T11:33:57Z</time>
      </trkpt>
      <trkpt lat="43.64359" lon="3.81675">
        <ele>161.9</ele>
        <time>2017-03-09T11:34:00Z</time>
      </trkpt>
      <trkpt lat="43.64355" lon="3.81666">
        <ele>161.7</ele>
        <time>2017-03-09T11:34:03Z</time>
      </trkpt>
      <trkpt lat="43.6435" lon="3.81655">
        <ele>161.5</ele>
        <time>2017-03-09T11:34:06Z</time>
      </trkpt>
      <trkpt lat="43.64345" lon="3.81642">
        <ele>161.2</ele>
        <time>2017-03-09T11:34:09Z</time>
      </trkpt>
      <trkpt lat="43.64341" lon="3.81631">
        <ele>161.2</ele>
        <time>2017-03-09T11:34:12Z</time>
      </trkpt>
      <trkpt lat="43.64336" lon="3.81619">
        <ele>160.9</ele>
        <time>2017-03-09T11:34:15Z</time>
      </trkpt>
      <trkpt lat="43.64331" lon="3.81607">
        <ele>160.8</ele>
        <time>2017-03-09T11:34:18Z</time>
      </trkpt>
      <trkpt lat="43.64328" lon="3.81598">
        <ele>160.7</ele>
        <time>2017-03-09T11:34:21Z</time>
      </trkpt>
      <trkpt lat="43.64323" lon="3.81586">
        <ele>160.6</ele>
        <time>2017-03-09T11:34:24Z</time>
      </trkpt>
      <trkpt lat="43.64321" lon="3.81572">
        <ele>160.5</ele>
        <time>2017-03-09T11:34:27Z</time>
      </trkpt>
      <trkpt lat="43.64318" lon="3.81559">
        <ele>159.4</ele>
        <time>2017-03-09T11:34:29Z</time>
      </trkpt>
      <trkpt lat="43.64315" lon="3.81547">
        <ele>158.8</ele>
        <time>2017-03-09T11:34:31Z</time>
      </trkpt>
      <trkpt lat="43.64314" lon="3.81536">
        <ele>158.8</ele>
        <time>2017-03-09T11:34:33Z</time>
      </trkpt>
      <trkpt lat="43.64312" lon="3.81523">
        <ele>159.4</ele>
        <time>2017-03-09T11:34:35Z</time>
      </trkpt>
      <trkpt lat="43.64309" lon="3.81508">
        <ele>159.2</ele>
        <time>2017-03-09T11:34:37Z</time>
      </trkpt>
      <trkpt lat="43.64305" lon="3.81493">
        <ele>159.8</ele>
        <time>2017-03-09T11:34:39Z</time>
      </trkpt>
      <trkpt lat="43.64301" lon="3.81479">
        <ele>160.2</ele>
        <time>2017-03-09T11:34:41Z</time>
      </trkpt>
      <trkpt lat="43.64297" lon="3.81464">
        <ele>159.7</ele>
        <time>2017-03-09T11:34:43Z</time>
      </trkpt>
      <trkpt lat="43.64294" lon="3.81451">
        <ele>160.7</ele>
        <time>2017-03-09T11:34:45Z</time>
      </trkpt>
      <trkpt lat="43.6429" lon="3.81436">
        <ele>160.3</ele>
        <time>2017-03-09T11:34:47Z</time>
      </trkpt>
      <trkpt lat="43.64285" lon="3.81421">
        <ele>159.6</ele>
        <time>2017-03-09T11:34:49Z</time>
      </trkpt>
      <trkpt lat="43.6428" lon="3.81405">
        <ele>159.5</ele>
        <time>2017-03-09T11:34:51Z</time>
      </trkpt>
      <trkpt lat="43.64274" lon="3.81391">
        <ele>159.5</ele>
        <time>2017-03-09T11:34:53Z</time>
      </trkpt>
      <trkpt lat="43.64267" lon="3.81376">
        <ele>159.8</ele>
        <time>2017-03-09T11:34:55Z</time>
      </trkpt>
      <trkpt lat="43.64262" lon="3.81361">
        <ele>160.3</ele>
        <time>2017-03-09T11:34:57Z</time>
      </trkpt>
      <trkpt lat="43.64255" lon="3.81346">
        <ele>159.8</ele>
        <time>2017-03-09T11:34:59Z</time>
      </trkpt>
      <trkpt lat="43.64247" lon="3.81331">
        <ele>158.4</ele>
        <time>2017-03-09T11:35:01Z</time>
      </trkpt>
      <trkpt lat="43.64238" lon="3.81317">
        <ele>157.8</ele>
        <time>2017-03-09T11:35:03Z</time>
      </trkpt>
      <trkpt lat="43.64229" lon="3.81305">
        <ele>157.5</ele>
        <time>2017-03-09T11:35:05Z</time>
      </trkpt>
      <trkpt lat="43.64221" lon="3.81294">
        <ele>156.1</ele>
        <time>2017-03-09T11:35:07Z</time>
      </trkpt>
      <trkpt lat="43.64213" lon="3.81281">
        <ele>155</ele>
        <time>2017-03-09T11:35:09Z</time>
      </trkpt>
      <trkpt lat="43.64207" lon="3.81269">
        <ele>154.4</ele>
        <time>2017-03-09T11:35:11Z</time>
      </trkpt>
      <trkpt lat="43.64202" lon="3.81259">
        <ele>153.3</ele>
        <time>2017-03-09T11:35:13Z</time>
      </trkpt>
      <trkpt lat="43.64195" lon="3.81246">
        <ele>154.6</ele>
        <time>2017-03-09T11:35:15Z</time>
      </trkpt>
      <trkpt lat="43.64188" lon="3.81233">
        <ele>156.1</ele>
        <time>2017-03-09T11:35:17Z</time>
      </trkpt>
      <trkpt lat="43.64183" lon="3.81224">
        <ele>157.3</ele>
        <time>2017-03-09T11:35:19Z</time>
      </trkpt>
      <trkpt lat="43.64177" lon="3.81213">
        <ele>159</ele>
        <time>2017-03-09T11:35:21Z</time>
      </trkpt>
      <trkpt lat="43.64169" lon="3.81202">
        <ele>160.6</ele>
        <time>2017-03-09T11:35:23Z</time>
      </trkpt>
      <trkpt lat="43.64162" lon="3.81192">
        <ele>160.8</ele>
        <time>2017-03-09T11:35:25Z</time>
      </trkpt>
      <trkpt lat="43.64153" lon="3.81181">
        <ele>160.9</ele>
        <time>2017-03-09T11:35:27Z</time>
      </trkpt>
      <trkpt lat="43.64143" lon="3.8117">
        <ele>160.6</ele>
        <time>2017-03-09T11:35:29Z</time>
      </trkpt>
      <trkpt lat="43.64134" lon="3.8116">
        <ele>161</ele>
        <time>2017-03-09T11:35:31Z</time>
      </trkpt>
      <trkpt lat="43.64124" lon="3.8115">
        <ele>160.7</ele>
        <time>2017-03-09T11:35:33Z</time>
      </trkpt>
      <trkpt lat="43.64117" lon="3.81142">
        <ele>160.7</ele>
        <time>2017-03-09T11:35:35Z</time>
      </trkpt>
      <trkpt lat="43.64109" lon="3.81131">
        <ele>160.3</ele>
        <time>2017-03-09T11:35:37Z</time>
      </trkpt>
      <trkpt lat="43.64102" lon="3.81121">
        <ele>159.9</ele>
        <time>2017-03-09T11:35:39Z</time>
      </trkpt>
      <trkpt lat="43.64094" lon="3.81111">
        <ele>160.1</ele>
        <time>2017-03-09T11:35:41Z</time>
      </trkpt>
      <trkpt lat="43.64086" lon="3.811">
        <ele>160.2</ele>
        <time>2017-03-09T11:35:44Z</time>
      </trkpt>
      <trkpt lat="43.64085" lon="3.81088">
        <ele>160.7</ele>
        <time>2017-03-09T11:35:46Z</time>
      </trkpt>
      <trkpt lat="43.6409" lon="3.81076">
        <ele>161.6</ele>
        <time>2017-03-09T11:35:48Z</time>
      </trkpt>
      <trkpt lat="43.64098" lon="3.81062">
        <ele>161.9</ele>
        <time>2017-03-09T11:35:50Z</time>
      </trkpt>
      <trkpt lat="43.64102" lon="3.81052">
        <ele>161.4</ele>
        <time>2017-03-09T11:35:51Z</time>
      </trkpt>
      <trkpt lat="43.64108" lon="3.81034">
        <ele>160.1</ele>
        <time>2017-03-09T11:35:53Z</time>
      </trkpt>
      <trkpt lat="43.64111" lon="3.81022">
        <ele>160.1</ele>
        <time>2017-03-09T11:35:54Z</time>
      </trkpt>
      <trkpt lat="43.64114" lon="3.81012">
        <ele>159.9</ele>
        <time>2017-03-09T11:35:55Z</time>
      </trkpt>
      <trkpt lat="43.64119" lon="3.81003">
        <ele>159.7</ele>
        <time>2017-03-09T11:35:56Z</time>
      </trkpt>
      <trkpt lat="43.64125" lon="3.80995">
        <ele>159</ele>
        <time>2017-03-09T11:35:57Z</time>
      </trkpt>
      <trkpt lat="43.6413" lon="3.80985">
        <ele>159</ele>
        <time>2017-03-09T11:35:58Z</time>
      </trkpt>
      <trkpt lat="43.64132" lon="3.80975">
        <ele>158.2</ele>
        <time>2017-03-09T11:35:59Z</time>
      </trkpt>
      <trkpt lat="43.64135" lon="3.80964">
        <ele>157.8</ele>
        <time>2017-03-09T11:36:00Z</time>
      </trkpt>
      <trkpt lat="43.64139" lon="3.80952">
        <ele>156.8</ele>
        <time>2017-03-09T11:36:02Z</time>
      </trkpt>
      <trkpt lat="43.64143" lon="3.80942">
        <ele>156.8</ele>
        <time>2017-03-09T11:36:04Z</time>
      </trkpt>
      <trkpt lat="43.6415" lon="3.80933">
        <ele>156.8</ele>
        <time>2017-03-09T11:36:06Z</time>
      </trkpt>
      <trkpt lat="43.64156" lon="3.80927">
        <ele>157</ele>
        <time>2017-03-09T11:36:09Z</time>
      </trkpt>
      <trkpt lat="43.64163" lon="3.80919">
        <ele>157.3</ele>
        <time>2017-03-09T11:36:12Z</time>
      </trkpt>
      <trkpt lat="43.64169" lon="3.80908">
        <ele>158.2</ele>
        <time>2017-03-09T11:36:15Z</time>
      </trkpt>
      <trkpt lat="43.64174" lon="3.809">
        <ele>158.9</ele>
        <time>2017-03-09T11:36:17Z</time>
      </trkpt>
      <trkpt lat="43.64171" lon="3.80887">
        <ele>157.2</ele>
        <time>2017-03-09T11:36:21Z</time>
      </trkpt>
      <trkpt lat="43.64168" lon="3.80875">
        <ele>156.4</ele>
        <time>2017-03-09T11:36:23Z</time>
      </trkpt>
      <trkpt lat="43.64162" lon="3.80856">
        <ele>154.1</ele>
        <time>2017-03-09T11:36:25Z</time>
      </trkpt>
      <trkpt lat="43.6416" lon="3.80847">
        <ele>152.7</ele>
        <time>2017-03-09T11:36:26Z</time>
      </trkpt>
      <trkpt lat="43.64156" lon="3.80831">
        <ele>149.9</ele>
        <time>2017-03-09T11:36:28Z</time>
      </trkpt>
      <trkpt lat="43.64156" lon="3.80815">
        <ele>147.6</ele>
        <time>2017-03-09T11:36:30Z</time>
      </trkpt>
      <trkpt lat="43.64155" lon="3.80799">
        <ele>146.4</ele>
        <time>2017-03-09T11:36:32Z</time>
      </trkpt>
      <trkpt lat="43.64154" lon="3.8078">
        <ele>145.8</ele>
        <time>2017-03-09T11:36:34Z</time>
      </trkpt>
      <trkpt lat="43.64152" lon="3.80761">
        <ele>143.5</ele>
        <time>2017-03-09T11:36:36Z</time>
      </trkpt>
      <trkpt lat="43.6415" lon="3.80751">
        <ele>142.4</ele>
        <time>2017-03-09T11:36:37Z</time>
      </trkpt>
      <trkpt lat="43.6415" lon="3.80741">
        <ele>141.4</ele>
        <time>2017-03-09T11:36:38Z</time>
      </trkpt>
      <trkpt lat="43.64148" lon="3.80729">
        <ele>140.4</ele>
        <time>2017-03-09T11:36:39Z</time>
      </trkpt>
      <trkpt lat="43.64147" lon="3.80715">
        <ele>138.3</ele>
        <time>2017-03-09T11:36:40Z</time>
      </trkpt>
      <trkpt lat="43.64145" lon="3.80703">
        <ele>135.9</ele>
        <time>2017-03-09T11:36:41Z</time>
      </trkpt>
      <trkpt lat="43.64143" lon="3.80686">
        <ele>134.7</ele>
        <time>2017-03-09T11:36:42Z</time>
      </trkpt>
      <trkpt lat="43.64142" lon="3.80673">
        <ele>133.5</ele>
        <time>2017-03-09T11:36:43Z</time>
      </trkpt>
      <trkpt lat="43.64141" lon="3.80661">
        <ele>132.1</ele>
        <time>2017-03-09T11:36:44Z</time>
      </trkpt>
      <trkpt lat="43.6414" lon="3.80649">
        <ele>130.7</ele>
        <time>2017-03-09T11:36:45Z</time>
      </trkpt>
      <trkpt lat="43.64138" lon="3.80637">
        <ele>129.6</ele>
        <time>2017-03-09T11:36:46Z</time>
      </trkpt>
      <trkpt lat="43.64132" lon="3.8063">
        <ele>126.2</ele>
        <time>2017-03-09T11:36:48Z</time>
      </trkpt>
      <trkpt lat="43.64126" lon="3.80622">
        <ele>125.9</ele>
        <time>2017-03-09T11:36:51Z</time>
      </trkpt>
      <trkpt lat="43.64119" lon="3.80615">
        <ele>125.7</ele>
        <time>2017-03-09T11:36:54Z</time>
      </trkpt>
      <trkpt lat="43.6411" lon="3.80612">
        <ele>125.6</ele>
        <time>2017-03-09T11:36:59Z</time>
      </trkpt>
      <trkpt lat="43.64102" lon="3.80615">
        <ele>124.5</ele>
        <time>2017-03-09T11:37:01Z</time>
      </trkpt>
      <trkpt lat="43.64093" lon="3.8062">
        <ele>123.2</ele>
        <time>2017-03-09T11:37:04Z</time>
      </trkpt>
      <trkpt lat="43.64084" lon="3.8062">
        <ele>122.9</ele>
        <time>2017-03-09T11:37:06Z</time>
      </trkpt>
      <trkpt lat="43.64076" lon="3.80621">
        <ele>122.6</ele>
        <time>2017-03-09T11:37:08Z</time>
      </trkpt>
      <trkpt lat="43.64067" lon="3.80622">
        <ele>122.3</ele>
        <time>2017-03-09T11:37:10Z</time>
      </trkpt>
      <trkpt lat="43.6406" lon="3.80627">
        <ele>121.8</ele>
        <time>2017-03-09T11:37:13Z</time>
      </trkpt>
      <trkpt lat="43.64048" lon="3.80625">
        <ele>119.8</ele>
        <time>2017-03-09T11:37:16Z</time>
      </trkpt>
      <trkpt lat="43.6404" lon="3.80632">
        <ele>119.1</ele>
        <time>2017-03-09T11:37:20Z</time>
      </trkpt>
      <trkpt lat="43.64031" lon="3.80633">
        <ele>118.4</ele>
        <time>2017-03-09T11:37:23Z</time>
      </trkpt>
      <trkpt lat="43.64021" lon="3.80637">
        <ele>117.6</ele>
        <time>2017-03-09T11:37:26Z</time>
      </trkpt>
      <trkpt lat="43.64011" lon="3.80643">
        <ele>113.3</ele>
        <time>2017-03-09T11:37:28Z</time>
      </trkpt>
      <trkpt lat="43.64001" lon="3.80647">
        <ele>111.4</ele>
        <time>2017-03-09T11:37:30Z</time>
      </trkpt>
      <trkpt lat="43.63993" lon="3.80651">
        <ele>111</ele>
        <time>2017-03-09T11:37:33Z</time>
      </trkpt>
      <trkpt lat="43.63986" lon="3.80654">
        <ele>110.6</ele>
        <time>2017-03-09T11:37:36Z</time>
      </trkpt>
      <trkpt lat="43.63978" lon="3.80659">
        <ele>110.3</ele>
        <time>2017-03-09T11:37:42Z</time>
      </trkpt>
      <trkpt lat="43.6397" lon="3.80661">
        <ele>109.7</ele>
        <time>2017-03-09T11:37:45Z</time>
      </trkpt>
      <trkpt lat="43.63963" lon="3.80664">
        <ele>109.4</ele>
        <time>2017-03-09T11:37:49Z</time>
      </trkpt>
      <trkpt lat="43.63955" lon="3.80666">
        <ele>109.1</ele>
        <time>2017-03-09T11:37:52Z</time>
      </trkpt>
      <trkpt lat="43.63954" lon="3.80668">
        <ele>108</ele>
        <time>2017-03-09T11:37:59Z</time>
      </trkpt>
      <trkpt lat="43.63947" lon="3.80669">
        <ele>107.5</ele>
        <time>2017-03-09T11:38:03Z</time>
      </trkpt>
      <trkpt lat="43.63938" lon="3.80673">
        <ele>107</ele>
        <time>2017-03-09T11:38:06Z</time>
      </trkpt>
      <trkpt lat="43.63931" lon="3.80675">
        <ele>106.4</ele>
        <time>2017-03-09T11:38:09Z</time>
      </trkpt>
      <trkpt lat="43.63922" lon="3.80675">
        <ele>106.1</ele>
        <time>2017-03-09T11:38:12Z</time>
      </trkpt>
      <trkpt lat="43.63916" lon="3.80684">
        <ele>102.9</ele>
        <time>2017-03-09T11:38:15Z</time>
      </trkpt>
      <trkpt lat="43.63914" lon="3.80694">
        <ele>100.7</ele>
        <time>2017-03-09T11:38:17Z</time>
      </trkpt>
      <trkpt lat="43.63912" lon="3.80707">
        <ele>99.3</ele>
        <time>2017-03-09T11:38:19Z</time>
      </trkpt>
      <trkpt lat="43.63905" lon="3.80717">
        <ele>99.1</ele>
        <time>2017-03-09T11:38:21Z</time>
      </trkpt>
      <trkpt lat="43.63897" lon="3.8072">
        <ele>99.1</ele>
        <time>2017-03-09T11:38:23Z</time>
      </trkpt>
      <trkpt lat="43.63887" lon="3.8072">
        <ele>99</ele>
        <time>2017-03-09T11:38:28Z</time>
      </trkpt>
      <trkpt lat="43.63879" lon="3.80725">
        <ele>97</ele>
        <time>2017-03-09T11:38:48Z</time>
      </trkpt>
      <trkpt lat="43.63875" lon="3.80731">
        <ele>96</ele>
        <time>2017-03-09T11:38:55Z</time>
      </trkpt>
      <trkpt lat="43.63868" lon="3.80739">
        <ele>95.8</ele>
        <time>2017-03-09T11:38:59Z</time>
      </trkpt>
      <trkpt lat="43.6386" lon="3.8074">
        <ele>95.6</ele>
        <time>2017-03-09T11:39:06Z</time>
      </trkpt>
      <trkpt lat="43.63848" lon="3.80737">
        <ele>94.5</ele>
        <time>2017-03-09T11:39:13Z</time>
      </trkpt>
      <trkpt lat="43.63842" lon="3.80736">
        <ele>93.7</ele>
        <time>2017-03-09T11:39:20Z</time>
      </trkpt>
      <trkpt lat="43.63835" lon="3.80733">
        <ele>92</ele>
        <time>2017-03-09T11:39:26Z</time>
      </trkpt>
      <trkpt lat="43.63828" lon="3.80734">
        <ele>91.6</ele>
        <time>2017-03-09T11:39:30Z</time>
      </trkpt>
      <trkpt lat="43.63819" lon="3.80738">
        <ele>91.3</ele>
        <time>2017-03-09T11:39:33Z</time>
      </trkpt>
      <trkpt lat="43.63811" lon="3.8074">
        <ele>91.3</ele>
        <time>2017-03-09T11:39:37Z</time>
      </trkpt>
      <trkpt lat="43.63801" lon="3.80744">
        <ele>91.4</ele>
        <time>2017-03-09T11:39:40Z</time>
      </trkpt>
      <trkpt lat="43.63794" lon="3.80741">
        <ele>91.3</ele>
        <time>2017-03-09T11:39:42Z</time>
      </trkpt>
      <trkpt lat="43.63788" lon="3.80736">
        <ele>91.2</ele>
        <time>2017-03-09T11:39:45Z</time>
      </trkpt>
      <trkpt lat="43.63782" lon="3.80726">
        <ele>91</ele>
        <time>2017-03-09T11:39:49Z</time>
      </trkpt>
      <trkpt lat="43.63777" lon="3.80716">
        <ele>90.7</ele>
        <time>2017-03-09T11:39:53Z</time>
      </trkpt>
      <trkpt lat="43.63775" lon="3.80705">
        <ele>90.6</ele>
        <time>2017-03-09T11:39:57Z</time>
      </trkpt>
      <trkpt lat="43.6377" lon="3.80695">
        <ele>91</ele>
        <time>2017-03-09T11:40:02Z</time>
      </trkpt>
      <trkpt lat="43.63765" lon="3.80687">
        <ele>92.1</ele>
        <time>2017-03-09T11:40:07Z</time>
      </trkpt>
      <trkpt lat="43.63761" lon="3.80679">
        <ele>92.7</ele>
        <time>2017-03-09T11:40:11Z</time>
      </trkpt>
      <trkpt lat="43.63757" lon="3.80669">
        <ele>93.2</ele>
        <time>2017-03-09T11:40:15Z</time>
      </trkpt>
      <trkpt lat="43.63751" lon="3.8066">
        <ele>93.8</ele>
        <time>2017-03-09T11:40:20Z</time>
      </trkpt>
      <trkpt lat="43.63746" lon="3.80653">
        <ele>94.6</ele>
        <time>2017-03-09T11:40:23Z</time>
      </trkpt>
      <trkpt lat="43.63743" lon="3.80643">
        <ele>95.7</ele>
        <time>2017-03-09T11:40:28Z</time>
      </trkpt>
      <trkpt lat="43.63739" lon="3.80634">
        <ele>96.6</ele>
        <time>2017-03-09T11:40:32Z</time>
      </trkpt>
      <trkpt lat="43.63735" lon="3.80623">
        <ele>98</ele>
        <time>2017-03-09T11:40:37Z</time>
      </trkpt>
      <trkpt lat="43.63731" lon="3.80613">
        <ele>98.6</ele>
        <time>2017-03-09T11:40:41Z</time>
      </trkpt>
      <trkpt lat="43.63725" lon="3.80605">
        <ele>99.3</ele>
        <time>2017-03-09T11:40:47Z</time>
      </trkpt>
      <trkpt lat="43.63721" lon="3.80594">
        <ele>100.1</ele>
        <time>2017-03-09T11:40:52Z</time>
      </trkpt>
      <trkpt lat="43.63717" lon="3.80582">
        <ele>102</ele>
        <time>2017-03-09T11:40:59Z</time>
      </trkpt>
      <trkpt lat="43.63716" lon="3.80579">
        <ele>103.7</ele>
        <time>2017-03-09T11:41:06Z</time>
      </trkpt>
      <trkpt lat="43.63712" lon="3.80565">
        <ele>104.4</ele>
        <time>2017-03-09T11:41:09Z</time>
      </trkpt>
      <trkpt lat="43.63707" lon="3.80552">
        <ele>106</ele>
        <time>2017-03-09T11:41:16Z</time>
      </trkpt>
      <trkpt lat="43.63703" lon="3.80543">
        <ele>107.6</ele>
        <time>2017-03-09T11:41:21Z</time>
      </trkpt>
      <trkpt lat="43.637" lon="3.80533">
        <ele>109.8</ele>
        <time>2017-03-09T11:41:27Z</time>
      </trkpt>
      <trkpt lat="43.63697" lon="3.80529">
        <ele>112.8</ele>
        <time>2017-03-09T11:41:34Z</time>
      </trkpt>
      <trkpt lat="43.63693" lon="3.80519">
        <ele>114.4</ele>
        <time>2017-03-09T11:41:38Z</time>
      </trkpt>
      <trkpt lat="43.63689" lon="3.80507">
        <ele>117</ele>
        <time>2017-03-09T11:41:45Z</time>
      </trkpt>
      <trkpt lat="43.63687" lon="3.80497">
        <ele>119</ele>
        <time>2017-03-09T11:41:51Z</time>
      </trkpt>
      <trkpt lat="43.63683" lon="3.80488">
        <ele>120.7</ele>
        <time>2017-03-09T11:41:58Z</time>
      </trkpt>
      <trkpt lat="43.63679" lon="3.8048">
        <ele>121.4</ele>
        <time>2017-03-09T11:42:04Z</time>
      </trkpt>
      <trkpt lat="43.63673" lon="3.8047">
        <ele>122.2</ele>
        <time>2017-03-09T11:42:10Z</time>
      </trkpt>
      <trkpt lat="43.63668" lon="3.80461">
        <ele>124.2</ele>
        <time>2017-03-09T11:42:16Z</time>
      </trkpt>
      <trkpt lat="43.63665" lon="3.80451">
        <ele>126.8</ele>
        <time>2017-03-09T11:42:23Z</time>
      </trkpt>
      <trkpt lat="43.63661" lon="3.80443">
        <ele>129</ele>
        <time>2017-03-09T11:42:29Z</time>
      </trkpt>
      <trkpt lat="43.63656" lon="3.80435">
        <ele>131.2</ele>
        <time>2017-03-09T11:42:35Z</time>
      </trkpt>
      <trkpt lat="43.63653" lon="3.80425">
        <ele>133.7</ele>
        <time>2017-03-09T11:42:42Z</time>
      </trkpt>
      <trkpt lat="43.63648" lon="3.80415">
        <ele>135.4</ele>
        <time>2017-03-09T11:42:49Z</time>
      </trkpt>
      <trkpt lat="43.63642" lon="3.80407">
        <ele>136.8</ele>
        <time>2017-03-09T11:42:55Z</time>
      </trkpt>
      <trkpt lat="43.63637" lon="3.80399">
        <ele>138.3</ele>
        <time>2017-03-09T11:43:01Z</time>
      </trkpt>
      <trkpt lat="43.63632" lon="3.8039">
        <ele>139</ele>
        <time>2017-03-09T11:43:06Z</time>
      </trkpt>
      <trkpt lat="43.63626" lon="3.80383">
        <ele>140.3</ele>
        <time>2017-03-09T11:43:12Z</time>
      </trkpt>
      <trkpt lat="43.63621" lon="3.80375">
        <ele>142.2</ele>
        <time>2017-03-09T11:43:18Z</time>
      </trkpt>
      <trkpt lat="43.63615" lon="3.80367">
        <ele>143.6</ele>
        <time>2017-03-09T11:43:23Z</time>
      </trkpt>
      <trkpt lat="43.63609" lon="3.8036">
        <ele>145.1</ele>
        <time>2017-03-09T11:43:29Z</time>
      </trkpt>
      <trkpt lat="43.63603" lon="3.80354">
        <ele>146.4</ele>
        <time>2017-03-09T11:43:34Z</time>
      </trkpt>
      <trkpt lat="43.63598" lon="3.80347">
        <ele>147.4</ele>
        <time>2017-03-09T11:43:38Z</time>
      </trkpt>
      <trkpt lat="43.63593" lon="3.80336">
        <ele>148.4</ele>
        <time>2017-03-09T11:43:42Z</time>
      </trkpt>
      <trkpt lat="43.63593" lon="3.80325">
        <ele>149.5</ele>
        <time>2017-03-09T11:43:47Z</time>
      </trkpt>
      <trkpt lat="43.63593" lon="3.80312">
        <ele>150.4</ele>
        <time>2017-03-09T11:43:51Z</time>
      </trkpt>
      <trkpt lat="43.63594" lon="3.80299">
        <ele>151.1</ele>
        <time>2017-03-09T11:43:55Z</time>
      </trkpt>
      <trkpt lat="43.63595" lon="3.80287">
        <ele>152</ele>
        <time>2017-03-09T11:43:59Z</time>
      </trkpt>
      <trkpt lat="43.63595" lon="3.80275">
        <ele>152.6</ele>
        <time>2017-03-09T11:44:02Z</time>
      </trkpt>
      <trkpt lat="43.63598" lon="3.80262">
        <ele>153.5</ele>
        <time>2017-03-09T11:44:06Z</time>
      </trkpt>
      <trkpt lat="43.63599" lon="3.80249">
        <ele>153.9</ele>
        <time>2017-03-09T11:44:09Z</time>
      </trkpt>
      <trkpt lat="43.63597" lon="3.80235">
        <ele>154.1</ele>
        <time>2017-03-09T11:44:12Z</time>
      </trkpt>
      <trkpt lat="43.63594" lon="3.80224">
        <ele>153.4</ele>
        <time>2017-03-09T11:44:15Z</time>
      </trkpt>
      <trkpt lat="43.63587" lon="3.80212">
        <ele>153.4</ele>
        <time>2017-03-09T11:44:18Z</time>
      </trkpt>
      <trkpt lat="43.6358" lon="3.80202">
        <ele>153.4</ele>
        <time>2017-03-09T11:44:21Z</time>
      </trkpt>
      <trkpt lat="43.63575" lon="3.80194">
        <ele>153.5</ele>
        <time>2017-03-09T11:44:23Z</time>
      </trkpt>
      <trkpt lat="43.63569" lon="3.80186">
        <ele>153.3</ele>
        <time>2017-03-09T11:44:25Z</time>
      </trkpt>
      <trkpt lat="43.63565" lon="3.80179">
        <ele>153.3</ele>
        <time>2017-03-09T11:44:27Z</time>
      </trkpt>
      <trkpt lat="43.63561" lon="3.8017">
        <ele>153.2</ele>
        <time>2017-03-09T11:44:29Z</time>
      </trkpt>
      <trkpt lat="43.63556" lon="3.80157">
        <ele>154.4</ele>
        <time>2017-03-09T11:44:32Z</time>
      </trkpt>
      <trkpt lat="43.63551" lon="3.80146">
        <ele>155.1</ele>
        <time>2017-03-09T11:44:34Z</time>
      </trkpt>
      <trkpt lat="43.63548" lon="3.80134">
        <ele>155.1</ele>
        <time>2017-03-09T11:44:36Z</time>
      </trkpt>
      <trkpt lat="43.63544" lon="3.80122">
        <ele>155.6</ele>
        <time>2017-03-09T11:44:38Z</time>
      </trkpt>
      <trkpt lat="43.63542" lon="3.80106">
        <ele>155.6</ele>
        <time>2017-03-09T11:44:40Z</time>
      </trkpt>
      <trkpt lat="43.63545" lon="3.80096">
        <ele>155.1</ele>
        <time>2017-03-09T11:44:41Z</time>
      </trkpt>
      <trkpt lat="43.6355" lon="3.80087">
        <ele>154.6</ele>
        <time>2017-03-09T11:44:42Z</time>
      </trkpt>
      <trkpt lat="43.63557" lon="3.80074">
        <ele>155</ele>
        <time>2017-03-09T11:44:44Z</time>
      </trkpt>
      <trkpt lat="43.63563" lon="3.80062">
        <ele>155.7</ele>
        <time>2017-03-09T11:44:46Z</time>
      </trkpt>
      <trkpt lat="43.63569" lon="3.8005">
        <ele>156.6</ele>
        <time>2017-03-09T11:44:48Z</time>
      </trkpt>
      <trkpt lat="43.63576" lon="3.80035">
        <ele>157.3</ele>
        <time>2017-03-09T11:44:50Z</time>
      </trkpt>
      <trkpt lat="43.6358" lon="3.80024">
        <ele>158.1</ele>
        <time>2017-03-09T11:44:52Z</time>
      </trkpt>
      <trkpt lat="43.63583" lon="3.80014">
        <ele>158.9</ele>
        <time>2017-03-09T11:44:54Z</time>
      </trkpt>
      <trkpt lat="43.63588" lon="3.80002">
        <ele>158.2</ele>
        <time>2017-03-09T11:44:57Z</time>
      </trkpt>
      <trkpt lat="43.63592" lon="3.79993">
        <ele>158.1</ele>
        <time>2017-03-09T11:44:59Z</time>
      </trkpt>
      <trkpt lat="43.63599" lon="3.79984">
        <ele>157.3</ele>
        <time>2017-03-09T11:45:02Z</time>
      </trkpt>
      <trkpt lat="43.63604" lon="3.79977">
        <ele>157.2</ele>
        <time>2017-03-09T11:45:04Z</time>
      </trkpt>
      <trkpt lat="43.63608" lon="3.79968">
        <ele>157.2</ele>
        <time>2017-03-09T11:45:06Z</time>
      </trkpt>
      <trkpt lat="43.63613" lon="3.79956">
        <ele>157.2</ele>
        <time>2017-03-09T11:45:09Z</time>
      </trkpt>
      <trkpt lat="43.6362" lon="3.79946">
        <ele>157.2</ele>
        <time>2017-03-09T11:45:12Z</time>
      </trkpt>
      <trkpt lat="43.63626" lon="3.79935">
        <ele>157.3</ele>
        <time>2017-03-09T11:45:15Z</time>
      </trkpt>
      <trkpt lat="43.63633" lon="3.79926">
        <ele>157.4</ele>
        <time>2017-03-09T11:45:18Z</time>
      </trkpt>
      <trkpt lat="43.63638" lon="3.79918">
        <ele>157.4</ele>
        <time>2017-03-09T11:45:20Z</time>
      </trkpt>
      <trkpt lat="43.63645" lon="3.79908">
        <ele>157.3</ele>
        <time>2017-03-09T11:45:23Z</time>
      </trkpt>
      <trkpt lat="43.63651" lon="3.79897">
        <ele>157.4</ele>
        <time>2017-03-09T11:45:26Z</time>
      </trkpt>
      <trkpt lat="43.63656" lon="3.7989">
        <ele>157.4</ele>
        <time>2017-03-09T11:45:28Z</time>
      </trkpt>
      <trkpt lat="43.63661" lon="3.79883">
        <ele>157.7</ele>
        <time>2017-03-09T11:45:30Z</time>
      </trkpt>
      <trkpt lat="43.63667" lon="3.79875">
        <ele>158</ele>
        <time>2017-03-09T11:45:32Z</time>
      </trkpt>
      <trkpt lat="43.63673" lon="3.79864">
        <ele>158.4</ele>
        <time>2017-03-09T11:45:35Z</time>
      </trkpt>
      <trkpt lat="43.63679" lon="3.79852">
        <ele>158.7</ele>
        <time>2017-03-09T11:45:38Z</time>
      </trkpt>
      <trkpt lat="43.63686" lon="3.79841">
        <ele>159</ele>
        <time>2017-03-09T11:45:41Z</time>
      </trkpt>
      <trkpt lat="43.63692" lon="3.79834">
        <ele>159.3</ele>
        <time>2017-03-09T11:45:43Z</time>
      </trkpt>
      <trkpt lat="43.63697" lon="3.79825">
        <ele>159.5</ele>
        <time>2017-03-09T11:45:45Z</time>
      </trkpt>
      <trkpt lat="43.63703" lon="3.79816">
        <ele>159.7</ele>
        <time>2017-03-09T11:45:48Z</time>
      </trkpt>
      <trkpt lat="43.63707" lon="3.79807">
        <ele>159.8</ele>
        <time>2017-03-09T11:45:50Z</time>
      </trkpt>
      <trkpt lat="43.63711" lon="3.79798">
        <ele>159.9</ele>
        <time>2017-03-09T11:45:53Z</time>
      </trkpt>
      <trkpt lat="43.63716" lon="3.79786">
        <ele>159.8</ele>
        <time>2017-03-09T11:45:56Z</time>
      </trkpt>
      <trkpt lat="43.63722" lon="3.79775">
        <ele>159.6</ele>
        <time>2017-03-09T11:45:59Z</time>
      </trkpt>
      <trkpt lat="43.6373" lon="3.79766">
        <ele>159.7</ele>
        <time>2017-03-09T11:46:02Z</time>
      </trkpt>
      <trkpt lat="43.63737" lon="3.79756">
        <ele>159.8</ele>
        <time>2017-03-09T11:46:05Z</time>
      </trkpt>
      <trkpt lat="43.63744" lon="3.79746">
        <ele>159.9</ele>
        <time>2017-03-09T11:46:08Z</time>
      </trkpt>
      <trkpt lat="43.6375" lon="3.79738">
        <ele>160.3</ele>
        <time>2017-03-09T11:46:11Z</time>
      </trkpt>
      <trkpt lat="43.63757" lon="3.79733">
        <ele>160.5</ele>
        <time>2017-03-09T11:46:13Z</time>
      </trkpt>
      <trkpt lat="43.63763" lon="3.79724">
        <ele>160.8</ele>
        <time>2017-03-09T11:46:16Z</time>
      </trkpt>
      <trkpt lat="43.6377" lon="3.79719">
        <ele>161.1</ele>
        <time>2017-03-09T11:46:18Z</time>
      </trkpt>
      <trkpt lat="43.63779" lon="3.79714">
        <ele>162.6</ele>
        <time>2017-03-09T11:46:20Z</time>
      </trkpt>
      <trkpt lat="43.63788" lon="3.79709">
        <ele>165</ele>
        <time>2017-03-09T11:46:22Z</time>
      </trkpt>
      <trkpt lat="43.63795" lon="3.79702">
        <ele>166.3</ele>
        <time>2017-03-09T11:46:24Z</time>
      </trkpt>
      <trkpt lat="43.63803" lon="3.79695">
        <ele>166.4</ele>
        <time>2017-03-09T11:46:26Z</time>
      </trkpt>
      <trkpt lat="43.63811" lon="3.7969">
        <ele>166.1</ele>
        <time>2017-03-09T11:46:28Z</time>
      </trkpt>
      <trkpt lat="43.63817" lon="3.79684">
        <ele>165.7</ele>
        <time>2017-03-09T11:46:30Z</time>
      </trkpt>
      <trkpt lat="43.63827" lon="3.79676">
        <ele>164.6</ele>
        <time>2017-03-09T11:46:32Z</time>
      </trkpt>
      <trkpt lat="43.63836" lon="3.79669">
        <ele>162.7</ele>
        <time>2017-03-09T11:46:34Z</time>
      </trkpt>
      <trkpt lat="43.63843" lon="3.79665">
        <ele>162.7</ele>
        <time>2017-03-09T11:46:36Z</time>
      </trkpt>
      <trkpt lat="43.63851" lon="3.79665">
        <ele>162.7</ele>
        <time>2017-03-09T11:46:38Z</time>
      </trkpt>
      <trkpt lat="43.63858" lon="3.7966">
        <ele>162.7</ele>
        <time>2017-03-09T11:46:42Z</time>
      </trkpt>
      <trkpt lat="43.63868" lon="3.79655">
        <ele>163</ele>
        <time>2017-03-09T11:46:45Z</time>
      </trkpt>
      <trkpt lat="43.63876" lon="3.79652">
        <ele>163.1</ele>
        <time>2017-03-09T11:46:47Z</time>
      </trkpt>
      <trkpt lat="43.63886" lon="3.79643">
        <ele>165.5</ele>
        <time>2017-03-09T11:46:50Z</time>
      </trkpt>
      <trkpt lat="43.63893" lon="3.79633">
        <ele>166.1</ele>
        <time>2017-03-09T11:46:52Z</time>
      </trkpt>
      <trkpt lat="43.63901" lon="3.7962">
        <ele>166.1</ele>
        <time>2017-03-09T11:46:54Z</time>
      </trkpt>
      <trkpt lat="43.63905" lon="3.7961">
        <ele>166</ele>
        <time>2017-03-09T11:46:56Z</time>
      </trkpt>
      <trkpt lat="43.6391" lon="3.79597">
        <ele>165.5</ele>
        <time>2017-03-09T11:46:58Z</time>
      </trkpt>
      <trkpt lat="43.63915" lon="3.79588">
        <ele>164.5</ele>
        <time>2017-03-09T11:47:00Z</time>
      </trkpt>
      <trkpt lat="43.63921" lon="3.79579">
        <ele>164.3</ele>
        <time>2017-03-09T11:47:02Z</time>
      </trkpt>
      <trkpt lat="43.63925" lon="3.79571">
        <ele>164</ele>
        <time>2017-03-09T11:47:04Z</time>
      </trkpt>
      <trkpt lat="43.63931" lon="3.79557">
        <ele>163.2</ele>
        <time>2017-03-09T11:47:07Z</time>
      </trkpt>
      <trkpt lat="43.63935" lon="3.79547">
        <ele>163.2</ele>
        <time>2017-03-09T11:47:09Z</time>
      </trkpt>
      <trkpt lat="43.63937" lon="3.79534">
        <ele>162.9</ele>
        <time>2017-03-09T11:47:12Z</time>
      </trkpt>
      <trkpt lat="43.63939" lon="3.79521">
        <ele>162.4</ele>
        <time>2017-03-09T11:47:16Z</time>
      </trkpt>
      <trkpt lat="43.63942" lon="3.79506">
        <ele>162.1</ele>
        <time>2017-03-09T11:47:19Z</time>
      </trkpt>
      <trkpt lat="43.63947" lon="3.79496">
        <ele>162.1</ele>
        <time>2017-03-09T11:47:22Z</time>
      </trkpt>
      <trkpt lat="43.63951" lon="3.79483">
        <ele>162.1</ele>
        <time>2017-03-09T11:47:25Z</time>
      </trkpt>
      <trkpt lat="43.63955" lon="3.79471">
        <ele>162.1</ele>
        <time>2017-03-09T11:47:28Z</time>
      </trkpt>
      <trkpt lat="43.63958" lon="3.79461">
        <ele>162.4</ele>
        <time>2017-03-09T11:47:31Z</time>
      </trkpt>
      <trkpt lat="43.63959" lon="3.7945">
        <ele>163</ele>
        <time>2017-03-09T11:47:34Z</time>
      </trkpt>
      <trkpt lat="43.63963" lon="3.79437">
        <ele>163.3</ele>
        <time>2017-03-09T11:47:36Z</time>
      </trkpt>
      <trkpt lat="43.63967" lon="3.79425">
        <ele>165.6</ele>
        <time>2017-03-09T11:47:38Z</time>
      </trkpt>
      <trkpt lat="43.63971" lon="3.79416">
        <ele>165.7</ele>
        <time>2017-03-09T11:47:40Z</time>
      </trkpt>
      <trkpt lat="43.63977" lon="3.79404">
        <ele>167.2</ele>
        <time>2017-03-09T11:47:42Z</time>
      </trkpt>
      <trkpt lat="43.63982" lon="3.79395">
        <ele>168.8</ele>
        <time>2017-03-09T11:47:44Z</time>
      </trkpt>
      <trkpt lat="43.63988" lon="3.79385">
        <ele>170.7</ele>
        <time>2017-03-09T11:47:46Z</time>
      </trkpt>
      <trkpt lat="43.63995" lon="3.79373">
        <ele>170.6</ele>
        <time>2017-03-09T11:47:48Z</time>
      </trkpt>
      <trkpt lat="43.64001" lon="3.79362">
        <ele>169.8</ele>
        <time>2017-03-09T11:47:50Z</time>
      </trkpt>
      <trkpt lat="43.64007" lon="3.79351">
        <ele>169.1</ele>
        <time>2017-03-09T11:47:52Z</time>
      </trkpt>
      <trkpt lat="43.64012" lon="3.79341">
        <ele>168.4</ele>
        <time>2017-03-09T11:47:54Z</time>
      </trkpt>
      <trkpt lat="43.64017" lon="3.79331">
        <ele>168.2</ele>
        <time>2017-03-09T11:47:56Z</time>
      </trkpt>
      <trkpt lat="43.64023" lon="3.79323">
        <ele>168.1</ele>
        <time>2017-03-09T11:47:58Z</time>
      </trkpt>
      <trkpt lat="43.64029" lon="3.79312">
        <ele>168.2</ele>
        <time>2017-03-09T11:48:00Z</time>
      </trkpt>
      <trkpt lat="43.64033" lon="3.793">
        <ele>169.3</ele>
        <time>2017-03-09T11:48:02Z</time>
      </trkpt>
      <trkpt lat="43.64039" lon="3.79289">
        <ele>170.3</ele>
        <time>2017-03-09T11:48:04Z</time>
      </trkpt>
      <trkpt lat="43.64044" lon="3.79278">
        <ele>171.3</ele>
        <time>2017-03-09T11:48:06Z</time>
      </trkpt>
      <trkpt lat="43.6405" lon="3.79266">
        <ele>170.4</ele>
        <time>2017-03-09T11:48:08Z</time>
      </trkpt>
      <trkpt lat="43.64056" lon="3.79253">
        <ele>170</ele>
        <time>2017-03-09T11:48:10Z</time>
      </trkpt>
      <trkpt lat="43.64064" lon="3.7924">
        <ele>169.7</ele>
        <time>2017-03-09T11:48:12Z</time>
      </trkpt>
      <trkpt lat="43.64073" lon="3.79231">
        <ele>170.9</ele>
        <time>2017-03-09T11:48:14Z</time>
      </trkpt>
      <trkpt lat="43.64084" lon="3.79221">
        <ele>172</ele>
        <time>2017-03-09T11:48:16Z</time>
      </trkpt>
      <trkpt lat="43.64091" lon="3.79215">
        <ele>172.7</ele>
        <time>2017-03-09T11:48:17Z</time>
      </trkpt>
      <trkpt lat="43.64098" lon="3.79211">
        <ele>173.5</ele>
        <time>2017-03-09T11:48:18Z</time>
      </trkpt>
      <trkpt lat="43.64108" lon="3.79201">
        <ele>174.3</ele>
        <time>2017-03-09T11:48:20Z</time>
      </trkpt>
      <trkpt lat="43.64118" lon="3.7919">
        <ele>174.8</ele>
        <time>2017-03-09T11:48:22Z</time>
      </trkpt>
      <trkpt lat="43.64126" lon="3.79179">
        <ele>174.4</ele>
        <time>2017-03-09T11:48:24Z</time>
      </trkpt>
      <trkpt lat="43.64136" lon="3.7917">
        <ele>173.4</ele>
        <time>2017-03-09T11:48:26Z</time>
      </trkpt>
      <trkpt lat="43.64145" lon="3.79161">
        <ele>172.5</ele>
        <time>2017-03-09T11:48:28Z</time>
      </trkpt>
      <trkpt lat="43.64153" lon="3.79152">
        <ele>171.3</ele>
        <time>2017-03-09T11:48:30Z</time>
      </trkpt>
      <trkpt lat="43.64161" lon="3.79144">
        <ele>171.4</ele>
        <time>2017-03-09T11:48:32Z</time>
      </trkpt>
      <trkpt lat="43.64167" lon="3.79135">
        <ele>171.3</ele>
        <time>2017-03-09T11:48:34Z</time>
      </trkpt>
      <trkpt lat="43.64173" lon="3.79126">
        <ele>170.7</ele>
        <time>2017-03-09T11:48:36Z</time>
      </trkpt>
      <trkpt lat="43.64179" lon="3.79118">
        <ele>169.8</ele>
        <time>2017-03-09T11:48:38Z</time>
      </trkpt>
      <trkpt lat="43.64184" lon="3.79109">
        <ele>169.7</ele>
        <time>2017-03-09T11:48:40Z</time>
      </trkpt>
      <trkpt lat="43.6419" lon="3.79101">
        <ele>169.5</ele>
        <time>2017-03-09T11:48:42Z</time>
      </trkpt>
      <trkpt lat="43.64194" lon="3.79089">
        <ele>169.1</ele>
        <time>2017-03-09T11:48:45Z</time>
      </trkpt>
      <trkpt lat="43.64197" lon="3.7908">
        <ele>168.9</ele>
        <time>2017-03-09T11:48:47Z</time>
      </trkpt>
      <trkpt lat="43.64202" lon="3.79069">
        <ele>167.2</ele>
        <time>2017-03-09T11:48:49Z</time>
      </trkpt>
      <trkpt lat="43.64207" lon="3.79057">
        <ele>166.2</ele>
        <time>2017-03-09T11:48:51Z</time>
      </trkpt>
      <trkpt lat="43.64215" lon="3.79048">
        <ele>165.1</ele>
        <time>2017-03-09T11:48:53Z</time>
      </trkpt>
      <trkpt lat="43.64222" lon="3.79041">
        <ele>165.1</ele>
        <time>2017-03-09T11:48:55Z</time>
      </trkpt>
      <trkpt lat="43.64231" lon="3.79033">
        <ele>165.3</ele>
        <time>2017-03-09T11:48:57Z</time>
      </trkpt>
      <trkpt lat="43.64237" lon="3.79025">
        <ele>165.3</ele>
        <time>2017-03-09T11:49:00Z</time>
      </trkpt>
      <trkpt lat="43.64245" lon="3.79016">
        <ele>165.3</ele>
        <time>2017-03-09T11:49:03Z</time>
      </trkpt>
      <trkpt lat="43.64252" lon="3.79012">
        <ele>165.5</ele>
        <time>2017-03-09T11:49:05Z</time>
      </trkpt>
      <trkpt lat="43.64259" lon="3.79018">
        <ele>165.8</ele>
        <time>2017-03-09T11:49:08Z</time>
      </trkpt>
      <trkpt lat="43.64262" lon="3.79027">
        <ele>166</ele>
        <time>2017-03-09T11:49:10Z</time>
      </trkpt>
      <trkpt lat="43.64266" lon="3.79039">
        <ele>167</ele>
        <time>2017-03-09T11:49:12Z</time>
      </trkpt>
      <trkpt lat="43.64271" lon="3.79053">
        <ele>167.8</ele>
        <time>2017-03-09T11:49:14Z</time>
      </trkpt>
      <trkpt lat="43.64276" lon="3.79064">
        <ele>167.6</ele>
        <time>2017-03-09T11:49:16Z</time>
      </trkpt>
      <trkpt lat="43.6428" lon="3.7908">
        <ele>166.8</ele>
        <time>2017-03-09T11:49:18Z</time>
      </trkpt>
      <trkpt lat="43.64284" lon="3.79095">
        <ele>167.4</ele>
        <time>2017-03-09T11:49:20Z</time>
      </trkpt>
      <trkpt lat="43.64285" lon="3.79108">
        <ele>167.7</ele>
        <time>2017-03-09T11:49:22Z</time>
      </trkpt>
      <trkpt lat="43.64287" lon="3.79121">
        <ele>167.3</ele>
        <time>2017-03-09T11:49:24Z</time>
      </trkpt>
      <trkpt lat="43.64288" lon="3.79133">
        <ele>167.2</ele>
        <time>2017-03-09T11:49:26Z</time>
      </trkpt>
      <trkpt lat="43.64286" lon="3.79147">
        <ele>166.3</ele>
        <time>2017-03-09T11:49:28Z</time>
      </trkpt>
      <trkpt lat="43.64284" lon="3.79159">
        <ele>165.4</ele>
        <time>2017-03-09T11:49:30Z</time>
      </trkpt>
      <trkpt lat="43.64285" lon="3.79172">
        <ele>164.8</ele>
        <time>2017-03-09T11:49:32Z</time>
      </trkpt>
      <trkpt lat="43.64285" lon="3.79184">
        <ele>164.8</ele>
        <time>2017-03-09T11:49:34Z</time>
      </trkpt>
      <trkpt lat="43.64286" lon="3.79195">
        <ele>164.7</ele>
        <time>2017-03-09T11:49:36Z</time>
      </trkpt>
      <trkpt lat="43.64289" lon="3.79206">
        <ele>164.9</ele>
        <time>2017-03-09T11:49:39Z</time>
      </trkpt>
      <trkpt lat="43.64291" lon="3.79218">
        <ele>165</ele>
        <time>2017-03-09T11:49:42Z</time>
      </trkpt>
      <trkpt lat="43.64292" lon="3.7923">
        <ele>165.2</ele>
        <time>2017-03-09T11:49:45Z</time>
      </trkpt>
      <trkpt lat="43.64294" lon="3.79241">
        <ele>165.4</ele>
        <time>2017-03-09T11:49:47Z</time>
      </trkpt>
      <trkpt lat="43.64291" lon="3.79256">
        <ele>166.1</ele>
        <time>2017-03-09T11:49:49Z</time>
      </trkpt>
      <trkpt lat="43.64291" lon="3.79269">
        <ele>165.4</ele>
        <time>2017-03-09T11:49:51Z</time>
      </trkpt>
      <trkpt lat="43.64294" lon="3.79279">
        <ele>165.3</ele>
        <time>2017-03-09T11:49:53Z</time>
      </trkpt>
      <trkpt lat="43.64302" lon="3.79287">
        <ele>163.4</ele>
        <time>2017-03-09T11:50:00Z</time>
      </trkpt>
      <trkpt lat="43.64312" lon="3.79288">
        <ele>161.8</ele>
        <time>2017-03-09T11:50:02Z</time>
      </trkpt>
      <trkpt lat="43.64319" lon="3.79292">
        <ele>161.1</ele>
        <time>2017-03-09T11:50:03Z</time>
      </trkpt>
      <trkpt lat="43.64329" lon="3.79299">
        <ele>160.7</ele>
        <time>2017-03-09T11:50:05Z</time>
      </trkpt>
      <trkpt lat="43.64335" lon="3.79315">
        <ele>160.5</ele>
        <time>2017-03-09T11:50:07Z</time>
      </trkpt>
      <trkpt lat="43.64339" lon="3.79329">
        <ele>160.2</ele>
        <time>2017-03-09T11:50:09Z</time>
      </trkpt>
      <trkpt lat="43.64342" lon="3.7934">
        <ele>159.9</ele>
        <time>2017-03-09T11:50:11Z</time>
      </trkpt>
      <trkpt lat="43.64344" lon="3.79349">
        <ele>159.2</ele>
        <time>2017-03-09T11:50:14Z</time>
      </trkpt>
      <trkpt lat="43.64351" lon="3.79363">
        <ele>158.5</ele>
        <time>2017-03-09T11:50:17Z</time>
      </trkpt>
      <trkpt lat="43.64356" lon="3.79376">
        <ele>154.6</ele>
        <time>2017-03-09T11:50:19Z</time>
      </trkpt>
      <trkpt lat="43.64362" lon="3.79383">
        <ele>154</ele>
        <time>2017-03-09T11:50:22Z</time>
      </trkpt>
      <trkpt lat="43.64368" lon="3.79389">
        <ele>152.7</ele>
        <time>2017-03-09T11:50:24Z</time>
      </trkpt>
      <trkpt lat="43.64379" lon="3.79394">
        <ele>151</ele>
        <time>2017-03-09T11:50:26Z</time>
      </trkpt>
      <trkpt lat="43.6439" lon="3.79394">
        <ele>148</ele>
        <time>2017-03-09T11:50:28Z</time>
      </trkpt>
      <trkpt lat="43.64398" lon="3.79394">
        <ele>146.3</ele>
        <time>2017-03-09T11:50:30Z</time>
      </trkpt>
      <trkpt lat="43.64404" lon="3.79403">
        <ele>145.8</ele>
        <time>2017-03-09T11:50:33Z</time>
      </trkpt>
      <trkpt lat="43.64404" lon="3.79414">
        <ele>145.5</ele>
        <time>2017-03-09T11:50:36Z</time>
      </trkpt>
      <trkpt lat="43.64401" lon="3.79424">
        <ele>144.9</ele>
        <time>2017-03-09T11:50:39Z</time>
      </trkpt>
      <trkpt lat="43.64397" lon="3.79436">
        <ele>144.2</ele>
        <time>2017-03-09T11:50:42Z</time>
      </trkpt>
      <trkpt lat="43.64404" lon="3.79443">
        <ele>142.9</ele>
        <time>2017-03-09T11:50:49Z</time>
      </trkpt>
      <trkpt lat="43.6441" lon="3.79449">
        <ele>142.6</ele>
        <time>2017-03-09T11:50:52Z</time>
      </trkpt>
      <trkpt lat="43.64418" lon="3.79448">
        <ele>141.8</ele>
        <time>2017-03-09T11:50:56Z</time>
      </trkpt>
      <trkpt lat="43.64426" lon="3.79448">
        <ele>140.8</ele>
        <time>2017-03-09T11:51:00Z</time>
      </trkpt>
      <trkpt lat="43.64434" lon="3.79446">
        <ele>139.5</ele>
        <time>2017-03-09T11:51:04Z</time>
      </trkpt>
      <trkpt lat="43.6444" lon="3.79439">
        <ele>138.8</ele>
        <time>2017-03-09T11:51:06Z</time>
      </trkpt>
      <trkpt lat="43.64448" lon="3.7944">
        <ele>138.1</ele>
        <time>2017-03-09T11:51:08Z</time>
      </trkpt>
      <trkpt lat="43.64457" lon="3.79439">
        <ele>137.2</ele>
        <time>2017-03-09T11:51:11Z</time>
      </trkpt>
      <trkpt lat="43.64467" lon="3.79442">
        <ele>136.3</ele>
        <time>2017-03-09T11:51:14Z</time>
      </trkpt>
      <trkpt lat="43.64475" lon="3.79439">
        <ele>135.5</ele>
        <time>2017-03-09T11:51:17Z</time>
      </trkpt>
      <trkpt lat="43.64484" lon="3.79436">
        <ele>135</ele>
        <time>2017-03-09T11:51:19Z</time>
      </trkpt>
      <trkpt lat="43.64493" lon="3.79432">
        <ele>131.7</ele>
        <time>2017-03-09T11:51:21Z</time>
      </trkpt>
      <trkpt lat="43.64504" lon="3.7943">
        <ele>127.1</ele>
        <time>2017-03-09T11:51:23Z</time>
      </trkpt>
      <trkpt lat="43.64512" lon="3.7943">
        <ele>126.7</ele>
        <time>2017-03-09T11:51:25Z</time>
      </trkpt>
      <trkpt lat="43.6452" lon="3.7943">
        <ele>124.4</ele>
        <time>2017-03-09T11:51:27Z</time>
      </trkpt>
      <trkpt lat="43.64531" lon="3.79427">
        <ele>123.8</ele>
        <time>2017-03-09T11:51:30Z</time>
      </trkpt>
      <trkpt lat="43.64539" lon="3.79431">
        <ele>123.5</ele>
        <time>2017-03-09T11:51:32Z</time>
      </trkpt>
      <trkpt lat="43.64546" lon="3.79433">
        <ele>123.1</ele>
        <time>2017-03-09T11:51:34Z</time>
      </trkpt>
      <trkpt lat="43.64554" lon="3.79431">
        <ele>122</ele>
        <time>2017-03-09T11:51:38Z</time>
      </trkpt>
      <trkpt lat="43.64562" lon="3.79431">
        <ele>121.2</ele>
        <time>2017-03-09T11:51:41Z</time>
      </trkpt>
      <trkpt lat="43.64573" lon="3.79433">
        <ele>120.5</ele>
        <time>2017-03-09T11:51:44Z</time>
      </trkpt>
      <trkpt lat="43.64581" lon="3.79436">
        <ele>120.1</ele>
        <time>2017-03-09T11:51:46Z</time>
      </trkpt>
      <trkpt lat="43.64591" lon="3.79437">
        <ele>118.7</ele>
        <time>2017-03-09T11:51:50Z</time>
      </trkpt>
      <trkpt lat="43.64594" lon="3.79437">
        <ele>116.8</ele>
        <time>2017-03-09T11:51:57Z</time>
      </trkpt>
      <trkpt lat="43.64596" lon="3.79438">
        <ele>114.5</ele>
        <time>2017-03-09T11:52:04Z</time>
      </trkpt>
      <trkpt lat="43.64601" lon="3.7943">
        <ele>113.1</ele>
        <time>2017-03-09T11:52:08Z</time>
      </trkpt>
      <trkpt lat="43.64607" lon="3.79419">
        <ele>112.1</ele>
        <time>2017-03-09T11:52:11Z</time>
      </trkpt>
      <trkpt lat="43.64613" lon="3.79408">
        <ele>111.1</ele>
        <time>2017-03-09T11:52:14Z</time>
      </trkpt>
      <trkpt lat="43.6462" lon="3.79397">
        <ele>110.6</ele>
        <time>2017-03-09T11:52:17Z</time>
      </trkpt>
      <trkpt lat="43.64626" lon="3.79392">
        <ele>110.5</ele>
        <time>2017-03-09T11:52:19Z</time>
      </trkpt>
      <trkpt lat="43.64631" lon="3.79384">
        <ele>110.1</ele>
        <time>2017-03-09T11:52:21Z</time>
      </trkpt>
      <trkpt lat="43.64634" lon="3.79373">
        <ele>109.7</ele>
        <time>2017-03-09T11:52:24Z</time>
      </trkpt>
      <trkpt lat="43.64637" lon="3.79363">
        <ele>109.2</ele>
        <time>2017-03-09T11:52:27Z</time>
      </trkpt>
      <trkpt lat="43.64641" lon="3.79351">
        <ele>108.9</ele>
        <time>2017-03-09T11:52:30Z</time>
      </trkpt>
      <trkpt lat="43.64641" lon="3.79341">
        <ele>108.8</ele>
        <time>2017-03-09T11:52:32Z</time>
      </trkpt>
      <trkpt lat="43.64643" lon="3.79329">
        <ele>108.3</ele>
        <time>2017-03-09T11:52:36Z</time>
      </trkpt>
      <trkpt lat="43.64646" lon="3.79316">
        <ele>108.1</ele>
        <time>2017-03-09T11:52:38Z</time>
      </trkpt>
      <trkpt lat="43.64649" lon="3.79305">
        <ele>108</ele>
        <time>2017-03-09T11:52:40Z</time>
      </trkpt>
      <trkpt lat="43.64656" lon="3.79297">
        <ele>108.1</ele>
        <time>2017-03-09T11:52:42Z</time>
      </trkpt>
      <trkpt lat="43.64664" lon="3.7929">
        <ele>108.1</ele>
        <time>2017-03-09T11:52:44Z</time>
      </trkpt>
      <trkpt lat="43.64672" lon="3.79282">
        <ele>108.2</ele>
        <time>2017-03-09T11:52:46Z</time>
      </trkpt>
      <trkpt lat="43.6468" lon="3.79277">
        <ele>108</ele>
        <time>2017-03-09T11:52:48Z</time>
      </trkpt>
      <trkpt lat="43.64688" lon="3.7927">
        <ele>107.8</ele>
        <time>2017-03-09T11:52:51Z</time>
      </trkpt>
      <trkpt lat="43.64693" lon="3.79262">
        <ele>107.6</ele>
        <time>2017-03-09T11:52:54Z</time>
      </trkpt>
      <trkpt lat="43.64697" lon="3.79254">
        <ele>107.3</ele>
        <time>2017-03-09T11:52:56Z</time>
      </trkpt>
      <trkpt lat="43.64701" lon="3.79242">
        <ele>106.9</ele>
        <time>2017-03-09T11:52:59Z</time>
      </trkpt>
      <trkpt lat="43.64701" lon="3.79231">
        <ele>106.4</ele>
        <time>2017-03-09T11:53:03Z</time>
      </trkpt>
      <trkpt lat="43.64698" lon="3.79221">
        <ele>106.2</ele>
        <time>2017-03-09T11:53:07Z</time>
      </trkpt>
      <trkpt lat="43.64703" lon="3.79213">
        <ele>106.3</ele>
        <time>2017-03-09T11:53:11Z</time>
      </trkpt>
      <trkpt lat="43.64709" lon="3.79206">
        <ele>106.6</ele>
        <time>2017-03-09T11:53:15Z</time>
      </trkpt>
      <trkpt lat="43.64708" lon="3.79207">
        <ele>107.3</ele>
        <time>2017-03-09T11:53:22Z</time>
      </trkpt>
      <trkpt lat="43.64708" lon="3.79213">
        <ele>108.8</ele>
        <time>2017-03-09T11:53:29Z</time>
      </trkpt>
      <trkpt lat="43.64709" lon="3.79227">
        <ele>108.1</ele>
        <time>2017-03-09T11:53:31Z</time>
      </trkpt>
      <trkpt lat="43.64712" lon="3.79237">
        <ele>108.3</ele>
        <time>2017-03-09T11:53:34Z</time>
      </trkpt>
      <trkpt lat="43.64705" lon="3.79236">
        <ele>108.2</ele>
        <time>2017-03-09T11:53:36Z</time>
      </trkpt>
      <trkpt lat="43.64706" lon="3.79226">
        <ele>107.9</ele>
        <time>2017-03-09T11:53:43Z</time>
      </trkpt>
      <trkpt lat="43.64707" lon="3.79216">
        <ele>107</ele>
        <time>2017-03-09T11:53:46Z</time>
      </trkpt>
      <trkpt lat="43.64707" lon="3.79206">
        <ele>106.1</ele>
        <time>2017-03-09T11:53:53Z</time>
      </trkpt>
      <trkpt lat="43.64712" lon="3.79195">
        <ele>106.2</ele>
        <time>2017-03-09T11:53:55Z</time>
      </trkpt>
      <trkpt lat="43.6472" lon="3.79187">
        <ele>106.2</ele>
        <time>2017-03-09T11:53:57Z</time>
      </trkpt>
      <trkpt lat="43.64728" lon="3.79178">
        <ele>106.4</ele>
        <time>2017-03-09T11:54:00Z</time>
      </trkpt>
      <trkpt lat="43.64736" lon="3.79171">
        <ele>106.8</ele>
        <time>2017-03-09T11:54:04Z</time>
      </trkpt>
      <trkpt lat="43.64742" lon="3.79163">
        <ele>107.2</ele>
        <time>2017-03-09T11:54:06Z</time>
      </trkpt>
      <trkpt lat="43.64747" lon="3.79156">
        <ele>108</ele>
        <time>2017-03-09T11:54:10Z</time>
      </trkpt>
      <trkpt lat="43.64754" lon="3.79149">
        <ele>108.8</ele>
        <time>2017-03-09T11:54:13Z</time>
      </trkpt>
      <trkpt lat="43.6476" lon="3.79141">
        <ele>110.3</ele>
        <time>2017-03-09T11:54:19Z</time>
      </trkpt>
      <trkpt lat="43.64765" lon="3.79134">
        <ele>111.1</ele>
        <time>2017-03-09T11:54:24Z</time>
      </trkpt>
      <trkpt lat="43.64772" lon="3.79128">
        <ele>111.6</ele>
        <time>2017-03-09T11:54:28Z</time>
      </trkpt>
      <trkpt lat="43.64779" lon="3.79124">
        <ele>112.2</ele>
        <time>2017-03-09T11:54:30Z</time>
      </trkpt>
      <trkpt lat="43.64786" lon="3.79119">
        <ele>112.7</ele>
        <time>2017-03-09T11:54:32Z</time>
      </trkpt>
      <trkpt lat="43.64794" lon="3.79116">
        <ele>113</ele>
        <time>2017-03-09T11:54:34Z</time>
      </trkpt>
      <trkpt lat="43.64803" lon="3.79112">
        <ele>113</ele>
        <time>2017-03-09T11:54:36Z</time>
      </trkpt>
      <trkpt lat="43.64811" lon="3.79104">
        <ele>113.1</ele>
        <time>2017-03-09T11:54:38Z</time>
      </trkpt>
      <trkpt lat="43.64819" lon="3.79092">
        <ele>112.1</ele>
        <time>2017-03-09T11:54:40Z</time>
      </trkpt>
      <trkpt lat="43.64826" lon="3.79084">
        <ele>110.3</ele>
        <time>2017-03-09T11:54:42Z</time>
      </trkpt>
      <trkpt lat="43.64833" lon="3.79078">
        <ele>110.2</ele>
        <time>2017-03-09T11:54:44Z</time>
      </trkpt>
      <trkpt lat="43.64841" lon="3.79072">
        <ele>110.3</ele>
        <time>2017-03-09T11:54:46Z</time>
      </trkpt>
      <trkpt lat="43.6485" lon="3.79064">
        <ele>110.5</ele>
        <time>2017-03-09T11:54:48Z</time>
      </trkpt>
      <trkpt lat="43.64861" lon="3.79058">
        <ele>111.6</ele>
        <time>2017-03-09T11:54:51Z</time>
      </trkpt>
      <trkpt lat="43.64869" lon="3.7905">
        <ele>112.2</ele>
        <time>2017-03-09T11:54:53Z</time>
      </trkpt>
      <trkpt lat="43.64876" lon="3.79044">
        <ele>111.9</ele>
        <time>2017-03-09T11:54:55Z</time>
      </trkpt>
      <trkpt lat="43.64883" lon="3.79036">
        <ele>111.5</ele>
        <time>2017-03-09T11:54:58Z</time>
      </trkpt>
      <trkpt lat="43.64893" lon="3.79031">
        <ele>111.1</ele>
        <time>2017-03-09T11:55:01Z</time>
      </trkpt>
      <trkpt lat="43.649" lon="3.79029">
        <ele>110.8</ele>
        <time>2017-03-09T11:55:04Z</time>
      </trkpt>
      <trkpt lat="43.6491" lon="3.79023">
        <ele>110.6</ele>
        <time>2017-03-09T11:55:07Z</time>
      </trkpt>
      <trkpt lat="43.64918" lon="3.79018">
        <ele>109.4</ele>
        <time>2017-03-09T11:55:09Z</time>
      </trkpt>
      <trkpt lat="43.64924" lon="3.79013">
        <ele>109.3</ele>
        <time>2017-03-09T11:55:11Z</time>
      </trkpt>
      <trkpt lat="43.64933" lon="3.79009">
        <ele>109.3</ele>
        <time>2017-03-09T11:55:13Z</time>
      </trkpt>
      <trkpt lat="43.6494" lon="3.79003">
        <ele>109.2</ele>
        <time>2017-03-09T11:55:15Z</time>
      </trkpt>
      <trkpt lat="43.64948" lon="3.78995">
        <ele>108.8</ele>
        <time>2017-03-09T11:55:17Z</time>
      </trkpt>
      <trkpt lat="43.64955" lon="3.78986">
        <ele>108.9</ele>
        <time>2017-03-09T11:55:19Z</time>
      </trkpt>
      <trkpt lat="43.64962" lon="3.78981">
        <ele>109</ele>
        <time>2017-03-09T11:55:21Z</time>
      </trkpt>
      <trkpt lat="43.6497" lon="3.78975">
        <ele>109.2</ele>
        <time>2017-03-09T11:55:23Z</time>
      </trkpt>
      <trkpt lat="43.64979" lon="3.78969">
        <ele>109.4</ele>
        <time>2017-03-09T11:55:25Z</time>
      </trkpt>
      <trkpt lat="43.64987" lon="3.78963">
        <ele>109.6</ele>
        <time>2017-03-09T11:55:28Z</time>
      </trkpt>
      <trkpt lat="43.64994" lon="3.78956">
        <ele>109.7</ele>
        <time>2017-03-09T11:55:30Z</time>
      </trkpt>
      <trkpt lat="43.65002" lon="3.78949">
        <ele>110.1</ele>
        <time>2017-03-09T11:55:33Z</time>
      </trkpt>
      <trkpt lat="43.65012" lon="3.78942">
        <ele>110.5</ele>
        <time>2017-03-09T11:55:36Z</time>
      </trkpt>
      <trkpt lat="43.65018" lon="3.78936">
        <ele>110.7</ele>
        <time>2017-03-09T11:55:38Z</time>
      </trkpt>
      <trkpt lat="43.65025" lon="3.78927">
        <ele>111.2</ele>
        <time>2017-03-09T11:55:41Z</time>
      </trkpt>
      <trkpt lat="43.65034" lon="3.78919">
        <ele>111.6</ele>
        <time>2017-03-09T11:55:44Z</time>
      </trkpt>
      <trkpt lat="43.65042" lon="3.78911">
        <ele>111.9</ele>
        <time>2017-03-09T11:55:47Z</time>
      </trkpt>
      <trkpt lat="43.65051" lon="3.78906">
        <ele>111.7</ele>
        <time>2017-03-09T11:55:51Z</time>
      </trkpt>
      <trkpt lat="43.65058" lon="3.78899">
        <ele>111.5</ele>
        <time>2017-03-09T11:55:53Z</time>
      </trkpt>
      <trkpt lat="43.65065" lon="3.78903">
        <ele>111.3</ele>
        <time>2017-03-09T11:55:57Z</time>
      </trkpt>
      <trkpt lat="43.65071" lon="3.78911">
        <ele>111.2</ele>
        <time>2017-03-09T11:56:00Z</time>
      </trkpt>
      <trkpt lat="43.65077" lon="3.78922">
        <ele>111.1</ele>
        <time>2017-03-09T11:56:03Z</time>
      </trkpt>
      <trkpt lat="43.6508" lon="3.7893">
        <ele>111.2</ele>
        <time>2017-03-09T11:56:05Z</time>
      </trkpt>
      <trkpt lat="43.65084" lon="3.78941">
        <ele>111.3</ele>
        <time>2017-03-09T11:56:07Z</time>
      </trkpt>
      <trkpt lat="43.65088" lon="3.78953">
        <ele>111.4</ele>
        <time>2017-03-09T11:56:09Z</time>
      </trkpt>
      <trkpt lat="43.65091" lon="3.78964">
        <ele>111.6</ele>
        <time>2017-03-09T11:56:11Z</time>
      </trkpt>
      <trkpt lat="43.65093" lon="3.78975">
        <ele>111.8</ele>
        <time>2017-03-09T11:56:13Z</time>
      </trkpt>
      <trkpt lat="43.65096" lon="3.78987">
        <ele>113.1</ele>
        <time>2017-03-09T11:56:15Z</time>
      </trkpt>
      <trkpt lat="43.65097" lon="3.79001">
        <ele>114.9</ele>
        <time>2017-03-09T11:56:17Z</time>
      </trkpt>
      <trkpt lat="43.65097" lon="3.79014">
        <ele>115.2</ele>
        <time>2017-03-09T11:56:19Z</time>
      </trkpt>
      <trkpt lat="43.65097" lon="3.7903">
        <ele>116.2</ele>
        <time>2017-03-09T11:56:21Z</time>
      </trkpt>
      <trkpt lat="43.65094" lon="3.79039">
        <ele>116.3</ele>
        <time>2017-03-09T11:56:23Z</time>
      </trkpt>
      <trkpt lat="43.6509" lon="3.79053">
        <ele>116</ele>
        <time>2017-03-09T11:56:26Z</time>
      </trkpt>
      <trkpt lat="43.65085" lon="3.7906">
        <ele>115.9</ele>
        <time>2017-03-09T11:56:28Z</time>
      </trkpt>
      <trkpt lat="43.65079" lon="3.79068">
        <ele>115.7</ele>
        <time>2017-03-09T11:56:30Z</time>
      </trkpt>
      <trkpt lat="43.65073" lon="3.79078">
        <ele>115.3</ele>
        <time>2017-03-09T11:56:33Z</time>
      </trkpt>
      <trkpt lat="43.65074" lon="3.79079">
        <ele>114.7</ele>
        <time>2017-03-09T11:56:40Z</time>
      </trkpt>
      <trkpt lat="43.65084" lon="3.79076">
        <ele>115.1</ele>
        <time>2017-03-09T11:56:46Z</time>
      </trkpt>
      <trkpt lat="43.65093" lon="3.7907">
        <ele>115.2</ele>
        <time>2017-03-09T11:56:49Z</time>
      </trkpt>
      <trkpt lat="43.65102" lon="3.79065">
        <ele>115.1</ele>
        <time>2017-03-09T11:56:52Z</time>
      </trkpt>
      <trkpt lat="43.65111" lon="3.7906">
        <ele>115</ele>
        <time>2017-03-09T11:56:55Z</time>
      </trkpt>
      <trkpt lat="43.6512" lon="3.79054">
        <ele>114.6</ele>
        <time>2017-03-09T11:56:58Z</time>
      </trkpt>
      <trkpt lat="43.6513" lon="3.79052">
        <ele>114.3</ele>
        <time>2017-03-09T11:57:01Z</time>
      </trkpt>
      <trkpt lat="43.65137" lon="3.79049">
        <ele>114</ele>
        <time>2017-03-09T11:57:03Z</time>
      </trkpt>
      <trkpt lat="43.65145" lon="3.79049">
        <ele>113.9</ele>
        <time>2017-03-09T11:57:05Z</time>
      </trkpt>
      <trkpt lat="43.65154" lon="3.79049">
        <ele>113.4</ele>
        <time>2017-03-09T11:57:08Z</time>
      </trkpt>
      <trkpt lat="43.65162" lon="3.7905">
        <ele>112.1</ele>
        <time>2017-03-09T11:57:10Z</time>
      </trkpt>
      <trkpt lat="43.65173" lon="3.79052">
        <ele>113.4</ele>
        <time>2017-03-09T11:57:13Z</time>
      </trkpt>
      <trkpt lat="43.65182" lon="3.79052">
        <ele>113.6</ele>
        <time>2017-03-09T11:57:15Z</time>
      </trkpt>
      <trkpt lat="43.65192" lon="3.79053">
        <ele>113.9</ele>
        <time>2017-03-09T11:57:18Z</time>
      </trkpt>
      <trkpt lat="43.65196" lon="3.79064">
        <ele>115.7</ele>
        <time>2017-03-09T11:57:21Z</time>
      </trkpt>
      <trkpt lat="43.65205" lon="3.7907">
        <ele>116.5</ele>
        <time>2017-03-09T11:57:23Z</time>
      </trkpt>
      <trkpt lat="43.65215" lon="3.79077">
        <ele>116.7</ele>
        <time>2017-03-09T11:57:29Z</time>
      </trkpt>
      <trkpt lat="43.65223" lon="3.79078">
        <ele>116.9</ele>
        <time>2017-03-09T11:57:31Z</time>
      </trkpt>
      <trkpt lat="43.65231" lon="3.79078">
        <ele>117.1</ele>
        <time>2017-03-09T11:57:33Z</time>
      </trkpt>
      <trkpt lat="43.65238" lon="3.79082">
        <ele>117.5</ele>
        <time>2017-03-09T11:57:37Z</time>
      </trkpt>
      <trkpt lat="43.65247" lon="3.79088">
        <ele>118.1</ele>
        <time>2017-03-09T11:57:41Z</time>
      </trkpt>
      <trkpt lat="43.65252" lon="3.79098">
        <ele>119.2</ele>
        <time>2017-03-09T11:57:47Z</time>
      </trkpt>
      <trkpt lat="43.65251" lon="3.79108">
        <ele>119.6</ele>
        <time>2017-03-09T11:57:49Z</time>
      </trkpt>
      <trkpt lat="43.65249" lon="3.79119">
        <ele>119.8</ele>
        <time>2017-03-09T11:57:56Z</time>
      </trkpt>
      <trkpt lat="43.6524" lon="3.79118">
        <ele>119.6</ele>
        <time>2017-03-09T11:58:01Z</time>
      </trkpt>
      <trkpt lat="43.65232" lon="3.79116">
        <ele>119.7</ele>
        <time>2017-03-09T11:58:07Z</time>
      </trkpt>
      <trkpt lat="43.65225" lon="3.79118">
        <ele>119.6</ele>
        <time>2017-03-09T11:58:11Z</time>
      </trkpt>
      <trkpt lat="43.65217" lon="3.79122">
        <ele>119.7</ele>
        <time>2017-03-09T11:58:16Z</time>
      </trkpt>
      <trkpt lat="43.65209" lon="3.79124">
        <ele>120</ele>
        <time>2017-03-09T11:58:20Z</time>
      </trkpt>
      <trkpt lat="43.65202" lon="3.79128">
        <ele>120.2</ele>
        <time>2017-03-09T11:58:24Z</time>
      </trkpt>
      <trkpt lat="43.65194" lon="3.79132">
        <ele>120.5</ele>
        <time>2017-03-09T11:58:29Z</time>
      </trkpt>
      <trkpt lat="43.65187" lon="3.79135">
        <ele>121.2</ele>
        <time>2017-03-09T11:58:34Z</time>
      </trkpt>
      <trkpt lat="43.65179" lon="3.7914">
        <ele>122</ele>
        <time>2017-03-09T11:58:38Z</time>
      </trkpt>
      <trkpt lat="43.65171" lon="3.79143">
        <ele>122.8</ele>
        <time>2017-03-09T11:58:43Z</time>
      </trkpt>
      <trkpt lat="43.65164" lon="3.79147">
        <ele>123.5</ele>
        <time>2017-03-09T11:58:47Z</time>
      </trkpt>
      <trkpt lat="43.65156" lon="3.79154">
        <ele>124.4</ele>
        <time>2017-03-09T11:58:53Z</time>
      </trkpt>
      <trkpt lat="43.65149" lon="3.79161">
        <ele>125.1</ele>
        <time>2017-03-09T11:58:56Z</time>
      </trkpt>
      <trkpt lat="43.65143" lon="3.79166">
        <ele>125.7</ele>
        <time>2017-03-09T11:59:00Z</time>
      </trkpt>
      <trkpt lat="43.65137" lon="3.79173">
        <ele>126.5</ele>
        <time>2017-03-09T11:59:04Z</time>
      </trkpt>
      <trkpt lat="43.65131" lon="3.79181">
        <ele>127.6</ele>
        <time>2017-03-09T11:59:08Z</time>
      </trkpt>
      <trkpt lat="43.65126" lon="3.79189">
        <ele>128.1</ele>
        <time>2017-03-09T11:59:12Z</time>
      </trkpt>
      <trkpt lat="43.6512" lon="3.79199">
        <ele>128.5</ele>
        <time>2017-03-09T11:59:16Z</time>
      </trkpt>
      <trkpt lat="43.65114" lon="3.79207">
        <ele>129.1</ele>
        <time>2017-03-09T11:59:21Z</time>
      </trkpt>
      <trkpt lat="43.6511" lon="3.79216">
        <ele>130</ele>
        <time>2017-03-09T11:59:26Z</time>
      </trkpt>
      <trkpt lat="43.65106" lon="3.79227">
        <ele>130.7</ele>
        <time>2017-03-09T11:59:30Z</time>
      </trkpt>
      <trkpt lat="43.65103" lon="3.79238">
        <ele>131.4</ele>
        <time>2017-03-09T11:59:34Z</time>
      </trkpt>
      <trkpt lat="43.65101" lon="3.79248">
        <ele>132.1</ele>
        <time>2017-03-09T11:59:41Z</time>
      </trkpt>
      <trkpt lat="43.65102" lon="3.79258">
        <ele>133</ele>
        <time>2017-03-09T11:59:45Z</time>
      </trkpt>
      <trkpt lat="43.65103" lon="3.79269">
        <ele>135.1</ele>
        <time>2017-03-09T11:59:52Z</time>
      </trkpt>
      <trkpt lat="43.65106" lon="3.79278">
        <ele>137.1</ele>
        <time>2017-03-09T11:59:59Z</time>
      </trkpt>
      <trkpt lat="43.65106" lon="3.79287">
        <ele>139.5</ele>
        <time>2017-03-09T12:00:06Z</time>
      </trkpt>
      <trkpt lat="43.65108" lon="3.79297">
        <ele>141.3</ele>
        <time>2017-03-09T12:00:11Z</time>
      </trkpt>
      <trkpt lat="43.65113" lon="3.79305">
        <ele>143</ele>
        <time>2017-03-09T12:00:18Z</time>
      </trkpt>
      <trkpt lat="43.65117" lon="3.79315">
        <ele>145.4</ele>
        <time>2017-03-09T12:00:25Z</time>
      </trkpt>
      <trkpt lat="43.65116" lon="3.79326">
        <ele>146.6</ele>
        <time>2017-03-09T12:00:31Z</time>
      </trkpt>
      <trkpt lat="43.65117" lon="3.79333">
        <ele>147</ele>
        <time>2017-03-09T12:00:38Z</time>
      </trkpt>
      <trkpt lat="43.6512" lon="3.79336">
        <ele>148.2</ele>
        <time>2017-03-09T12:00:45Z</time>
      </trkpt>
      <trkpt lat="43.65123" lon="3.79338">
        <ele>148.4</ele>
        <time>2017-03-09T12:00:52Z</time>
      </trkpt>
      <trkpt lat="43.65127" lon="3.7934">
        <ele>148.7</ele>
        <time>2017-03-09T12:00:59Z</time>
      </trkpt>
      <trkpt lat="43.65127" lon="3.7935">
        <ele>148.7</ele>
        <time>2017-03-09T12:01:06Z</time>
      </trkpt>
      <trkpt lat="43.65127" lon="3.79359">
        <ele>149.9</ele>
        <time>2017-03-09T12:01:13Z</time>
      </trkpt>
      <trkpt lat="43.65131" lon="3.7937">
        <ele>151.6</ele>
        <time>2017-03-09T12:01:20Z</time>
      </trkpt>
      <trkpt lat="43.65132" lon="3.79378">
        <ele>153.6</ele>
        <time>2017-03-09T12:01:27Z</time>
      </trkpt>
      <trkpt lat="43.65135" lon="3.79388">
        <ele>155.7</ele>
        <time>2017-03-09T12:01:34Z</time>
      </trkpt>
      <trkpt lat="43.6514" lon="3.79397">
        <ele>157.7</ele>
        <time>2017-03-09T12:01:41Z</time>
      </trkpt>
      <trkpt lat="43.65145" lon="3.79405">
        <ele>159</ele>
        <time>2017-03-09T12:01:45Z</time>
      </trkpt>
      <trkpt lat="43.65148" lon="3.79417">
        <ele>160.5</ele>
        <time>2017-03-09T12:01:50Z</time>
      </trkpt>
      <trkpt lat="43.65153" lon="3.79426">
        <ele>161.5</ele>
        <time>2017-03-09T12:01:54Z</time>
      </trkpt>
      <trkpt lat="43.65156" lon="3.79438">
        <ele>162.3</ele>
        <time>2017-03-09T12:01:59Z</time>
      </trkpt>
      <trkpt lat="43.6516" lon="3.79448">
        <ele>163.9</ele>
        <time>2017-03-09T12:02:05Z</time>
      </trkpt>
      <trkpt lat="43.65163" lon="3.79459">
        <ele>165.1</ele>
        <time>2017-03-09T12:02:09Z</time>
      </trkpt>
      <trkpt lat="43.65168" lon="3.7947">
        <ele>166.5</ele>
        <time>2017-03-09T12:02:14Z</time>
      </trkpt>
      <trkpt lat="43.65171" lon="3.7948">
        <ele>167.5</ele>
        <time>2017-03-09T12:02:18Z</time>
      </trkpt>
      <trkpt lat="43.65175" lon="3.79491">
        <ele>169.5</ele>
        <time>2017-03-09T12:02:24Z</time>
      </trkpt>
      <trkpt lat="43.65183" lon="3.79496">
        <ele>171.4</ele>
        <time>2017-03-09T12:02:30Z</time>
      </trkpt>
      <trkpt lat="43.65191" lon="3.795">
        <ele>172.7</ele>
        <time>2017-03-09T12:02:34Z</time>
      </trkpt>
      <trkpt lat="43.65197" lon="3.79507">
        <ele>174.1</ele>
        <time>2017-03-09T12:02:38Z</time>
      </trkpt>
      <trkpt lat="43.65202" lon="3.79515">
        <ele>175</ele>
        <time>2017-03-09T12:02:41Z</time>
      </trkpt>
      <trkpt lat="43.65205" lon="3.79525">
        <ele>175.4</ele>
        <time>2017-03-09T12:02:43Z</time>
      </trkpt>
      <trkpt lat="43.65206" lon="3.7954">
        <ele>176</ele>
        <time>2017-03-09T12:02:46Z</time>
      </trkpt>
      <trkpt lat="43.65204" lon="3.79556">
        <ele>176</ele>
        <time>2017-03-09T12:02:49Z</time>
      </trkpt>
      <trkpt lat="43.65204" lon="3.7957">
        <ele>174</ele>
        <time>2017-03-09T12:02:51Z</time>
      </trkpt>
      <trkpt lat="43.65204" lon="3.79583">
        <ele>172.4</ele>
        <time>2017-03-09T12:02:53Z</time>
      </trkpt>
      <trkpt lat="43.65206" lon="3.79592">
        <ele>172.4</ele>
        <time>2017-03-09T12:02:55Z</time>
      </trkpt>
      <trkpt lat="43.65208" lon="3.79603">
        <ele>172.3</ele>
        <time>2017-03-09T12:02:57Z</time>
      </trkpt>
      <trkpt lat="43.65211" lon="3.79614">
        <ele>172.3</ele>
        <time>2017-03-09T12:02:59Z</time>
      </trkpt>
      <trkpt lat="43.65214" lon="3.79627">
        <ele>172.1</ele>
        <time>2017-03-09T12:03:02Z</time>
      </trkpt>
      <trkpt lat="43.65215" lon="3.79637">
        <ele>171.9</ele>
        <time>2017-03-09T12:03:05Z</time>
      </trkpt>
      <trkpt lat="43.65213" lon="3.79649">
        <ele>171.7</ele>
        <time>2017-03-09T12:03:08Z</time>
      </trkpt>
      <trkpt lat="43.65212" lon="3.79661">
        <ele>171.6</ele>
        <time>2017-03-09T12:03:10Z</time>
      </trkpt>
      <trkpt lat="43.65213" lon="3.79671">
        <ele>171.6</ele>
        <time>2017-03-09T12:03:13Z</time>
      </trkpt>
      <trkpt lat="43.65218" lon="3.7968">
        <ele>172</ele>
        <time>2017-03-09T12:03:18Z</time>
      </trkpt>
      <trkpt lat="43.65225" lon="3.79684">
        <ele>172.9</ele>
        <time>2017-03-09T12:03:23Z</time>
      </trkpt>
      <trkpt lat="43.65231" lon="3.7969">
        <ele>174.6</ele>
        <time>2017-03-09T12:03:30Z</time>
      </trkpt>
      <trkpt lat="43.65237" lon="3.79699">
        <ele>175.8</ele>
        <time>2017-03-09T12:03:36Z</time>
      </trkpt>
      <trkpt lat="43.65244" lon="3.79706">
        <ele>177.6</ele>
        <time>2017-03-09T12:03:42Z</time>
      </trkpt>
      <trkpt lat="43.65249" lon="3.79713">
        <ele>179.1</ele>
        <time>2017-03-09T12:03:47Z</time>
      </trkpt>
      <trkpt lat="43.65256" lon="3.79721">
        <ele>180.9</ele>
        <time>2017-03-09T12:03:52Z</time>
      </trkpt>
      <trkpt lat="43.65261" lon="3.79729">
        <ele>182.7</ele>
        <time>2017-03-09T12:03:58Z</time>
      </trkpt>
      <trkpt lat="43.65264" lon="3.7974">
        <ele>183.9</ele>
        <time>2017-03-09T12:04:03Z</time>
      </trkpt>
      <trkpt lat="43.65266" lon="3.7975">
        <ele>184.7</ele>
        <time>2017-03-09T12:04:07Z</time>
      </trkpt>
      <trkpt lat="43.65269" lon="3.7976">
        <ele>185.7</ele>
        <time>2017-03-09T12:04:13Z</time>
      </trkpt>
      <trkpt lat="43.65277" lon="3.79763">
        <ele>186.6</ele>
        <time>2017-03-09T12:04:20Z</time>
      </trkpt>
      <trkpt lat="43.65284" lon="3.79766">
        <ele>187.8</ele>
        <time>2017-03-09T12:04:26Z</time>
      </trkpt>
      <trkpt lat="43.65291" lon="3.79771">
        <ele>188.6</ele>
        <time>2017-03-09T12:04:30Z</time>
      </trkpt>
      <trkpt lat="43.65298" lon="3.79778">
        <ele>189.7</ele>
        <time>2017-03-09T12:04:36Z</time>
      </trkpt>
      <trkpt lat="43.65305" lon="3.79785">
        <ele>190.7</ele>
        <time>2017-03-09T12:04:41Z</time>
      </trkpt>
      <trkpt lat="43.65312" lon="3.79791">
        <ele>191.9</ele>
        <time>2017-03-09T12:04:46Z</time>
      </trkpt>
      <trkpt lat="43.65319" lon="3.79799">
        <ele>192.9</ele>
        <time>2017-03-09T12:04:50Z</time>
      </trkpt>
      <trkpt lat="43.65325" lon="3.79805">
        <ele>194.2</ele>
        <time>2017-03-09T12:04:55Z</time>
      </trkpt>
      <trkpt lat="43.6533" lon="3.79812">
        <ele>195.2</ele>
        <time>2017-03-09T12:04:59Z</time>
      </trkpt>
      <trkpt lat="43.65337" lon="3.79818">
        <ele>196</ele>
        <time>2017-03-09T12:05:03Z</time>
      </trkpt>
      <trkpt lat="43.65342" lon="3.79825">
        <ele>196.6</ele>
        <time>2017-03-09T12:05:07Z</time>
      </trkpt>
      <trkpt lat="43.65349" lon="3.79831">
        <ele>197.1</ele>
        <time>2017-03-09T12:05:11Z</time>
      </trkpt>
      <trkpt lat="43.65356" lon="3.79837">
        <ele>197.8</ele>
        <time>2017-03-09T12:05:15Z</time>
      </trkpt>
      <trkpt lat="43.65364" lon="3.79843">
        <ele>198.8</ele>
        <time>2017-03-09T12:05:19Z</time>
      </trkpt>
      <trkpt lat="43.65372" lon="3.79849">
        <ele>199.4</ele>
        <time>2017-03-09T12:05:23Z</time>
      </trkpt>
      <trkpt lat="43.65379" lon="3.79855">
        <ele>199.8</ele>
        <time>2017-03-09T12:05:26Z</time>
      </trkpt>
      <trkpt lat="43.65387" lon="3.79861">
        <ele>200.2</ele>
        <time>2017-03-09T12:05:29Z</time>
      </trkpt>
      <trkpt lat="43.65393" lon="3.79867">
        <ele>200.5</ele>
        <time>2017-03-09T12:05:31Z</time>
      </trkpt>
      <trkpt lat="43.65403" lon="3.79875">
        <ele>200.8</ele>
        <time>2017-03-09T12:05:34Z</time>
      </trkpt>
      <trkpt lat="43.65409" lon="3.7988">
        <ele>201.7</ele>
        <time>2017-03-09T12:05:36Z</time>
      </trkpt>
      <trkpt lat="43.65416" lon="3.79887">
        <ele>202.1</ele>
        <time>2017-03-09T12:05:38Z</time>
      </trkpt>
      <trkpt lat="43.65422" lon="3.79893">
        <ele>202.4</ele>
        <time>2017-03-09T12:05:40Z</time>
      </trkpt>
      <trkpt lat="43.65429" lon="3.79899">
        <ele>203.7</ele>
        <time>2017-03-09T12:05:42Z</time>
      </trkpt>
      <trkpt lat="43.65436" lon="3.79906">
        <ele>204.1</ele>
        <time>2017-03-09T12:05:44Z</time>
      </trkpt>
      <trkpt lat="43.65443" lon="3.79913">
        <ele>203.3</ele>
        <time>2017-03-09T12:05:46Z</time>
      </trkpt>
      <trkpt lat="43.6545" lon="3.79921">
        <ele>203.2</ele>
        <time>2017-03-09T12:05:48Z</time>
      </trkpt>
      <trkpt lat="43.65456" lon="3.7993">
        <ele>203.3</ele>
        <time>2017-03-09T12:05:50Z</time>
      </trkpt>
      <trkpt lat="43.6546" lon="3.79937">
        <ele>203.4</ele>
        <time>2017-03-09T12:05:52Z</time>
      </trkpt>
      <trkpt lat="43.65467" lon="3.79947">
        <ele>204.1</ele>
        <time>2017-03-09T12:05:55Z</time>
      </trkpt>
      <trkpt lat="43.65473" lon="3.79954">
        <ele>203.8</ele>
        <time>2017-03-09T12:05:57Z</time>
      </trkpt>
      <trkpt lat="43.65478" lon="3.79963">
        <ele>204.3</ele>
        <time>2017-03-09T12:05:59Z</time>
      </trkpt>
      <trkpt lat="43.65484" lon="3.79969">
        <ele>204.3</ele>
        <time>2017-03-09T12:06:01Z</time>
      </trkpt>
      <trkpt lat="43.6549" lon="3.79979">
        <ele>204.4</ele>
        <time>2017-03-09T12:06:03Z</time>
      </trkpt>
      <trkpt lat="43.65495" lon="3.79987">
        <ele>204.9</ele>
        <time>2017-03-09T12:06:05Z</time>
      </trkpt>
      <trkpt lat="43.655" lon="3.79995">
        <ele>205.3</ele>
        <time>2017-03-09T12:06:07Z</time>
      </trkpt>
      <trkpt lat="43.65506" lon="3.80004">
        <ele>204.6</ele>
        <time>2017-03-09T12:06:09Z</time>
      </trkpt>
      <trkpt lat="43.65512" lon="3.80013">
        <ele>203.6</ele>
        <time>2017-03-09T12:06:11Z</time>
      </trkpt>
      <trkpt lat="43.65518" lon="3.80021">
        <ele>203.7</ele>
        <time>2017-03-09T12:06:13Z</time>
      </trkpt>
      <trkpt lat="43.65524" lon="3.80031">
        <ele>203.4</ele>
        <time>2017-03-09T12:06:15Z</time>
      </trkpt>
      <trkpt lat="43.65529" lon="3.8004">
        <ele>203.2</ele>
        <time>2017-03-09T12:06:17Z</time>
      </trkpt>
      <trkpt lat="43.65536" lon="3.8005">
        <ele>204.4</ele>
        <time>2017-03-09T12:06:19Z</time>
      </trkpt>
      <trkpt lat="43.65542" lon="3.80061">
        <ele>204.1</ele>
        <time>2017-03-09T12:06:21Z</time>
      </trkpt>
      <trkpt lat="43.65549" lon="3.80071">
        <ele>203.9</ele>
        <time>2017-03-09T12:06:23Z</time>
      </trkpt>
      <trkpt lat="43.65555" lon="3.80083">
        <ele>204.8</ele>
        <time>2017-03-09T12:06:25Z</time>
      </trkpt>
      <trkpt lat="43.65562" lon="3.80091">
        <ele>205.2</ele>
        <time>2017-03-09T12:06:27Z</time>
      </trkpt>
      <trkpt lat="43.65567" lon="3.801">
        <ele>204.9</ele>
        <time>2017-03-09T12:06:29Z</time>
      </trkpt>
      <trkpt lat="43.65573" lon="3.80107">
        <ele>204.1</ele>
        <time>2017-03-09T12:06:31Z</time>
      </trkpt>
      <trkpt lat="43.65578" lon="3.80115">
        <ele>203.7</ele>
        <time>2017-03-09T12:06:33Z</time>
      </trkpt>
      <trkpt lat="43.65583" lon="3.80126">
        <ele>203.5</ele>
        <time>2017-03-09T12:06:35Z</time>
      </trkpt>
      <trkpt lat="43.65585" lon="3.80139">
        <ele>203.4</ele>
        <time>2017-03-09T12:06:37Z</time>
      </trkpt>
      <trkpt lat="43.65592" lon="3.80142">
        <ele>203.9</ele>
        <time>2017-03-09T12:06:44Z</time>
      </trkpt>
      <trkpt lat="43.65601" lon="3.80151">
        <ele>204</ele>
        <time>2017-03-09T12:06:47Z</time>
      </trkpt>
      <trkpt lat="43.65605" lon="3.80162">
        <ele>204.2</ele>
        <time>2017-03-09T12:06:50Z</time>
      </trkpt>
      <trkpt lat="43.65601" lon="3.80175">
        <ele>203.9</ele>
        <time>2017-03-09T12:06:53Z</time>
      </trkpt>
      <trkpt lat="43.65595" lon="3.80183">
        <ele>203.3</ele>
        <time>2017-03-09T12:06:56Z</time>
      </trkpt>
      <trkpt lat="43.65587" lon="3.80192">
        <ele>202.5</ele>
        <time>2017-03-09T12:06:59Z</time>
      </trkpt>
      <trkpt lat="43.65581" lon="3.80202">
        <ele>201.9</ele>
        <time>2017-03-09T12:07:02Z</time>
      </trkpt>
      <trkpt lat="43.65574" lon="3.8021">
        <ele>198.9</ele>
        <time>2017-03-09T12:07:05Z</time>
      </trkpt>
      <trkpt lat="43.65568" lon="3.80216">
        <ele>195.7</ele>
        <time>2017-03-09T12:07:07Z</time>
      </trkpt>
      <trkpt lat="43.65561" lon="3.8022">
        <ele>195.4</ele>
        <time>2017-03-09T12:07:09Z</time>
      </trkpt>
      <trkpt lat="43.65554" lon="3.80225">
        <ele>195</ele>
        <time>2017-03-09T12:07:11Z</time>
      </trkpt>
      <trkpt lat="43.65543" lon="3.80231">
        <ele>193.2</ele>
        <time>2017-03-09T12:07:14Z</time>
      </trkpt>
      <trkpt lat="43.65536" lon="3.80235">
        <ele>193</ele>
        <time>2017-03-09T12:07:16Z</time>
      </trkpt>
      <trkpt lat="43.65529" lon="3.80238">
        <ele>192.8</ele>
        <time>2017-03-09T12:07:18Z</time>
      </trkpt>
      <trkpt lat="43.6552" lon="3.8024">
        <ele>192.7</ele>
        <time>2017-03-09T12:07:20Z</time>
      </trkpt>
      <trkpt lat="43.65513" lon="3.80245">
        <ele>191.6</ele>
        <time>2017-03-09T12:07:22Z</time>
      </trkpt>
      <trkpt lat="43.65504" lon="3.80252">
        <ele>189.8</ele>
        <time>2017-03-09T12:07:24Z</time>
      </trkpt>
      <trkpt lat="43.65494" lon="3.8026">
        <ele>188.3</ele>
        <time>2017-03-09T12:07:26Z</time>
      </trkpt>
      <trkpt lat="43.65485" lon="3.80271">
        <ele>187</ele>
        <time>2017-03-09T12:07:28Z</time>
      </trkpt>
      <trkpt lat="43.65481" lon="3.80284">
        <ele>187.6</ele>
        <time>2017-03-09T12:07:30Z</time>
      </trkpt>
      <trkpt lat="43.65482" lon="3.80299">
        <ele>187.3</ele>
        <time>2017-03-09T12:07:32Z</time>
      </trkpt>
      <trkpt lat="43.65487" lon="3.80311">
        <ele>188.5</ele>
        <time>2017-03-09T12:07:34Z</time>
      </trkpt>
      <trkpt lat="43.65495" lon="3.80319">
        <ele>190</ele>
        <time>2017-03-09T12:07:36Z</time>
      </trkpt>
      <trkpt lat="43.65502" lon="3.80325">
        <ele>190</ele>
        <time>2017-03-09T12:07:39Z</time>
      </trkpt>
      <trkpt lat="43.65503" lon="3.80336">
        <ele>190</ele>
        <time>2017-03-09T12:07:43Z</time>
      </trkpt>
      <trkpt lat="43.65505" lon="3.80346">
        <ele>190</ele>
        <time>2017-03-09T12:07:49Z</time>
      </trkpt>
      <trkpt lat="43.6551" lon="3.80354">
        <ele>190.1</ele>
        <time>2017-03-09T12:07:52Z</time>
      </trkpt>
      <trkpt lat="43.65515" lon="3.80363">
        <ele>190.6</ele>
        <time>2017-03-09T12:07:54Z</time>
      </trkpt>
      <trkpt lat="43.65522" lon="3.80367">
        <ele>191.1</ele>
        <time>2017-03-09T12:07:56Z</time>
      </trkpt>
      <trkpt lat="43.65531" lon="3.80373">
        <ele>192.3</ele>
        <time>2017-03-09T12:07:58Z</time>
      </trkpt>
      <trkpt lat="43.65541" lon="3.80377">
        <ele>193.9</ele>
        <time>2017-03-09T12:08:00Z</time>
      </trkpt>
      <trkpt lat="43.65551" lon="3.8038">
        <ele>194.7</ele>
        <time>2017-03-09T12:08:02Z</time>
      </trkpt>
      <trkpt lat="43.65564" lon="3.80385">
        <ele>195.9</ele>
        <time>2017-03-09T12:08:04Z</time>
      </trkpt>
      <trkpt lat="43.65575" lon="3.80389">
        <ele>197.2</ele>
        <time>2017-03-09T12:08:06Z</time>
      </trkpt>
      <trkpt lat="43.65587" lon="3.80394">
        <ele>197.1</ele>
        <time>2017-03-09T12:08:08Z</time>
      </trkpt>
      <trkpt lat="43.65599" lon="3.80399">
        <ele>196.7</ele>
        <time>2017-03-09T12:08:10Z</time>
      </trkpt>
      <trkpt lat="43.65609" lon="3.80403">
        <ele>196.7</ele>
        <time>2017-03-09T12:08:12Z</time>
      </trkpt>
      <trkpt lat="43.65615" lon="3.80408">
        <ele>196.5</ele>
        <time>2017-03-09T12:08:13Z</time>
      </trkpt>
      <trkpt lat="43.65623" lon="3.80414">
        <ele>195.9</ele>
        <time>2017-03-09T12:08:14Z</time>
      </trkpt>
      <trkpt lat="43.65631" lon="3.80417">
        <ele>195</ele>
        <time>2017-03-09T12:08:15Z</time>
      </trkpt>
      <trkpt lat="43.65644" lon="3.80425">
        <ele>194.8</ele>
        <time>2017-03-09T12:08:17Z</time>
      </trkpt>
      <trkpt lat="43.6565" lon="3.80429">
        <ele>194.5</ele>
        <time>2017-03-09T12:08:18Z</time>
      </trkpt>
      <trkpt lat="43.65663" lon="3.80432">
        <ele>194.5</ele>
        <time>2017-03-09T12:08:20Z</time>
      </trkpt>
      <trkpt lat="43.65674" lon="3.80435">
        <ele>193.7</ele>
        <time>2017-03-09T12:08:22Z</time>
      </trkpt>
      <trkpt lat="43.65683" lon="3.80436">
        <ele>191.8</ele>
        <time>2017-03-09T12:08:24Z</time>
      </trkpt>
      <trkpt lat="43.65689" lon="3.80442">
        <ele>191.3</ele>
        <time>2017-03-09T12:08:26Z</time>
      </trkpt>
      <trkpt lat="43.65697" lon="3.80443">
        <ele>191.4</ele>
        <time>2017-03-09T12:08:28Z</time>
      </trkpt>
      <trkpt lat="43.65707" lon="3.80447">
        <ele>191.3</ele>
        <time>2017-03-09T12:08:31Z</time>
      </trkpt>
      <trkpt lat="43.65716" lon="3.80451">
        <ele>190.7</ele>
        <time>2017-03-09T12:08:33Z</time>
      </trkpt>
      <trkpt lat="43.65721" lon="3.80459">
        <ele>190.8</ele>
        <time>2017-03-09T12:08:35Z</time>
      </trkpt>
      <trkpt lat="43.65729" lon="3.8046">
        <ele>191.2</ele>
        <time>2017-03-09T12:08:37Z</time>
      </trkpt>
      <trkpt lat="43.65736" lon="3.80461">
        <ele>191.9</ele>
        <time>2017-03-09T12:08:39Z</time>
      </trkpt>
      <trkpt lat="43.65745" lon="3.80462">
        <ele>192.5</ele>
        <time>2017-03-09T12:08:41Z</time>
      </trkpt>
      <trkpt lat="43.65752" lon="3.80467">
        <ele>192.5</ele>
        <time>2017-03-09T12:08:43Z</time>
      </trkpt>
      <trkpt lat="43.65761" lon="3.80468">
        <ele>192.5</ele>
        <time>2017-03-09T12:08:45Z</time>
      </trkpt>
      <trkpt lat="43.65768" lon="3.8047">
        <ele>192.5</ele>
        <time>2017-03-09T12:08:47Z</time>
      </trkpt>
      <trkpt lat="43.65779" lon="3.80472">
        <ele>192.3</ele>
        <time>2017-03-09T12:08:50Z</time>
      </trkpt>
      <trkpt lat="43.65787" lon="3.80476">
        <ele>192.3</ele>
        <time>2017-03-09T12:08:52Z</time>
      </trkpt>
      <trkpt lat="43.65795" lon="3.8048">
        <ele>192.2</ele>
        <time>2017-03-09T12:08:54Z</time>
      </trkpt>
      <trkpt lat="43.65805" lon="3.80482">
        <ele>191</ele>
        <time>2017-03-09T12:08:56Z</time>
      </trkpt>
      <trkpt lat="43.65813" lon="3.80482">
        <ele>191</ele>
        <time>2017-03-09T12:08:58Z</time>
      </trkpt>
      <trkpt lat="43.65821" lon="3.80484">
        <ele>190.9</ele>
        <time>2017-03-09T12:09:00Z</time>
      </trkpt>
      <trkpt lat="43.6583" lon="3.80489">
        <ele>190.7</ele>
        <time>2017-03-09T12:09:03Z</time>
      </trkpt>
      <trkpt lat="43.65838" lon="3.80496">
        <ele>190.6</ele>
        <time>2017-03-09T12:09:05Z</time>
      </trkpt>
      <trkpt lat="43.65844" lon="3.80503">
        <ele>190.7</ele>
        <time>2017-03-09T12:09:07Z</time>
      </trkpt>
      <trkpt lat="43.65852" lon="3.80507">
        <ele>191.6</ele>
        <time>2017-03-09T12:09:09Z</time>
      </trkpt>
      <trkpt lat="43.65861" lon="3.80515">
        <ele>192.2</ele>
        <time>2017-03-09T12:09:11Z</time>
      </trkpt>
      <trkpt lat="43.65871" lon="3.80522">
        <ele>193</ele>
        <time>2017-03-09T12:09:13Z</time>
      </trkpt>
      <trkpt lat="43.65878" lon="3.80527">
        <ele>192.4</ele>
        <time>2017-03-09T12:09:15Z</time>
      </trkpt>
      <trkpt lat="43.65888" lon="3.8053">
        <ele>192.1</ele>
        <time>2017-03-09T12:09:18Z</time>
      </trkpt>
      <trkpt lat="43.65896" lon="3.80536">
        <ele>191.8</ele>
        <time>2017-03-09T12:09:21Z</time>
      </trkpt>
      <trkpt lat="43.65906" lon="3.80543">
        <ele>191.6</ele>
        <time>2017-03-09T12:09:24Z</time>
      </trkpt>
      <trkpt lat="43.65912" lon="3.80549">
        <ele>191.4</ele>
        <time>2017-03-09T12:09:26Z</time>
      </trkpt>
      <trkpt lat="43.65922" lon="3.80556">
        <ele>191.2</ele>
        <time>2017-03-09T12:09:29Z</time>
      </trkpt>
      <trkpt lat="43.65927" lon="3.80564">
        <ele>191.1</ele>
        <time>2017-03-09T12:09:31Z</time>
      </trkpt>
      <trkpt lat="43.65927" lon="3.80576">
        <ele>191.1</ele>
        <time>2017-03-09T12:09:33Z</time>
      </trkpt>
      <trkpt lat="43.65925" lon="3.80586">
        <ele>190.7</ele>
        <time>2017-03-09T12:09:36Z</time>
      </trkpt>
      <trkpt lat="43.65931" lon="3.80595">
        <ele>189.7</ele>
        <time>2017-03-09T12:09:42Z</time>
      </trkpt>
      <trkpt lat="43.65933" lon="3.80605">
        <ele>189</ele>
        <time>2017-03-09T12:09:44Z</time>
      </trkpt>
      <trkpt lat="43.65934" lon="3.80614">
        <ele>188.4</ele>
        <time>2017-03-09T12:09:46Z</time>
      </trkpt>
      <trkpt lat="43.65932" lon="3.80625">
        <ele>187.3</ele>
        <time>2017-03-09T12:09:49Z</time>
      </trkpt>
      <trkpt lat="43.6593" lon="3.80637">
        <ele>185.5</ele>
        <time>2017-03-09T12:09:53Z</time>
      </trkpt>
      <trkpt lat="43.6592" lon="3.80643">
        <ele>180.7</ele>
        <time>2017-03-09T12:09:56Z</time>
      </trkpt>
      <trkpt lat="43.65913" lon="3.80649">
        <ele>179.5</ele>
        <time>2017-03-09T12:09:59Z</time>
      </trkpt>
      <trkpt lat="43.65906" lon="3.80655">
        <ele>178.1</ele>
        <time>2017-03-09T12:10:02Z</time>
      </trkpt>
      <trkpt lat="43.65908" lon="3.80667">
        <ele>176.7</ele>
        <time>2017-03-09T12:10:05Z</time>
      </trkpt>
      <trkpt lat="43.65911" lon="3.80676">
        <ele>175.6</ele>
        <time>2017-03-09T12:10:08Z</time>
      </trkpt>
      <trkpt lat="43.65916" lon="3.80688">
        <ele>168.3</ele>
        <time>2017-03-09T12:10:11Z</time>
      </trkpt>
      <trkpt lat="43.65921" lon="3.80701">
        <ele>165</ele>
        <time>2017-03-09T12:10:13Z</time>
      </trkpt>
      <trkpt lat="43.65924" lon="3.80716">
        <ele>160.3</ele>
        <time>2017-03-09T12:10:15Z</time>
      </trkpt>
      <trkpt lat="43.6592" lon="3.80731">
        <ele>156.8</ele>
        <time>2017-03-09T12:10:17Z</time>
      </trkpt>
      <trkpt lat="43.65914" lon="3.80747">
        <ele>154</ele>
        <time>2017-03-09T12:10:19Z</time>
      </trkpt>
      <trkpt lat="43.65909" lon="3.80759">
        <ele>151.2</ele>
        <time>2017-03-09T12:10:21Z</time>
      </trkpt>
      <trkpt lat="43.65903" lon="3.80774">
        <ele>148.1</ele>
        <time>2017-03-09T12:10:24Z</time>
      </trkpt>
      <trkpt lat="43.65896" lon="3.80776">
        <ele>147.9</ele>
        <time>2017-03-09T12:10:26Z</time>
      </trkpt>
      <trkpt lat="43.65888" lon="3.80776">
        <ele>147.8</ele>
        <time>2017-03-09T12:10:28Z</time>
      </trkpt>
      <trkpt lat="43.65878" lon="3.80775">
        <ele>147.6</ele>
        <time>2017-03-09T12:10:30Z</time>
      </trkpt>
      <trkpt lat="43.65871" lon="3.80774">
        <ele>147.4</ele>
        <time>2017-03-09T12:10:32Z</time>
      </trkpt>
      <trkpt lat="43.65863" lon="3.80773">
        <ele>147.2</ele>
        <time>2017-03-09T12:10:34Z</time>
      </trkpt>
      <trkpt lat="43.65855" lon="3.80768">
        <ele>146</ele>
        <time>2017-03-09T12:10:36Z</time>
      </trkpt>
      <trkpt lat="43.65846" lon="3.80763">
        <ele>143.8</ele>
        <time>2017-03-09T12:10:38Z</time>
      </trkpt>
      <trkpt lat="43.65837" lon="3.80758">
        <ele>141.7</ele>
        <time>2017-03-09T12:10:40Z</time>
      </trkpt>
      <trkpt lat="43.65827" lon="3.80754">
        <ele>140</ele>
        <time>2017-03-09T12:10:42Z</time>
      </trkpt>
      <trkpt lat="43.65816" lon="3.80748">
        <ele>139.2</ele>
        <time>2017-03-09T12:10:44Z</time>
      </trkpt>
      <trkpt lat="43.65806" lon="3.8074">
        <ele>138.4</ele>
        <time>2017-03-09T12:10:46Z</time>
      </trkpt>
      <trkpt lat="43.65796" lon="3.80736">
        <ele>137.7</ele>
        <time>2017-03-09T12:10:48Z</time>
      </trkpt>
      <trkpt lat="43.65788" lon="3.80737">
        <ele>137.7</ele>
        <time>2017-03-09T12:10:50Z</time>
      </trkpt>
      <trkpt lat="43.65778" lon="3.80735">
        <ele>137.9</ele>
        <time>2017-03-09T12:10:52Z</time>
      </trkpt>
      <trkpt lat="43.65768" lon="3.80734">
        <ele>138.3</ele>
        <time>2017-03-09T12:10:54Z</time>
      </trkpt>
      <trkpt lat="43.65759" lon="3.80732">
        <ele>137.8</ele>
        <time>2017-03-09T12:10:56Z</time>
      </trkpt>
      <trkpt lat="43.65749" lon="3.8073">
        <ele>137.8</ele>
        <time>2017-03-09T12:10:58Z</time>
      </trkpt>
      <trkpt lat="43.65738" lon="3.80725">
        <ele>138</ele>
        <time>2017-03-09T12:11:00Z</time>
      </trkpt>
      <trkpt lat="43.65729" lon="3.8072">
        <ele>138.5</ele>
        <time>2017-03-09T12:11:02Z</time>
      </trkpt>
      <trkpt lat="43.65719" lon="3.80713">
        <ele>138.4</ele>
        <time>2017-03-09T12:11:04Z</time>
      </trkpt>
      <trkpt lat="43.65709" lon="3.80708">
        <ele>137.8</ele>
        <time>2017-03-09T12:11:06Z</time>
      </trkpt>
      <trkpt lat="43.65701" lon="3.80705">
        <ele>138.5</ele>
        <time>2017-03-09T12:11:08Z</time>
      </trkpt>
      <trkpt lat="43.65693" lon="3.80707">
        <ele>138.9</ele>
        <time>2017-03-09T12:11:10Z</time>
      </trkpt>
      <trkpt lat="43.65683" lon="3.80712">
        <ele>138.1</ele>
        <time>2017-03-09T12:11:12Z</time>
      </trkpt>
      <trkpt lat="43.65671" lon="3.80717">
        <ele>138.5</ele>
        <time>2017-03-09T12:11:14Z</time>
      </trkpt>
      <trkpt lat="43.65664" lon="3.8072">
        <ele>138.5</ele>
        <time>2017-03-09T12:11:15Z</time>
      </trkpt>
      <trkpt lat="43.65657" lon="3.80722">
        <ele>138.7</ele>
        <time>2017-03-09T12:11:16Z</time>
      </trkpt>
      <trkpt lat="43.6565" lon="3.80727">
        <ele>138.6</ele>
        <time>2017-03-09T12:11:17Z</time>
      </trkpt>
      <trkpt lat="43.65643" lon="3.80732">
        <ele>138.7</ele>
        <time>2017-03-09T12:11:18Z</time>
      </trkpt>
      <trkpt lat="43.65636" lon="3.80738">
        <ele>138.8</ele>
        <time>2017-03-09T12:11:19Z</time>
      </trkpt>
      <trkpt lat="43.65628" lon="3.80743">
        <ele>138.6</ele>
        <time>2017-03-09T12:11:20Z</time>
      </trkpt>
      <trkpt lat="43.65621" lon="3.80749">
        <ele>138.2</ele>
        <time>2017-03-09T12:11:21Z</time>
      </trkpt>
      <trkpt lat="43.65615" lon="3.80754">
        <ele>137.7</ele>
        <time>2017-03-09T12:11:22Z</time>
      </trkpt>
      <trkpt lat="43.65608" lon="3.8076">
        <ele>137.1</ele>
        <time>2017-03-09T12:11:23Z</time>
      </trkpt>
      <trkpt lat="43.65602" lon="3.80766">
        <ele>136.1</ele>
        <time>2017-03-09T12:11:24Z</time>
      </trkpt>
      <trkpt lat="43.65595" lon="3.80773">
        <ele>134.8</ele>
        <time>2017-03-09T12:11:25Z</time>
      </trkpt>
      <trkpt lat="43.65588" lon="3.80779">
        <ele>133.9</ele>
        <time>2017-03-09T12:11:26Z</time>
      </trkpt>
      <trkpt lat="43.65581" lon="3.80784">
        <ele>133</ele>
        <time>2017-03-09T12:11:27Z</time>
      </trkpt>
      <trkpt lat="43.65574" lon="3.8079">
        <ele>132</ele>
        <time>2017-03-09T12:11:28Z</time>
      </trkpt>
      <trkpt lat="43.65565" lon="3.80791">
        <ele>131.2</ele>
        <time>2017-03-09T12:11:29Z</time>
      </trkpt>
      <trkpt lat="43.65558" lon="3.80789">
        <ele>130.6</ele>
        <time>2017-03-09T12:11:30Z</time>
      </trkpt>
      <trkpt lat="43.65551" lon="3.80786">
        <ele>130.4</ele>
        <time>2017-03-09T12:11:31Z</time>
      </trkpt>
      <trkpt lat="43.65539" lon="3.80782">
        <ele>130.7</ele>
        <time>2017-03-09T12:11:33Z</time>
      </trkpt>
      <trkpt lat="43.65528" lon="3.80779">
        <ele>130.9</ele>
        <time>2017-03-09T12:11:35Z</time>
      </trkpt>
      <trkpt lat="43.65518" lon="3.80776">
        <ele>131.8</ele>
        <time>2017-03-09T12:11:37Z</time>
      </trkpt>
      <trkpt lat="43.65505" lon="3.8078">
        <ele>131.9</ele>
        <time>2017-03-09T12:11:39Z</time>
      </trkpt>
      <trkpt lat="43.65497" lon="3.80779">
        <ele>132.1</ele>
        <time>2017-03-09T12:11:40Z</time>
      </trkpt>
      <trkpt lat="43.65484" lon="3.8077">
        <ele>131.3</ele>
        <time>2017-03-09T12:11:42Z</time>
      </trkpt>
      <trkpt lat="43.65476" lon="3.80764">
        <ele>131</ele>
        <time>2017-03-09T12:11:43Z</time>
      </trkpt>
      <trkpt lat="43.65469" lon="3.80759">
        <ele>131</ele>
        <time>2017-03-09T12:11:44Z</time>
      </trkpt>
      <trkpt lat="43.65458" lon="3.80758">
        <ele>131.2</ele>
        <time>2017-03-09T12:11:46Z</time>
      </trkpt>
      <trkpt lat="43.65446" lon="3.80758">
        <ele>131.1</ele>
        <time>2017-03-09T12:11:48Z</time>
      </trkpt>
      <trkpt lat="43.65435" lon="3.80757">
        <ele>131.3</ele>
        <time>2017-03-09T12:11:50Z</time>
      </trkpt>
      <trkpt lat="43.65425" lon="3.80757">
        <ele>130.9</ele>
        <time>2017-03-09T12:11:52Z</time>
      </trkpt>
      <trkpt lat="43.65416" lon="3.80754">
        <ele>130.3</ele>
        <time>2017-03-09T12:11:54Z</time>
      </trkpt>
      <trkpt lat="43.65406" lon="3.80751">
        <ele>129.4</ele>
        <time>2017-03-09T12:11:56Z</time>
      </trkpt>
      <trkpt lat="43.65397" lon="3.80747">
        <ele>128.5</ele>
        <time>2017-03-09T12:11:58Z</time>
      </trkpt>
      <trkpt lat="43.65384" lon="3.80743">
        <ele>126.8</ele>
        <time>2017-03-09T12:12:00Z</time>
      </trkpt>
      <trkpt lat="43.65371" lon="3.80739">
        <ele>126.3</ele>
        <time>2017-03-09T12:12:02Z</time>
      </trkpt>
      <trkpt lat="43.65359" lon="3.80735">
        <ele>125.3</ele>
        <time>2017-03-09T12:12:04Z</time>
      </trkpt>
      <trkpt lat="43.65349" lon="3.80741">
        <ele>124.8</ele>
        <time>2017-03-09T12:12:06Z</time>
      </trkpt>
      <trkpt lat="43.65342" lon="3.80757">
        <ele>124.7</ele>
        <time>2017-03-09T12:12:08Z</time>
      </trkpt>
      <trkpt lat="43.65334" lon="3.80773">
        <ele>126.5</ele>
        <time>2017-03-09T12:12:10Z</time>
      </trkpt>
      <trkpt lat="43.65329" lon="3.80782">
        <ele>127</ele>
        <time>2017-03-09T12:12:11Z</time>
      </trkpt>
      <trkpt lat="43.65321" lon="3.80799">
        <ele>126</ele>
        <time>2017-03-09T12:12:13Z</time>
      </trkpt>
      <trkpt lat="43.65317" lon="3.80808">
        <ele>125.6</ele>
        <time>2017-03-09T12:12:14Z</time>
      </trkpt>
      <trkpt lat="43.65312" lon="3.80817">
        <ele>125.4</ele>
        <time>2017-03-09T12:12:15Z</time>
      </trkpt>
      <trkpt lat="43.65303" lon="3.80834">
        <ele>125</ele>
        <time>2017-03-09T12:12:17Z</time>
      </trkpt>
      <trkpt lat="43.65294" lon="3.80852">
        <ele>124.5</ele>
        <time>2017-03-09T12:12:19Z</time>
      </trkpt>
      <trkpt lat="43.6529" lon="3.80862">
        <ele>124.2</ele>
        <time>2017-03-09T12:12:20Z</time>
      </trkpt>
      <trkpt lat="43.65286" lon="3.80871">
        <ele>123.8</ele>
        <time>2017-03-09T12:12:21Z</time>
      </trkpt>
      <trkpt lat="43.65282" lon="3.8088">
        <ele>123.2</ele>
        <time>2017-03-09T12:12:22Z</time>
      </trkpt>
      <trkpt lat="43.65277" lon="3.80889">
        <ele>123.1</ele>
        <time>2017-03-09T12:12:23Z</time>
      </trkpt>
      <trkpt lat="43.65273" lon="3.80899">
        <ele>123.1</ele>
        <time>2017-03-09T12:12:24Z</time>
      </trkpt>
      <trkpt lat="43.65268" lon="3.80908">
        <ele>122.6</ele>
        <time>2017-03-09T12:12:25Z</time>
      </trkpt>
      <trkpt lat="43.65263" lon="3.80916">
        <ele>122.1</ele>
        <time>2017-03-09T12:12:26Z</time>
      </trkpt>
      <trkpt lat="43.65257" lon="3.8093">
        <ele>121.5</ele>
        <time>2017-03-09T12:12:28Z</time>
      </trkpt>
      <trkpt lat="43.65254" lon="3.80941">
        <ele>121.4</ele>
        <time>2017-03-09T12:12:31Z</time>
      </trkpt>
      <trkpt lat="43.6525" lon="3.80955">
        <ele>121.4</ele>
        <time>2017-03-09T12:12:35Z</time>
      </trkpt>
      <trkpt lat="43.65247" lon="3.80968">
        <ele>121.1</ele>
        <time>2017-03-09T12:12:37Z</time>
      </trkpt>
      <trkpt lat="43.65241" lon="3.80983">
        <ele>120.6</ele>
        <time>2017-03-09T12:12:40Z</time>
      </trkpt>
      <trkpt lat="43.65236" lon="3.80995">
        <ele>120.2</ele>
        <time>2017-03-09T12:12:42Z</time>
      </trkpt>
      <trkpt lat="43.6523" lon="3.81006">
        <ele>120.2</ele>
        <time>2017-03-09T12:12:44Z</time>
      </trkpt>
      <trkpt lat="43.65224" lon="3.81018">
        <ele>120.2</ele>
        <time>2017-03-09T12:12:46Z</time>
      </trkpt>
      <trkpt lat="43.65219" lon="3.8103">
        <ele>119.8</ele>
        <time>2017-03-09T12:12:48Z</time>
      </trkpt>
      <trkpt lat="43.65212" lon="3.81041">
        <ele>119.6</ele>
        <time>2017-03-09T12:12:50Z</time>
      </trkpt>
      <trkpt lat="43.65206" lon="3.81052">
        <ele>119.6</ele>
        <time>2017-03-09T12:12:52Z</time>
      </trkpt>
      <trkpt lat="43.65198" lon="3.81061">
        <ele>119.7</ele>
        <time>2017-03-09T12:12:54Z</time>
      </trkpt>
      <trkpt lat="43.65191" lon="3.81072">
        <ele>120.3</ele>
        <time>2017-03-09T12:12:56Z</time>
      </trkpt>
      <trkpt lat="43.65185" lon="3.81085">
        <ele>122.1</ele>
        <time>2017-03-09T12:12:58Z</time>
      </trkpt>
      <trkpt lat="43.65185" lon="3.81096">
        <ele>122.7</ele>
        <time>2017-03-09T12:13:00Z</time>
      </trkpt>
      <trkpt lat="43.65183" lon="3.81106">
        <ele>123</ele>
        <time>2017-03-09T12:13:02Z</time>
      </trkpt>
      <trkpt lat="43.65177" lon="3.81116">
        <ele>123.2</ele>
        <time>2017-03-09T12:13:05Z</time>
      </trkpt>
      <trkpt lat="43.65173" lon="3.81125">
        <ele>123.3</ele>
        <time>2017-03-09T12:13:07Z</time>
      </trkpt>
      <trkpt lat="43.65175" lon="3.81138">
        <ele>123.7</ele>
        <time>2017-03-09T12:13:12Z</time>
      </trkpt>
      <trkpt lat="43.65181" lon="3.81146">
        <ele>123.9</ele>
        <time>2017-03-09T12:13:15Z</time>
      </trkpt>
      <trkpt lat="43.65189" lon="3.81154">
        <ele>124.8</ele>
        <time>2017-03-09T12:13:18Z</time>
      </trkpt>
      <trkpt lat="43.65197" lon="3.81161">
        <ele>126.7</ele>
        <time>2017-03-09T12:13:20Z</time>
      </trkpt>
      <trkpt lat="43.65203" lon="3.8117">
        <ele>127.6</ele>
        <time>2017-03-09T12:13:22Z</time>
      </trkpt>
      <trkpt lat="43.65211" lon="3.81179">
        <ele>127.5</ele>
        <time>2017-03-09T12:13:24Z</time>
      </trkpt>
      <trkpt lat="43.65218" lon="3.81188">
        <ele>127.5</ele>
        <time>2017-03-09T12:13:26Z</time>
      </trkpt>
      <trkpt lat="43.65224" lon="3.81195">
        <ele>127.2</ele>
        <time>2017-03-09T12:13:28Z</time>
      </trkpt>
      <trkpt lat="43.65229" lon="3.81205">
        <ele>125.8</ele>
        <time>2017-03-09T12:13:30Z</time>
      </trkpt>
      <trkpt lat="43.65232" lon="3.8122">
        <ele>123.7</ele>
        <time>2017-03-09T12:13:32Z</time>
      </trkpt>
      <trkpt lat="43.65232" lon="3.81233">
        <ele>122.4</ele>
        <time>2017-03-09T12:13:33Z</time>
      </trkpt>
      <trkpt lat="43.65231" lon="3.81244">
        <ele>121.3</ele>
        <time>2017-03-09T12:13:34Z</time>
      </trkpt>
      <trkpt lat="43.65232" lon="3.81256">
        <ele>120.5</ele>
        <time>2017-03-09T12:13:35Z</time>
      </trkpt>
      <trkpt lat="43.65233" lon="3.81267">
        <ele>119.2</ele>
        <time>2017-03-09T12:13:36Z</time>
      </trkpt>
      <trkpt lat="43.65236" lon="3.81284">
        <ele>117.2</ele>
        <time>2017-03-09T12:13:38Z</time>
      </trkpt>
      <trkpt lat="43.65237" lon="3.81296">
        <ele>116.6</ele>
        <time>2017-03-09T12:13:40Z</time>
      </trkpt>
      <trkpt lat="43.65244" lon="3.81307">
        <ele>116.6</ele>
        <time>2017-03-09T12:13:43Z</time>
      </trkpt>
      <trkpt lat="43.65247" lon="3.81318">
        <ele>117.1</ele>
        <time>2017-03-09T12:13:45Z</time>
      </trkpt>
      <trkpt lat="43.65249" lon="3.81329">
        <ele>117</ele>
        <time>2017-03-09T12:13:47Z</time>
      </trkpt>
      <trkpt lat="43.65251" lon="3.81339">
        <ele>116.6</ele>
        <time>2017-03-09T12:13:49Z</time>
      </trkpt>
      <trkpt lat="43.65255" lon="3.81351">
        <ele>116.6</ele>
        <time>2017-03-09T12:13:52Z</time>
      </trkpt>
      <trkpt lat="43.65258" lon="3.81364">
        <ele>116.7</ele>
        <time>2017-03-09T12:13:55Z</time>
      </trkpt>
      <trkpt lat="43.65261" lon="3.81375">
        <ele>117.6</ele>
        <time>2017-03-09T12:13:58Z</time>
      </trkpt>
      <trkpt lat="43.65265" lon="3.81387">
        <ele>118.1</ele>
        <time>2017-03-09T12:14:01Z</time>
      </trkpt>
      <trkpt lat="43.65269" lon="3.81395">
        <ele>118.3</ele>
        <time>2017-03-09T12:14:04Z</time>
      </trkpt>
      <trkpt lat="43.65272" lon="3.81408">
        <ele>118.8</ele>
        <time>2017-03-09T12:14:07Z</time>
      </trkpt>
      <trkpt lat="43.65274" lon="3.81424">
        <ele>119.3</ele>
        <time>2017-03-09T12:14:11Z</time>
      </trkpt>
      <trkpt lat="43.65277" lon="3.81434">
        <ele>119.3</ele>
        <time>2017-03-09T12:14:13Z</time>
      </trkpt>
      <trkpt lat="43.65279" lon="3.81447">
        <ele>119.7</ele>
        <time>2017-03-09T12:14:15Z</time>
      </trkpt>
      <trkpt lat="43.65281" lon="3.81462">
        <ele>121</ele>
        <time>2017-03-09T12:14:17Z</time>
      </trkpt>
      <trkpt lat="43.65283" lon="3.81473">
        <ele>121.4</ele>
        <time>2017-03-09T12:14:19Z</time>
      </trkpt>
      <trkpt lat="43.65287" lon="3.81485">
        <ele>122.5</ele>
        <time>2017-03-09T12:14:22Z</time>
      </trkpt>
      <trkpt lat="43.6529" lon="3.81494">
        <ele>122.5</ele>
        <time>2017-03-09T12:14:24Z</time>
      </trkpt>
      <trkpt lat="43.65294" lon="3.81504">
        <ele>122.7</ele>
        <time>2017-03-09T12:14:26Z</time>
      </trkpt>
      <trkpt lat="43.65299" lon="3.81515">
        <ele>123.8</ele>
        <time>2017-03-09T12:14:28Z</time>
      </trkpt>
      <trkpt lat="43.65302" lon="3.81525">
        <ele>124.2</ele>
        <time>2017-03-09T12:14:30Z</time>
      </trkpt>
      <trkpt lat="43.65307" lon="3.81534">
        <ele>125.1</ele>
        <time>2017-03-09T12:14:32Z</time>
      </trkpt>
      <trkpt lat="43.65311" lon="3.81548">
        <ele>126.4</ele>
        <time>2017-03-09T12:14:35Z</time>
      </trkpt>
      <trkpt lat="43.65313" lon="3.81562">
        <ele>126.8</ele>
        <time>2017-03-09T12:14:38Z</time>
      </trkpt>
      <trkpt lat="43.65314" lon="3.81574">
        <ele>127</ele>
        <time>2017-03-09T12:14:40Z</time>
      </trkpt>
      <trkpt lat="43.65315" lon="3.81588">
        <ele>127.1</ele>
        <time>2017-03-09T12:14:43Z</time>
      </trkpt>
      <trkpt lat="43.65317" lon="3.81599">
        <ele>127.1</ele>
        <time>2017-03-09T12:14:45Z</time>
      </trkpt>
      <trkpt lat="43.65319" lon="3.81609">
        <ele>127.3</ele>
        <time>2017-03-09T12:14:47Z</time>
      </trkpt>
      <trkpt lat="43.6532" lon="3.81619">
        <ele>127.4</ele>
        <time>2017-03-09T12:14:49Z</time>
      </trkpt>
      <trkpt lat="43.65322" lon="3.8163">
        <ele>127.4</ele>
        <time>2017-03-09T12:14:51Z</time>
      </trkpt>
      <trkpt lat="43.65324" lon="3.81641">
        <ele>127.9</ele>
        <time>2017-03-09T12:14:53Z</time>
      </trkpt>
      <trkpt lat="43.65328" lon="3.81653">
        <ele>128.4</ele>
        <time>2017-03-09T12:14:55Z</time>
      </trkpt>
      <trkpt lat="43.65331" lon="3.81664">
        <ele>127.8</ele>
        <time>2017-03-09T12:14:57Z</time>
      </trkpt>
      <trkpt lat="43.65336" lon="3.81676">
        <ele>127.9</ele>
        <time>2017-03-09T12:14:59Z</time>
      </trkpt>
      <trkpt lat="43.65339" lon="3.8169">
        <ele>127.9</ele>
        <time>2017-03-09T12:15:01Z</time>
      </trkpt>
      <trkpt lat="43.65342" lon="3.81703">
        <ele>128.2</ele>
        <time>2017-03-09T12:15:03Z</time>
      </trkpt>
      <trkpt lat="43.65346" lon="3.81717">
        <ele>128.5</ele>
        <time>2017-03-09T12:15:05Z</time>
      </trkpt>
      <trkpt lat="43.65353" lon="3.81729">
        <ele>129.3</ele>
        <time>2017-03-09T12:15:07Z</time>
      </trkpt>
      <trkpt lat="43.6536" lon="3.81743">
        <ele>130.1</ele>
        <time>2017-03-09T12:15:09Z</time>
      </trkpt>
      <trkpt lat="43.65365" lon="3.81753">
        <ele>130.2</ele>
        <time>2017-03-09T12:15:11Z</time>
      </trkpt>
      <trkpt lat="43.6537" lon="3.81761">
        <ele>130.2</ele>
        <time>2017-03-09T12:15:13Z</time>
      </trkpt>
      <trkpt lat="43.65375" lon="3.8177">
        <ele>129.8</ele>
        <time>2017-03-09T12:15:15Z</time>
      </trkpt>
      <trkpt lat="43.65381" lon="3.81779">
        <ele>129.3</ele>
        <time>2017-03-09T12:15:17Z</time>
      </trkpt>
      <trkpt lat="43.65386" lon="3.81789">
        <ele>129.1</ele>
        <time>2017-03-09T12:15:19Z</time>
      </trkpt>
      <trkpt lat="43.65391" lon="3.81799">
        <ele>127.8</ele>
        <time>2017-03-09T12:15:21Z</time>
      </trkpt>
      <trkpt lat="43.65394" lon="3.81816">
        <ele>127.3</ele>
        <time>2017-03-09T12:15:23Z</time>
      </trkpt>
      <trkpt lat="43.65397" lon="3.81828">
        <ele>127.6</ele>
        <time>2017-03-09T12:15:24Z</time>
      </trkpt>
      <trkpt lat="43.65404" lon="3.81845">
        <ele>128.6</ele>
        <time>2017-03-09T12:15:26Z</time>
      </trkpt>
      <trkpt lat="43.65404" lon="3.81857">
        <ele>128.8</ele>
        <time>2017-03-09T12:15:27Z</time>
      </trkpt>
      <trkpt lat="43.65406" lon="3.81873">
        <ele>127.8</ele>
        <time>2017-03-09T12:15:29Z</time>
      </trkpt>
      <trkpt lat="43.65409" lon="3.81884">
        <ele>126.7</ele>
        <time>2017-03-09T12:15:31Z</time>
      </trkpt>
      <trkpt lat="43.65413" lon="3.81896">
        <ele>127.2</ele>
        <time>2017-03-09T12:15:33Z</time>
      </trkpt>
      <trkpt lat="43.65415" lon="3.81907">
        <ele>127.8</ele>
        <time>2017-03-09T12:15:35Z</time>
      </trkpt>
      <trkpt lat="43.65418" lon="3.81918">
        <ele>128.4</ele>
        <time>2017-03-09T12:15:37Z</time>
      </trkpt>
      <trkpt lat="43.65421" lon="3.8193">
        <ele>127.6</ele>
        <time>2017-03-09T12:15:39Z</time>
      </trkpt>
      <trkpt lat="43.65425" lon="3.81939">
        <ele>126.4</ele>
        <time>2017-03-09T12:15:41Z</time>
      </trkpt>
      <trkpt lat="43.65429" lon="3.81947">
        <ele>127.3</ele>
        <time>2017-03-09T12:15:43Z</time>
      </trkpt>
      <trkpt lat="43.65432" lon="3.81959">
        <ele>127.5</ele>
        <time>2017-03-09T12:15:45Z</time>
      </trkpt>
      <trkpt lat="43.65429" lon="3.81968">
        <ele>127.5</ele>
        <time>2017-03-09T12:15:47Z</time>
      </trkpt>
      <trkpt lat="43.65425" lon="3.81978">
        <ele>127.4</ele>
        <time>2017-03-09T12:15:50Z</time>
      </trkpt>
      <trkpt lat="43.65417" lon="3.81985">
        <ele>127.9</ele>
        <time>2017-03-09T12:15:54Z</time>
      </trkpt>
      <trkpt lat="43.6541" lon="3.81994">
        <ele>128</ele>
        <time>2017-03-09T12:15:56Z</time>
      </trkpt>
      <trkpt lat="43.65405" lon="3.82005">
        <ele>128.1</ele>
        <time>2017-03-09T12:15:59Z</time>
      </trkpt>
      <trkpt lat="43.65401" lon="3.82014">
        <ele>128.4</ele>
        <time>2017-03-09T12:16:02Z</time>
      </trkpt>
      <trkpt lat="43.65396" lon="3.82025">
        <ele>128.5</ele>
        <time>2017-03-09T12:16:05Z</time>
      </trkpt>
      <trkpt lat="43.65391" lon="3.82034">
        <ele>128.6</ele>
        <time>2017-03-09T12:16:07Z</time>
      </trkpt>
      <trkpt lat="43.65388" lon="3.82048">
        <ele>129.1</ele>
        <time>2017-03-09T12:16:09Z</time>
      </trkpt>
      <trkpt lat="43.65392" lon="3.82061">
        <ele>129.1</ele>
        <time>2017-03-09T12:16:15Z</time>
      </trkpt>
      <trkpt lat="43.65396" lon="3.82071">
        <ele>129.3</ele>
        <time>2017-03-09T12:16:18Z</time>
      </trkpt>
      <trkpt lat="43.654" lon="3.8208">
        <ele>129.5</ele>
        <time>2017-03-09T12:16:21Z</time>
      </trkpt>
      <trkpt lat="43.65407" lon="3.82086">
        <ele>129.6</ele>
        <time>2017-03-09T12:16:24Z</time>
      </trkpt>
      <trkpt lat="43.6541" lon="3.82097">
        <ele>130</ele>
        <time>2017-03-09T12:16:26Z</time>
      </trkpt>
      <trkpt lat="43.65408" lon="3.82111">
        <ele>130.1</ele>
        <time>2017-03-09T12:16:28Z</time>
      </trkpt>
      <trkpt lat="43.65406" lon="3.82122">
        <ele>130.3</ele>
        <time>2017-03-09T12:16:30Z</time>
      </trkpt>
      <trkpt lat="43.65405" lon="3.82134">
        <ele>130.4</ele>
        <time>2017-03-09T12:16:32Z</time>
      </trkpt>
      <trkpt lat="43.65404" lon="3.82148">
        <ele>130.4</ele>
        <time>2017-03-09T12:16:35Z</time>
      </trkpt>
      <trkpt lat="43.65402" lon="3.82161">
        <ele>130.4</ele>
        <time>2017-03-09T12:16:38Z</time>
      </trkpt>
      <trkpt lat="43.65403" lon="3.82175">
        <ele>130.4</ele>
        <time>2017-03-09T12:16:41Z</time>
      </trkpt>
      <trkpt lat="43.65401" lon="3.82185">
        <ele>130.4</ele>
        <time>2017-03-09T12:16:43Z</time>
      </trkpt>
      <trkpt lat="43.65399" lon="3.82196">
        <ele>130.5</ele>
        <time>2017-03-09T12:16:45Z</time>
      </trkpt>
      <trkpt lat="43.65393" lon="3.82207">
        <ele>130.5</ele>
        <time>2017-03-09T12:16:47Z</time>
      </trkpt>
      <trkpt lat="43.65387" lon="3.82214">
        <ele>130.5</ele>
        <time>2017-03-09T12:16:49Z</time>
      </trkpt>
      <trkpt lat="43.65379" lon="3.82218">
        <ele>129.4</ele>
        <time>2017-03-09T12:16:51Z</time>
      </trkpt>
      <trkpt lat="43.65371" lon="3.82225">
        <ele>129.5</ele>
        <time>2017-03-09T12:16:55Z</time>
      </trkpt>
      <trkpt lat="43.65367" lon="3.82235">
        <ele>130</ele>
        <time>2017-03-09T12:17:01Z</time>
      </trkpt>
      <trkpt lat="43.65363" lon="3.82243">
        <ele>130.4</ele>
        <time>2017-03-09T12:17:04Z</time>
      </trkpt>
      <trkpt lat="43.6536" lon="3.82252">
        <ele>130.6</ele>
        <time>2017-03-09T12:17:07Z</time>
      </trkpt>
      <trkpt lat="43.65358" lon="3.82264">
        <ele>130.7</ele>
        <time>2017-03-09T12:17:10Z</time>
      </trkpt>
      <trkpt lat="43.65356" lon="3.82274">
        <ele>131</ele>
        <time>2017-03-09T12:17:13Z</time>
      </trkpt>
      <trkpt lat="43.65355" lon="3.82285">
        <ele>131.3</ele>
        <time>2017-03-09T12:17:16Z</time>
      </trkpt>
      <trkpt lat="43.65354" lon="3.82297">
        <ele>131.7</ele>
        <time>2017-03-09T12:17:19Z</time>
      </trkpt>
      <trkpt lat="43.65353" lon="3.82308">
        <ele>132.1</ele>
        <time>2017-03-09T12:17:22Z</time>
      </trkpt>
      <trkpt lat="43.65352" lon="3.82319">
        <ele>132.4</ele>
        <time>2017-03-09T12:17:25Z</time>
      </trkpt>
      <trkpt lat="43.6535" lon="3.82332">
        <ele>132.6</ele>
        <time>2017-03-09T12:17:28Z</time>
      </trkpt>
      <trkpt lat="43.65348" lon="3.82344">
        <ele>132.8</ele>
        <time>2017-03-09T12:17:31Z</time>
      </trkpt>
      <trkpt lat="43.65346" lon="3.82354">
        <ele>133.2</ele>
        <time>2017-03-09T12:17:34Z</time>
      </trkpt>
      <trkpt lat="43.65346" lon="3.82367">
        <ele>133.6</ele>
        <time>2017-03-09T12:17:38Z</time>
      </trkpt>
      <trkpt lat="43.65344" lon="3.82377">
        <ele>133.7</ele>
        <time>2017-03-09T12:17:41Z</time>
      </trkpt>
      <trkpt lat="43.65343" lon="3.82389">
        <ele>133.9</ele>
        <time>2017-03-09T12:17:44Z</time>
      </trkpt>
      <trkpt lat="43.65342" lon="3.824">
        <ele>134.1</ele>
        <time>2017-03-09T12:17:47Z</time>
      </trkpt>
      <trkpt lat="43.65339" lon="3.8241">
        <ele>134.3</ele>
        <time>2017-03-09T12:17:50Z</time>
      </trkpt>
      <trkpt lat="43.65339" lon="3.82423">
        <ele>134.6</ele>
        <time>2017-03-09T12:17:54Z</time>
      </trkpt>
      <trkpt lat="43.65339" lon="3.82435">
        <ele>134.8</ele>
        <time>2017-03-09T12:17:57Z</time>
      </trkpt>
      <trkpt lat="43.65337" lon="3.82445">
        <ele>135.2</ele>
        <time>2017-03-09T12:18:00Z</time>
      </trkpt>
      <trkpt lat="43.65333" lon="3.82455">
        <ele>135.4</ele>
        <time>2017-03-09T12:18:03Z</time>
      </trkpt>
      <trkpt lat="43.65331" lon="3.82465">
        <ele>135.9</ele>
        <time>2017-03-09T12:18:07Z</time>
      </trkpt>
      <trkpt lat="43.65327" lon="3.82476">
        <ele>136.5</ele>
        <time>2017-03-09T12:18:12Z</time>
      </trkpt>
      <trkpt lat="43.65326" lon="3.82487">
        <ele>137.2</ele>
        <time>2017-03-09T12:18:17Z</time>
      </trkpt>
      <trkpt lat="43.65326" lon="3.82497">
        <ele>137.9</ele>
        <time>2017-03-09T12:18:21Z</time>
      </trkpt>
      <trkpt lat="43.65325" lon="3.82509">
        <ele>138.9</ele>
        <time>2017-03-09T12:18:25Z</time>
      </trkpt>
      <trkpt lat="43.65325" lon="3.8252">
        <ele>140</ele>
        <time>2017-03-09T12:18:30Z</time>
      </trkpt>
      <trkpt lat="43.65326" lon="3.82532">
        <ele>141.4</ele>
        <time>2017-03-09T12:18:36Z</time>
      </trkpt>
      <trkpt lat="43.65325" lon="3.82542">
        <ele>142.8</ele>
        <time>2017-03-09T12:18:42Z</time>
      </trkpt>
      <trkpt lat="43.65326" lon="3.82552">
        <ele>143.9</ele>
        <time>2017-03-09T12:18:47Z</time>
      </trkpt>
      <trkpt lat="43.65326" lon="3.82563">
        <ele>145.3</ele>
        <time>2017-03-09T12:18:53Z</time>
      </trkpt>
      <trkpt lat="43.65325" lon="3.82566">
        <ele>146.5</ele>
        <time>2017-03-09T12:19:00Z</time>
      </trkpt>
      <trkpt lat="43.65313" lon="3.82571">
        <ele>147.5</ele>
        <time>2017-03-09T12:19:05Z</time>
      </trkpt>
      <trkpt lat="43.65306" lon="3.8257">
        <ele>148.9</ele>
        <time>2017-03-09T12:19:10Z</time>
      </trkpt>
      <trkpt lat="43.65297" lon="3.82568">
        <ele>149.8</ele>
        <time>2017-03-09T12:19:15Z</time>
      </trkpt>
      <trkpt lat="43.6529" lon="3.82568">
        <ele>150.5</ele>
        <time>2017-03-09T12:19:20Z</time>
      </trkpt>
      <trkpt lat="43.65282" lon="3.8257">
        <ele>151.2</ele>
        <time>2017-03-09T12:19:25Z</time>
      </trkpt>
      <trkpt lat="43.65273" lon="3.82572">
        <ele>152.4</ele>
        <time>2017-03-09T12:19:32Z</time>
      </trkpt>
      <trkpt lat="43.65265" lon="3.82572">
        <ele>154</ele>
        <time>2017-03-09T12:19:38Z</time>
      </trkpt>
      <trkpt lat="43.65257" lon="3.82575">
        <ele>155.2</ele>
        <time>2017-03-09T12:19:42Z</time>
      </trkpt>
      <trkpt lat="43.65251" lon="3.82581">
        <ele>156.4</ele>
        <time>2017-03-09T12:19:46Z</time>
      </trkpt>
      <trkpt lat="43.65249" lon="3.82582">
        <ele>158.4</ele>
        <time>2017-03-09T12:19:53Z</time>
      </trkpt>
      <trkpt lat="43.65242" lon="3.82596">
        <ele>158.9</ele>
        <time>2017-03-09T12:19:55Z</time>
      </trkpt>
      <trkpt lat="43.65225" lon="3.82596">
        <ele>160.3</ele>
        <time>2017-03-09T12:20:05Z</time>
      </trkpt>
      <trkpt lat="43.65217" lon="3.8259">
        <ele>160.7</ele>
        <time>2017-03-09T12:20:08Z</time>
      </trkpt>
      <trkpt lat="43.65211" lon="3.82583">
        <ele>161</ele>
        <time>2017-03-09T12:20:10Z</time>
      </trkpt>
      <trkpt lat="43.65205" lon="3.82577">
        <ele>161.3</ele>
        <time>2017-03-09T12:20:12Z</time>
      </trkpt>
      <trkpt lat="43.652" lon="3.8257">
        <ele>161.5</ele>
        <time>2017-03-09T12:20:14Z</time>
      </trkpt>
      <trkpt lat="43.65193" lon="3.82563">
        <ele>161.8</ele>
        <time>2017-03-09T12:20:16Z</time>
      </trkpt>
      <trkpt lat="43.65186" lon="3.82553">
        <ele>162.2</ele>
        <time>2017-03-09T12:20:19Z</time>
      </trkpt>
      <trkpt lat="43.6518" lon="3.82543">
        <ele>162.6</ele>
        <time>2017-03-09T12:20:22Z</time>
      </trkpt>
      <trkpt lat="43.65174" lon="3.82536">
        <ele>163</ele>
        <time>2017-03-09T12:20:25Z</time>
      </trkpt>
      <trkpt lat="43.65168" lon="3.82531">
        <ele>163.3</ele>
        <time>2017-03-09T12:20:28Z</time>
      </trkpt>
      <trkpt lat="43.65163" lon="3.82522">
        <ele>163.6</ele>
        <time>2017-03-09T12:20:30Z</time>
      </trkpt>
      <trkpt lat="43.65155" lon="3.82512">
        <ele>163.7</ele>
        <time>2017-03-09T12:20:32Z</time>
      </trkpt>
      <trkpt lat="43.65149" lon="3.82502">
        <ele>163.9</ele>
        <time>2017-03-09T12:20:35Z</time>
      </trkpt>
      <trkpt lat="43.65145" lon="3.82494">
        <ele>163.8</ele>
        <time>2017-03-09T12:20:37Z</time>
      </trkpt>
      <trkpt lat="43.65148" lon="3.82482">
        <ele>163.9</ele>
        <time>2017-03-09T12:20:40Z</time>
      </trkpt>
      <trkpt lat="43.65152" lon="3.82473">
        <ele>164</ele>
        <time>2017-03-09T12:20:42Z</time>
      </trkpt>
      <trkpt lat="43.65153" lon="3.82462">
        <ele>164.2</ele>
        <time>2017-03-09T12:20:44Z</time>
      </trkpt>
      <trkpt lat="43.65153" lon="3.8245">
        <ele>164.4</ele>
        <time>2017-03-09T12:20:47Z</time>
      </trkpt>
      <trkpt lat="43.65151" lon="3.8244">
        <ele>164.4</ele>
        <time>2017-03-09T12:20:50Z</time>
      </trkpt>
      <trkpt lat="43.65149" lon="3.82429">
        <ele>164.4</ele>
        <time>2017-03-09T12:20:53Z</time>
      </trkpt>
      <trkpt lat="43.65145" lon="3.82417">
        <ele>164.5</ele>
        <time>2017-03-09T12:20:56Z</time>
      </trkpt>
      <trkpt lat="43.65141" lon="3.82408">
        <ele>164.5</ele>
        <time>2017-03-09T12:20:59Z</time>
      </trkpt>
      <trkpt lat="43.65138" lon="3.82398">
        <ele>164.4</ele>
        <time>2017-03-09T12:21:01Z</time>
      </trkpt>
      <trkpt lat="43.65133" lon="3.82386">
        <ele>164.4</ele>
        <time>2017-03-09T12:21:04Z</time>
      </trkpt>
      <trkpt lat="43.65126" lon="3.82376">
        <ele>164.5</ele>
        <time>2017-03-09T12:21:07Z</time>
      </trkpt>
      <trkpt lat="43.6512" lon="3.82371">
        <ele>164.7</ele>
        <time>2017-03-09T12:21:09Z</time>
      </trkpt>
      <trkpt lat="43.65111" lon="3.82366">
        <ele>165.8</ele>
        <time>2017-03-09T12:21:11Z</time>
      </trkpt>
      <trkpt lat="43.65103" lon="3.82362">
        <ele>166.3</ele>
        <time>2017-03-09T12:21:13Z</time>
      </trkpt>
      <trkpt lat="43.65093" lon="3.82358">
        <ele>167.6</ele>
        <time>2017-03-09T12:21:15Z</time>
      </trkpt>
      <trkpt lat="43.6508" lon="3.82363">
        <ele>167.8</ele>
        <time>2017-03-09T12:21:17Z</time>
      </trkpt>
      <trkpt lat="43.65071" lon="3.82371">
        <ele>167.5</ele>
        <time>2017-03-09T12:21:19Z</time>
      </trkpt>
      <trkpt lat="43.65065" lon="3.82385">
        <ele>166.5</ele>
        <time>2017-03-09T12:21:21Z</time>
      </trkpt>
      <trkpt lat="43.65062" lon="3.82398">
        <ele>166.6</ele>
        <time>2017-03-09T12:21:23Z</time>
      </trkpt>
      <trkpt lat="43.65059" lon="3.82408">
        <ele>166.3</ele>
        <time>2017-03-09T12:21:25Z</time>
      </trkpt>
      <trkpt lat="43.6505" lon="3.82409">
        <ele>166.2</ele>
        <time>2017-03-09T12:21:27Z</time>
      </trkpt>
      <trkpt lat="43.6504" lon="3.82413">
        <ele>165.9</ele>
        <time>2017-03-09T12:21:29Z</time>
      </trkpt>
      <trkpt lat="43.65028" lon="3.82417">
        <ele>166.1</ele>
        <time>2017-03-09T12:21:31Z</time>
      </trkpt>
      <trkpt lat="43.65017" lon="3.82419">
        <ele>167.7</ele>
        <time>2017-03-09T12:21:33Z</time>
      </trkpt>
      <trkpt lat="43.65009" lon="3.82426">
        <ele>166.8</ele>
        <time>2017-03-09T12:21:35Z</time>
      </trkpt>
      <trkpt lat="43.65003" lon="3.82433">
        <ele>165.6</ele>
        <time>2017-03-09T12:21:37Z</time>
      </trkpt>
      <trkpt lat="43.64996" lon="3.82442">
        <ele>165.3</ele>
        <time>2017-03-09T12:21:41Z</time>
      </trkpt>
      <trkpt lat="43.64989" lon="3.82453">
        <ele>164.7</ele>
        <time>2017-03-09T12:21:43Z</time>
      </trkpt>
      <trkpt lat="43.64981" lon="3.82452">
        <ele>163</ele>
        <time>2017-03-09T12:21:45Z</time>
      </trkpt>
      <trkpt lat="43.64971" lon="3.8245">
        <ele>162.1</ele>
        <time>2017-03-09T12:21:47Z</time>
      </trkpt>
      <trkpt lat="43.64959" lon="3.82447">
        <ele>160.5</ele>
        <time>2017-03-09T12:21:49Z</time>
      </trkpt>
      <trkpt lat="43.64945" lon="3.82451">
        <ele>159.8</ele>
        <time>2017-03-09T12:21:51Z</time>
      </trkpt>
      <trkpt lat="43.64937" lon="3.82454">
        <ele>159.4</ele>
        <time>2017-03-09T12:21:52Z</time>
      </trkpt>
      <trkpt lat="43.64931" lon="3.82459">
        <ele>159.3</ele>
        <time>2017-03-09T12:21:53Z</time>
      </trkpt>
      <trkpt lat="43.64918" lon="3.82467">
        <ele>158.7</ele>
        <time>2017-03-09T12:21:55Z</time>
      </trkpt>
      <trkpt lat="43.64907" lon="3.82468">
        <ele>157.5</ele>
        <time>2017-03-09T12:21:57Z</time>
      </trkpt>
      <trkpt lat="43.64895" lon="3.82468">
        <ele>157.4</ele>
        <time>2017-03-09T12:21:59Z</time>
      </trkpt>
      <trkpt lat="43.64887" lon="3.82467">
        <ele>157</ele>
        <time>2017-03-09T12:22:00Z</time>
      </trkpt>
      <trkpt lat="43.64873" lon="3.82467">
        <ele>156.7</ele>
        <time>2017-03-09T12:22:02Z</time>
      </trkpt>
      <trkpt lat="43.64865" lon="3.82468">
        <ele>156.3</ele>
        <time>2017-03-09T12:22:03Z</time>
      </trkpt>
      <trkpt lat="43.64858" lon="3.82465">
        <ele>156.4</ele>
        <time>2017-03-09T12:22:04Z</time>
      </trkpt>
      <trkpt lat="43.64844" lon="3.82461">
        <ele>157.1</ele>
        <time>2017-03-09T12:22:06Z</time>
      </trkpt>
      <trkpt lat="43.64831" lon="3.82455">
        <ele>157.4</ele>
        <time>2017-03-09T12:22:08Z</time>
      </trkpt>
      <trkpt lat="43.64819" lon="3.82451">
        <ele>156.9</ele>
        <time>2017-03-09T12:22:10Z</time>
      </trkpt>
      <trkpt lat="43.64812" lon="3.82447">
        <ele>156.1</ele>
        <time>2017-03-09T12:22:11Z</time>
      </trkpt>
      <trkpt lat="43.64798" lon="3.8244">
        <ele>154.6</ele>
        <time>2017-03-09T12:22:13Z</time>
      </trkpt>
      <trkpt lat="43.64785" lon="3.82433">
        <ele>153</ele>
        <time>2017-03-09T12:22:15Z</time>
      </trkpt>
      <trkpt lat="43.64772" lon="3.82431">
        <ele>152.1</ele>
        <time>2017-03-09T12:22:17Z</time>
      </trkpt>
      <trkpt lat="43.64764" lon="3.82433">
        <ele>151.6</ele>
        <time>2017-03-09T12:22:18Z</time>
      </trkpt>
      <trkpt lat="43.6475" lon="3.82434">
        <ele>151</ele>
        <time>2017-03-09T12:22:20Z</time>
      </trkpt>
      <trkpt lat="43.64742" lon="3.82435">
        <ele>150.7</ele>
        <time>2017-03-09T12:22:21Z</time>
      </trkpt>
      <trkpt lat="43.64734" lon="3.82434">
        <ele>150.5</ele>
        <time>2017-03-09T12:22:22Z</time>
      </trkpt>
      <trkpt lat="43.64727" lon="3.82432">
        <ele>150</ele>
        <time>2017-03-09T12:22:23Z</time>
      </trkpt>
      <trkpt lat="43.64719" lon="3.82429">
        <ele>150.1</ele>
        <time>2017-03-09T12:22:24Z</time>
      </trkpt>
      <trkpt lat="43.64711" lon="3.82426">
        <ele>150.3</ele>
        <time>2017-03-09T12:22:25Z</time>
      </trkpt>
      <trkpt lat="43.64704" lon="3.82424">
        <ele>150.6</ele>
        <time>2017-03-09T12:22:26Z</time>
      </trkpt>
      <trkpt lat="43.64697" lon="3.8242">
        <ele>150.6</ele>
        <time>2017-03-09T12:22:27Z</time>
      </trkpt>
      <trkpt lat="43.64689" lon="3.82417">
        <ele>150.5</ele>
        <time>2017-03-09T12:22:28Z</time>
      </trkpt>
      <trkpt lat="43.64682" lon="3.82413">
        <ele>150.5</ele>
        <time>2017-03-09T12:22:29Z</time>
      </trkpt>
      <trkpt lat="43.64669" lon="3.82405">
        <ele>150.7</ele>
        <time>2017-03-09T12:22:31Z</time>
      </trkpt>
      <trkpt lat="43.64658" lon="3.82395">
        <ele>151.6</ele>
        <time>2017-03-09T12:22:33Z</time>
      </trkpt>
      <trkpt lat="43.64647" lon="3.82386">
        <ele>150.7</ele>
        <time>2017-03-09T12:22:35Z</time>
      </trkpt>
      <trkpt lat="43.64634" lon="3.82377">
        <ele>150.3</ele>
        <time>2017-03-09T12:22:37Z</time>
      </trkpt>
      <trkpt lat="43.64627" lon="3.82372">
        <ele>150.6</ele>
        <time>2017-03-09T12:22:38Z</time>
      </trkpt>
      <trkpt lat="43.64616" lon="3.82362">
        <ele>150.5</ele>
        <time>2017-03-09T12:22:40Z</time>
      </trkpt>
      <trkpt lat="43.64603" lon="3.82352">
        <ele>150.2</ele>
        <time>2017-03-09T12:22:42Z</time>
      </trkpt>
      <trkpt lat="43.64593" lon="3.82344">
        <ele>149.5</ele>
        <time>2017-03-09T12:22:44Z</time>
      </trkpt>
      <trkpt lat="43.64584" lon="3.82336">
        <ele>150.7</ele>
        <time>2017-03-09T12:22:46Z</time>
      </trkpt>
      <trkpt lat="43.64574" lon="3.82327">
        <ele>151.2</ele>
        <time>2017-03-09T12:22:48Z</time>
      </trkpt>
      <trkpt lat="43.64565" lon="3.82319">
        <ele>151.1</ele>
        <time>2017-03-09T12:22:50Z</time>
      </trkpt>
      <trkpt lat="43.64556" lon="3.82317">
        <ele>150.8</ele>
        <time>2017-03-09T12:22:52Z</time>
      </trkpt>
      <trkpt lat="43.64546" lon="3.82315">
        <ele>151.5</ele>
        <time>2017-03-09T12:22:54Z</time>
      </trkpt>
      <trkpt lat="43.64535" lon="3.82313">
        <ele>151.5</ele>
        <time>2017-03-09T12:22:56Z</time>
      </trkpt>
      <trkpt lat="43.64523" lon="3.8231">
        <ele>151</ele>
        <time>2017-03-09T12:22:58Z</time>
      </trkpt>
      <trkpt lat="43.64511" lon="3.82308">
        <ele>150</ele>
        <time>2017-03-09T12:23:00Z</time>
      </trkpt>
      <trkpt lat="43.645" lon="3.82299">
        <ele>150.5</ele>
        <time>2017-03-09T12:23:02Z</time>
      </trkpt>
      <trkpt lat="43.64489" lon="3.8229">
        <ele>150</ele>
        <time>2017-03-09T12:23:04Z</time>
      </trkpt>
      <trkpt lat="43.6448" lon="3.82292">
        <ele>149.2</ele>
        <time>2017-03-09T12:23:06Z</time>
      </trkpt>
      <trkpt lat="43.64472" lon="3.82295">
        <ele>148.6</ele>
        <time>2017-03-09T12:23:08Z</time>
      </trkpt>
      <trkpt lat="43.64466" lon="3.82287">
        <ele>148.1</ele>
        <time>2017-03-09T12:23:10Z</time>
      </trkpt>
      <trkpt lat="43.64461" lon="3.82278">
        <ele>147.9</ele>
        <time>2017-03-09T12:23:12Z</time>
      </trkpt>
      <trkpt lat="43.64453" lon="3.82275">
        <ele>148</ele>
        <time>2017-03-09T12:23:15Z</time>
      </trkpt>
      <trkpt lat="43.64446" lon="3.8227">
        <ele>148</ele>
        <time>2017-03-09T12:23:17Z</time>
      </trkpt>
      <trkpt lat="43.64439" lon="3.82264">
        <ele>147.9</ele>
        <time>2017-03-09T12:23:19Z</time>
      </trkpt>
      <trkpt lat="43.64431" lon="3.82256">
        <ele>147.8</ele>
        <time>2017-03-09T12:23:21Z</time>
      </trkpt>
      <trkpt lat="43.64425" lon="3.82248">
        <ele>147.5</ele>
        <time>2017-03-09T12:23:23Z</time>
      </trkpt>
      <trkpt lat="43.64419" lon="3.8224">
        <ele>148.1</ele>
        <time>2017-03-09T12:23:25Z</time>
      </trkpt>
      <trkpt lat="43.64412" lon="3.82245">
        <ele>147.7</ele>
        <time>2017-03-09T12:23:27Z</time>
      </trkpt>
      <trkpt lat="43.64406" lon="3.82251">
        <ele>147</ele>
        <time>2017-03-09T12:23:29Z</time>
      </trkpt>
      <trkpt lat="43.64396" lon="3.82258">
        <ele>146.4</ele>
        <time>2017-03-09T12:23:32Z</time>
      </trkpt>
      <trkpt lat="43.64387" lon="3.82262">
        <ele>146.6</ele>
        <time>2017-03-09T12:23:34Z</time>
      </trkpt>
      <trkpt lat="43.64378" lon="3.82262">
        <ele>146.2</ele>
        <time>2017-03-09T12:23:36Z</time>
      </trkpt>
      <trkpt lat="43.64373" lon="3.82271">
        <ele>146.3</ele>
        <time>2017-03-09T12:23:38Z</time>
      </trkpt>
      <trkpt lat="43.64365" lon="3.82274">
        <ele>146.4</ele>
        <time>2017-03-09T12:23:40Z</time>
      </trkpt>
      <trkpt lat="43.64359" lon="3.82281">
        <ele>147</ele>
        <time>2017-03-09T12:23:42Z</time>
      </trkpt>
      <trkpt lat="43.64353" lon="3.82286">
        <ele>147.2</ele>
        <time>2017-03-09T12:23:44Z</time>
      </trkpt>
      <trkpt lat="43.64347" lon="3.82294">
        <ele>147.6</ele>
        <time>2017-03-09T12:23:46Z</time>
      </trkpt>
      <trkpt lat="43.64343" lon="3.82304">
        <ele>148.8</ele>
        <time>2017-03-09T12:23:48Z</time>
      </trkpt>
      <trkpt lat="43.64336" lon="3.82316">
        <ele>149.3</ele>
        <time>2017-03-09T12:23:50Z</time>
      </trkpt>
      <trkpt lat="43.6433" lon="3.8233">
        <ele>149.2</ele>
        <time>2017-03-09T12:23:52Z</time>
      </trkpt>
      <trkpt lat="43.64325" lon="3.82344">
        <ele>148.9</ele>
        <time>2017-03-09T12:23:54Z</time>
      </trkpt>
      <trkpt lat="43.64318" lon="3.82358">
        <ele>147.6</ele>
        <time>2017-03-09T12:23:56Z</time>
      </trkpt>
      <trkpt lat="43.64315" lon="3.82372">
        <ele>147.8</ele>
        <time>2017-03-09T12:23:58Z</time>
      </trkpt>
      <trkpt lat="43.64308" lon="3.8239">
        <ele>147</ele>
        <time>2017-03-09T12:24:00Z</time>
      </trkpt>
      <trkpt lat="43.643" lon="3.82393">
        <ele>146.8</ele>
        <time>2017-03-09T12:24:02Z</time>
      </trkpt>
      <trkpt lat="43.64296" lon="3.82404">
        <ele>147.1</ele>
        <time>2017-03-09T12:24:05Z</time>
      </trkpt>
      <trkpt lat="43.64289" lon="3.82415">
        <ele>147.8</ele>
        <time>2017-03-09T12:24:07Z</time>
      </trkpt>
      <trkpt lat="43.64283" lon="3.82428">
        <ele>148.2</ele>
        <time>2017-03-09T12:24:09Z</time>
      </trkpt>
      <trkpt lat="43.64277" lon="3.82442">
        <ele>147.2</ele>
        <time>2017-03-09T12:24:11Z</time>
      </trkpt>
      <trkpt lat="43.64272" lon="3.82453">
        <ele>146.6</ele>
        <time>2017-03-09T12:24:12Z</time>
      </trkpt>
      <trkpt lat="43.64266" lon="3.82466">
        <ele>146</ele>
        <time>2017-03-09T12:24:14Z</time>
      </trkpt>
      <trkpt lat="43.64261" lon="3.82477">
        <ele>145.6</ele>
        <time>2017-03-09T12:24:15Z</time>
      </trkpt>
      <trkpt lat="43.64257" lon="3.82487">
        <ele>145.4</ele>
        <time>2017-03-09T12:24:16Z</time>
      </trkpt>
      <trkpt lat="43.64253" lon="3.82497">
        <ele>145</ele>
        <time>2017-03-09T12:24:17Z</time>
      </trkpt>
      <trkpt lat="43.64249" lon="3.82506">
        <ele>144.3</ele>
        <time>2017-03-09T12:24:18Z</time>
      </trkpt>
      <trkpt lat="43.64245" lon="3.82515">
        <ele>143.6</ele>
        <time>2017-03-09T12:24:19Z</time>
      </trkpt>
      <trkpt lat="43.6424" lon="3.82524">
        <ele>144.2</ele>
        <time>2017-03-09T12:24:20Z</time>
      </trkpt>
      <trkpt lat="43.64235" lon="3.82533">
        <ele>145</ele>
        <time>2017-03-09T12:24:21Z</time>
      </trkpt>
      <trkpt lat="43.64231" lon="3.82542">
        <ele>144.8</ele>
        <time>2017-03-09T12:24:22Z</time>
      </trkpt>
      <trkpt lat="43.64226" lon="3.82552">
        <ele>144.4</ele>
        <time>2017-03-09T12:24:23Z</time>
      </trkpt>
      <trkpt lat="43.64221" lon="3.82562">
        <ele>144.1</ele>
        <time>2017-03-09T12:24:24Z</time>
      </trkpt>
      <trkpt lat="43.64216" lon="3.82571">
        <ele>143.6</ele>
        <time>2017-03-09T12:24:25Z</time>
      </trkpt>
      <trkpt lat="43.6421" lon="3.82581">
        <ele>143.3</ele>
        <time>2017-03-09T12:24:26Z</time>
      </trkpt>
      <trkpt lat="43.64205" lon="3.8259">
        <ele>143.4</ele>
        <time>2017-03-09T12:24:27Z</time>
      </trkpt>
      <trkpt lat="43.642" lon="3.82597">
        <ele>142.6</ele>
        <time>2017-03-09T12:24:28Z</time>
      </trkpt>
      <trkpt lat="43.64195" lon="3.82605">
        <ele>141.8</ele>
        <time>2017-03-09T12:24:29Z</time>
      </trkpt>
      <trkpt lat="43.64188" lon="3.82614">
        <ele>141.5</ele>
        <time>2017-03-09T12:24:30Z</time>
      </trkpt>
      <trkpt lat="43.64182" lon="3.82621">
        <ele>141.6</ele>
        <time>2017-03-09T12:24:31Z</time>
      </trkpt>
      <trkpt lat="43.64177" lon="3.82629">
        <ele>142</ele>
        <time>2017-03-09T12:24:32Z</time>
      </trkpt>
      <trkpt lat="43.6417" lon="3.82637">
        <ele>141.5</ele>
        <time>2017-03-09T12:24:33Z</time>
      </trkpt>
      <trkpt lat="43.64164" lon="3.82647">
        <ele>140.8</ele>
        <time>2017-03-09T12:24:34Z</time>
      </trkpt>
      <trkpt lat="43.64157" lon="3.82655">
        <ele>140.4</ele>
        <time>2017-03-09T12:24:35Z</time>
      </trkpt>
      <trkpt lat="43.6415" lon="3.82664">
        <ele>139.8</ele>
        <time>2017-03-09T12:24:36Z</time>
      </trkpt>
      <trkpt lat="43.64143" lon="3.82671">
        <ele>139</ele>
        <time>2017-03-09T12:24:37Z</time>
      </trkpt>
      <trkpt lat="43.64136" lon="3.82677">
        <ele>138.5</ele>
        <time>2017-03-09T12:24:38Z</time>
      </trkpt>
      <trkpt lat="43.64129" lon="3.82686">
        <ele>138.5</ele>
        <time>2017-03-09T12:24:39Z</time>
      </trkpt>
      <trkpt lat="43.64122" lon="3.82693">
        <ele>137.8</ele>
        <time>2017-03-09T12:24:40Z</time>
      </trkpt>
      <trkpt lat="43.64114" lon="3.82702">
        <ele>137.1</ele>
        <time>2017-03-09T12:24:41Z</time>
      </trkpt>
      <trkpt lat="43.64107" lon="3.8271">
        <ele>136.6</ele>
        <time>2017-03-09T12:24:42Z</time>
      </trkpt>
      <trkpt lat="43.64099" lon="3.82718">
        <ele>136.9</ele>
        <time>2017-03-09T12:24:43Z</time>
      </trkpt>
      <trkpt lat="43.6409" lon="3.82723">
        <ele>136.6</ele>
        <time>2017-03-09T12:24:44Z</time>
      </trkpt>
      <trkpt lat="43.6408" lon="3.8273">
        <ele>135.7</ele>
        <time>2017-03-09T12:24:45Z</time>
      </trkpt>
      <trkpt lat="43.64071" lon="3.82735">
        <ele>135.3</ele>
        <time>2017-03-09T12:24:46Z</time>
      </trkpt>
      <trkpt lat="43.64064" lon="3.82743">
        <ele>135.3</ele>
        <time>2017-03-09T12:24:47Z</time>
      </trkpt>
      <trkpt lat="43.64056" lon="3.82752">
        <ele>135</ele>
        <time>2017-03-09T12:24:48Z</time>
      </trkpt>
      <trkpt lat="43.64049" lon="3.82759">
        <ele>134.7</ele>
        <time>2017-03-09T12:24:49Z</time>
      </trkpt>
      <trkpt lat="43.64042" lon="3.82766">
        <ele>134.8</ele>
        <time>2017-03-09T12:24:50Z</time>
      </trkpt>
      <trkpt lat="43.64035" lon="3.82772">
        <ele>134.6</ele>
        <time>2017-03-09T12:24:51Z</time>
      </trkpt>
      <trkpt lat="43.64027" lon="3.82775">
        <ele>134.2</ele>
        <time>2017-03-09T12:24:52Z</time>
      </trkpt>
      <trkpt lat="43.64017" lon="3.82785">
        <ele>133.6</ele>
        <time>2017-03-09T12:24:54Z</time>
      </trkpt>
      <trkpt lat="43.64009" lon="3.82801">
        <ele>134.3</ele>
        <time>2017-03-09T12:24:56Z</time>
      </trkpt>
      <trkpt lat="43.64001" lon="3.82803">
        <ele>134.7</ele>
        <time>2017-03-09T12:24:57Z</time>
      </trkpt>
      <trkpt lat="43.63987" lon="3.82803">
        <ele>135</ele>
        <time>2017-03-09T12:24:59Z</time>
      </trkpt>
      <trkpt lat="43.63976" lon="3.8281">
        <ele>133.2</ele>
        <time>2017-03-09T12:25:01Z</time>
      </trkpt>
      <trkpt lat="43.63967" lon="3.82821">
        <ele>131.9</ele>
        <time>2017-03-09T12:25:03Z</time>
      </trkpt>
      <trkpt lat="43.63959" lon="3.82825">
        <ele>131.3</ele>
        <time>2017-03-09T12:25:04Z</time>
      </trkpt>
      <trkpt lat="43.63951" lon="3.82829">
        <ele>131.2</ele>
        <time>2017-03-09T12:25:05Z</time>
      </trkpt>
      <trkpt lat="43.63944" lon="3.8283">
        <ele>131.6</ele>
        <time>2017-03-09T12:25:06Z</time>
      </trkpt>
      <trkpt lat="43.63933" lon="3.82834">
        <ele>132</ele>
        <time>2017-03-09T12:25:08Z</time>
      </trkpt>
      <trkpt lat="43.63924" lon="3.8283">
        <ele>131.8</ele>
        <time>2017-03-09T12:25:10Z</time>
      </trkpt>
      <trkpt lat="43.63915" lon="3.82829">
        <ele>131.6</ele>
        <time>2017-03-09T12:25:12Z</time>
      </trkpt>
      <trkpt lat="43.63913" lon="3.82819">
        <ele>131.4</ele>
        <time>2017-03-09T12:25:14Z</time>
      </trkpt>
      <trkpt lat="43.63909" lon="3.82809">
        <ele>130.9</ele>
        <time>2017-03-09T12:25:18Z</time>
      </trkpt>
      <trkpt lat="43.63898" lon="3.82807">
        <ele>131</ele>
        <time>2017-03-09T12:25:24Z</time>
      </trkpt>
      <trkpt lat="43.63892" lon="3.82797">
        <ele>131.1</ele>
        <time>2017-03-09T12:25:25Z</time>
      </trkpt>
      <trkpt lat="43.63884" lon="3.82783">
        <ele>131.1</ele>
        <time>2017-03-09T12:25:27Z</time>
      </trkpt>
      <trkpt lat="43.63875" lon="3.82792">
        <ele>131.5</ele>
        <time>2017-03-09T12:25:31Z</time>
      </trkpt>
      <trkpt lat="43.63867" lon="3.82801">
        <ele>131.5</ele>
        <time>2017-03-09T12:25:33Z</time>
      </trkpt>
      <trkpt lat="43.63855" lon="3.82806">
        <ele>130.8</ele>
        <time>2017-03-09T12:25:35Z</time>
      </trkpt>
      <trkpt lat="43.63847" lon="3.82806">
        <ele>130.5</ele>
        <time>2017-03-09T12:25:36Z</time>
      </trkpt>
      <trkpt lat="43.63839" lon="3.82805">
        <ele>130</ele>
        <time>2017-03-09T12:25:37Z</time>
      </trkpt>
      <trkpt lat="43.63827" lon="3.82804">
        <ele>129.5</ele>
        <time>2017-03-09T12:25:39Z</time>
      </trkpt>
      <trkpt lat="43.63817" lon="3.82807">
        <ele>129</ele>
        <time>2017-03-09T12:25:41Z</time>
      </trkpt>
      <trkpt lat="43.63803" lon="3.82812">
        <ele>129.7</ele>
        <time>2017-03-09T12:25:43Z</time>
      </trkpt>
      <trkpt lat="43.63796" lon="3.82814">
        <ele>128.9</ele>
        <time>2017-03-09T12:25:44Z</time>
      </trkpt>
      <trkpt lat="43.63785" lon="3.82819">
        <ele>128.1</ele>
        <time>2017-03-09T12:25:46Z</time>
      </trkpt>
      <trkpt lat="43.63779" lon="3.8283">
        <ele>128</ele>
        <time>2017-03-09T12:25:49Z</time>
      </trkpt>
      <trkpt lat="43.6378" lon="3.8284">
        <ele>128</ele>
        <time>2017-03-09T12:25:53Z</time>
      </trkpt>
      <trkpt lat="43.63783" lon="3.82851">
        <ele>127.9</ele>
        <time>2017-03-09T12:25:55Z</time>
      </trkpt>
      <trkpt lat="43.63776" lon="3.82854">
        <ele>127.5</ele>
        <time>2017-03-09T12:25:58Z</time>
      </trkpt>
      <trkpt lat="43.63774" lon="3.82855">
        <ele>127.3</ele>
        <time>2017-03-09T12:26:05Z</time>
      </trkpt>
      <trkpt lat="43.6376" lon="3.82846">
        <ele>127</ele>
        <time>2017-03-09T12:26:24Z</time>
      </trkpt>
    </trkseg>
  </trk>
</gpx>